<?xml version="1.0" encoding="UTF-8" standalone="no" ?>
<gpx xmlns="http://www.topografix.com/GPX/1/1" xmlns:xsi="http://www.w3.org/2001/XMLSchema-instance" xsi:schemaLocation="http://www.topografix.com/GPX/1/1 http://www.topografix.com/GPX/1/1/gpx.xsd" version="1.1" creator="VisuGPX - https://www.visugpx.com">
  <metadata>
    <name>F26120 la Baume C. la Raye pas de la Croix pas du Pont</name>
    <desc><![CDATA[File with points/tracks from Locus Map/3.47.1]]></desc>
  </metadata>
  <trk>
    <name><![CDATA[F26120 la Baume C. la Raye pas de la Croix pas du Pont]]></name>
    <extensions>
      <line xmlns="http://www.topografix.com/GPX/gpx_style/0/2">
        <color>0000FF</color>
        <opacity>0.59</opacity>
        <width>6.0</width>
      </line>
    </extensions>
    <trkseg>
      <trkpt lat="44.82374" lon="5.03933">
        <ele>321.01</ele>
        <time>2020-07-21T05:03:29.974Z</time>
      </trkpt>
      <trkpt lat="44.82371" lon="5.03937">
        <ele>321.62</ele>
        <time>2020-07-21T05:03:39.000Z</time>
      </trkpt>
      <trkpt lat="44.82369" lon="5.03944">
        <ele>322.42</ele>
        <time>2020-07-21T05:03:49.000Z</time>
      </trkpt>
      <trkpt lat="44.82365" lon="5.03956">
        <ele>323.8</ele>
        <time>2020-07-21T05:03:59.000Z</time>
      </trkpt>
      <trkpt lat="44.82361" lon="5.03966">
        <ele>325.21</ele>
        <time>2020-07-21T05:04:09.000Z</time>
      </trkpt>
      <trkpt lat="44.82355" lon="5.03976">
        <ele>326.94</ele>
        <time>2020-07-21T05:04:19.000Z</time>
      </trkpt>
      <trkpt lat="44.82347" lon="5.03982">
        <ele>328.8</ele>
        <time>2020-07-21T05:04:29.000Z</time>
      </trkpt>
      <trkpt lat="44.82339" lon="5.03974">
        <ele>329.08</ele>
        <time>2020-07-21T05:04:39.000Z</time>
      </trkpt>
      <trkpt lat="44.82331" lon="5.0397">
        <ele>329.48</ele>
        <time>2020-07-21T05:04:49.000Z</time>
      </trkpt>
      <trkpt lat="44.82321" lon="5.03967">
        <ele>329.87</ele>
        <time>2020-07-21T05:04:59.000Z</time>
      </trkpt>
      <trkpt lat="44.82313" lon="5.03961">
        <ele>329.69</ele>
        <time>2020-07-21T05:05:09.000Z</time>
      </trkpt>
      <trkpt lat="44.82311" lon="5.0397">
        <ele>330.52</ele>
        <time>2020-07-21T05:05:19.000Z</time>
      </trkpt>
      <trkpt lat="44.82316" lon="5.03981">
        <ele>331.27</ele>
        <time>2020-07-21T05:05:29.000Z</time>
      </trkpt>
      <trkpt lat="44.82321" lon="5.03995">
        <ele>332.29</ele>
        <time>2020-07-21T05:05:39.000Z</time>
      </trkpt>
      <trkpt lat="44.82326" lon="5.04006">
        <ele>333.11</ele>
        <time>2020-07-21T05:05:49.000Z</time>
      </trkpt>
      <trkpt lat="44.8233" lon="5.04016">
        <ele>333.71</ele>
        <time>2020-07-21T05:05:59.000Z</time>
      </trkpt>
      <trkpt lat="44.82335" lon="5.04026">
        <ele>334.35</ele>
        <time>2020-07-21T05:06:09.000Z</time>
      </trkpt>
      <trkpt lat="44.82338" lon="5.04038">
        <ele>335.24</ele>
        <time>2020-07-21T05:06:19.000Z</time>
      </trkpt>
      <trkpt lat="44.8234" lon="5.04049">
        <ele>336.27</ele>
        <time>2020-07-21T05:06:29.000Z</time>
      </trkpt>
      <trkpt lat="44.82344" lon="5.04061">
        <ele>337.28</ele>
        <time>2020-07-21T05:06:39.000Z</time>
      </trkpt>
      <trkpt lat="44.82347" lon="5.04072">
        <ele>338.35</ele>
        <time>2020-07-21T05:06:49.000Z</time>
      </trkpt>
      <trkpt lat="44.8235" lon="5.04081">
        <ele>339.22</ele>
        <time>2020-07-21T05:06:59.000Z</time>
      </trkpt>
      <trkpt lat="44.82355" lon="5.0409">
        <ele>340.08</ele>
        <time>2020-07-21T05:07:09.000Z</time>
      </trkpt>
      <trkpt lat="44.82359" lon="5.04099">
        <ele>340.99</ele>
        <time>2020-07-21T05:07:19.000Z</time>
      </trkpt>
      <trkpt lat="44.82362" lon="5.04109">
        <ele>342.37</ele>
        <time>2020-07-21T05:07:29.000Z</time>
      </trkpt>
      <trkpt lat="44.82362" lon="5.0412">
        <ele>344.27</ele>
        <time>2020-07-21T05:07:39.000Z</time>
      </trkpt>
      <trkpt lat="44.82364" lon="5.04128">
        <ele>345.57</ele>
        <time>2020-07-21T05:07:49.000Z</time>
      </trkpt>
      <trkpt lat="44.82365" lon="5.04139">
        <ele>347.52</ele>
        <time>2020-07-21T05:07:59.000Z</time>
      </trkpt>
      <trkpt lat="44.82366" lon="5.04148">
        <ele>349.19</ele>
        <time>2020-07-21T05:08:09.000Z</time>
      </trkpt>
      <trkpt lat="44.82368" lon="5.04157">
        <ele>350.99</ele>
        <time>2020-07-21T05:08:19.000Z</time>
      </trkpt>
      <trkpt lat="44.82368" lon="5.04168">
        <ele>353.15</ele>
        <time>2020-07-21T05:08:29.000Z</time>
      </trkpt>
      <trkpt lat="44.82365" lon="5.04175">
        <ele>355.26</ele>
        <time>2020-07-21T05:08:39.000Z</time>
      </trkpt>
      <trkpt lat="44.82362" lon="5.04183">
        <ele>357.52</ele>
        <time>2020-07-21T05:08:49.000Z</time>
      </trkpt>
      <trkpt lat="44.82365" lon="5.04188">
        <ele>358.52</ele>
        <time>2020-07-21T05:08:59.000Z</time>
      </trkpt>
      <trkpt lat="44.82369" lon="5.04195">
        <ele>359.67</ele>
        <time>2020-07-21T05:09:09.000Z</time>
      </trkpt>
      <trkpt lat="44.82373" lon="5.04204">
        <ele>361.18</ele>
        <time>2020-07-21T05:09:19.000Z</time>
      </trkpt>
      <trkpt lat="44.82373" lon="5.04212">
        <ele>362.99</ele>
        <time>2020-07-21T05:09:29.000Z</time>
      </trkpt>
      <trkpt lat="44.82371" lon="5.04216">
        <ele>364.6</ele>
        <time>2020-07-21T05:09:39.000Z</time>
      </trkpt>
      <trkpt lat="44.82372" lon="5.04224">
        <ele>366.44</ele>
        <time>2020-07-21T05:09:49.000Z</time>
      </trkpt>
      <trkpt lat="44.82376" lon="5.04229">
        <ele>366.51</ele>
        <time>2020-07-21T05:09:59.000Z</time>
      </trkpt>
      <trkpt lat="44.82376" lon="5.04236">
        <ele>368.09</ele>
        <time>2020-07-21T05:10:09.000Z</time>
      </trkpt>
      <trkpt lat="44.82378" lon="5.04245">
        <ele>369.94</ele>
        <time>2020-07-21T05:10:19.000Z</time>
      </trkpt>
      <trkpt lat="44.82378" lon="5.04251">
        <ele>371.3</ele>
        <time>2020-07-21T05:10:29.000Z</time>
      </trkpt>
      <trkpt lat="44.82382" lon="5.04259">
        <ele>372.25</ele>
        <time>2020-07-21T05:10:39.000Z</time>
      </trkpt>
      <trkpt lat="44.82383" lon="5.04266">
        <ele>373.75</ele>
        <time>2020-07-21T05:10:49.000Z</time>
      </trkpt>
      <trkpt lat="44.82385" lon="5.04277">
        <ele>375.8</ele>
        <time>2020-07-21T05:10:59.000Z</time>
      </trkpt>
      <trkpt lat="44.82387" lon="5.04284">
        <ele>377.07</ele>
        <time>2020-07-21T05:11:09.000Z</time>
      </trkpt>
      <trkpt lat="44.82387" lon="5.04293">
        <ele>379.64</ele>
        <time>2020-07-21T05:11:19.000Z</time>
      </trkpt>
      <trkpt lat="44.82386" lon="5.04296">
        <ele>380.82</ele>
        <time>2020-07-21T05:11:29.000Z</time>
      </trkpt>
      <trkpt lat="44.82385" lon="5.0431">
        <ele>384.53</ele>
        <time>2020-07-21T05:11:39.000Z</time>
      </trkpt>
      <trkpt lat="44.82382" lon="5.04317">
        <ele>386.57</ele>
        <time>2020-07-21T05:11:49.000Z</time>
      </trkpt>
      <trkpt lat="44.82384" lon="5.04325">
        <ele>387.61</ele>
        <time>2020-07-21T05:11:59.000Z</time>
      </trkpt>
      <trkpt lat="44.82385" lon="5.04335">
        <ele>388.84</ele>
        <time>2020-07-21T05:12:09.000Z</time>
      </trkpt>
      <trkpt lat="44.82383" lon="5.04342">
        <ele>390.11</ele>
        <time>2020-07-21T05:12:19.000Z</time>
      </trkpt>
      <trkpt lat="44.8238" lon="5.04345">
        <ele>391.16</ele>
        <time>2020-07-21T05:12:29.000Z</time>
      </trkpt>
      <trkpt lat="44.82373" lon="5.04349">
        <ele>392.97</ele>
        <time>2020-07-21T05:12:39.000Z</time>
      </trkpt>
      <trkpt lat="44.82368" lon="5.04353">
        <ele>394.01</ele>
        <time>2020-07-21T05:12:49.000Z</time>
      </trkpt>
      <trkpt lat="44.82361" lon="5.04354">
        <ele>395.27</ele>
        <time>2020-07-21T05:12:59.000Z</time>
      </trkpt>
      <trkpt lat="44.82353" lon="5.04357">
        <ele>396.31</ele>
        <time>2020-07-21T05:13:09.000Z</time>
      </trkpt>
      <trkpt lat="44.82346" lon="5.04368">
        <ele>396</ele>
        <time>2020-07-21T05:13:19.000Z</time>
      </trkpt>
      <trkpt lat="44.82344" lon="5.04378">
        <ele>394.8</ele>
        <time>2020-07-21T05:13:29.000Z</time>
      </trkpt>
      <trkpt lat="44.82348" lon="5.04386">
        <ele>393.58</ele>
        <time>2020-07-21T05:13:39.000Z</time>
      </trkpt>
      <trkpt lat="44.82348" lon="5.04388">
        <ele>393.22</ele>
        <time>2020-07-21T05:13:49.000Z</time>
      </trkpt>
      <trkpt lat="44.8235" lon="5.04388">
        <ele>393.22</ele>
        <time>2020-07-21T05:13:59.000Z</time>
      </trkpt>
      <trkpt lat="44.82351" lon="5.04387">
        <ele>393.34</ele>
        <time>2020-07-21T05:14:09.000Z</time>
      </trkpt>
      <trkpt lat="44.82349" lon="5.04383">
        <ele>393.95</ele>
        <time>2020-07-21T05:14:19.000Z</time>
      </trkpt>
      <trkpt lat="44.82357" lon="5.04384">
        <ele>393.57</ele>
        <time>2020-07-21T05:14:29.000Z</time>
      </trkpt>
      <trkpt lat="44.82367" lon="5.04384">
        <ele>393.2</ele>
        <time>2020-07-21T05:14:39.000Z</time>
      </trkpt>
      <trkpt lat="44.82377" lon="5.0438">
        <ele>392.64</ele>
        <time>2020-07-21T05:14:49.000Z</time>
      </trkpt>
      <trkpt lat="44.82388" lon="5.04377">
        <ele>391.56</ele>
        <time>2020-07-21T05:14:59.000Z</time>
      </trkpt>
      <trkpt lat="44.82398" lon="5.04377">
        <ele>390.48</ele>
        <time>2020-07-21T05:15:09.000Z</time>
      </trkpt>
      <trkpt lat="44.82407" lon="5.04374">
        <ele>389.33</ele>
        <time>2020-07-21T05:15:19.000Z</time>
      </trkpt>
      <trkpt lat="44.82419" lon="5.04371">
        <ele>388.15</ele>
        <time>2020-07-21T05:15:29.000Z</time>
      </trkpt>
      <trkpt lat="44.8243" lon="5.04368">
        <ele>387.06</ele>
        <time>2020-07-21T05:15:39.000Z</time>
      </trkpt>
      <trkpt lat="44.82443" lon="5.04366">
        <ele>385.87</ele>
        <time>2020-07-21T05:15:49.000Z</time>
      </trkpt>
      <trkpt lat="44.82454" lon="5.04366">
        <ele>385.33</ele>
        <time>2020-07-21T05:15:59.000Z</time>
      </trkpt>
      <trkpt lat="44.82461" lon="5.04368">
        <ele>385.6</ele>
        <time>2020-07-21T05:16:09.000Z</time>
      </trkpt>
      <trkpt lat="44.82463" lon="5.04369">
        <ele>385.77</ele>
        <time>2020-07-21T05:16:29.000Z</time>
      </trkpt>
      <trkpt lat="44.82462" lon="5.04367">
        <ele>385.31</ele>
        <time>2020-07-21T05:16:39.000Z</time>
      </trkpt>
      <trkpt lat="44.82462" lon="5.04368">
        <ele>385.6</ele>
        <time>2020-07-21T05:16:50.000Z</time>
      </trkpt>
      <trkpt lat="44.82467" lon="5.04376">
        <ele>386.95</ele>
        <time>2020-07-21T05:17:00.000Z</time>
      </trkpt>
      <trkpt lat="44.82475" lon="5.0438">
        <ele>387.51</ele>
        <time>2020-07-21T05:17:10.000Z</time>
      </trkpt>
      <trkpt lat="44.82486" lon="5.04385">
        <ele>388.51</ele>
        <time>2020-07-21T05:17:20.000Z</time>
      </trkpt>
      <trkpt lat="44.82496" lon="5.0439">
        <ele>389.43</ele>
        <time>2020-07-21T05:17:30.000Z</time>
      </trkpt>
      <trkpt lat="44.82506" lon="5.04396">
        <ele>390.79</ele>
        <time>2020-07-21T05:17:40.000Z</time>
      </trkpt>
      <trkpt lat="44.82514" lon="5.04404">
        <ele>392.24</ele>
        <time>2020-07-21T05:17:50.000Z</time>
      </trkpt>
      <trkpt lat="44.82523" lon="5.04412">
        <ele>393.54</ele>
        <time>2020-07-21T05:18:00.000Z</time>
      </trkpt>
      <trkpt lat="44.8253" lon="5.0442">
        <ele>394.49</ele>
        <time>2020-07-21T05:18:10.000Z</time>
      </trkpt>
      <trkpt lat="44.82535" lon="5.04434">
        <ele>394.44</ele>
        <time>2020-07-21T05:18:20.000Z</time>
      </trkpt>
      <trkpt lat="44.82542" lon="5.04451">
        <ele>393.53</ele>
        <time>2020-07-21T05:18:30.000Z</time>
      </trkpt>
      <trkpt lat="44.82546" lon="5.04468">
        <ele>391.93</ele>
        <time>2020-07-21T05:18:40.000Z</time>
      </trkpt>
      <trkpt lat="44.8255" lon="5.04487">
        <ele>390.72</ele>
        <time>2020-07-21T05:18:50.000Z</time>
      </trkpt>
      <trkpt lat="44.82548" lon="5.04504">
        <ele>389.81</ele>
        <time>2020-07-21T05:19:00.000Z</time>
      </trkpt>
      <trkpt lat="44.82547" lon="5.04522">
        <ele>390.15</ele>
        <time>2020-07-21T05:19:10.000Z</time>
      </trkpt>
      <trkpt lat="44.82546" lon="5.04538">
        <ele>391.23</ele>
        <time>2020-07-21T05:19:20.000Z</time>
      </trkpt>
      <trkpt lat="44.82545" lon="5.04553">
        <ele>392.36</ele>
        <time>2020-07-21T05:19:30.000Z</time>
      </trkpt>
      <trkpt lat="44.82547" lon="5.04566">
        <ele>393.7</ele>
        <time>2020-07-21T05:19:40.000Z</time>
      </trkpt>
      <trkpt lat="44.82549" lon="5.04567">
        <ele>394.57</ele>
        <time>2020-07-21T05:19:50.000Z</time>
      </trkpt>
      <trkpt lat="44.82555" lon="5.04576">
        <ele>396.28</ele>
        <time>2020-07-21T05:20:00.000Z</time>
      </trkpt>
      <trkpt lat="44.82556" lon="5.04577">
        <ele>396.59</ele>
        <time>2020-07-21T05:20:10.000Z</time>
      </trkpt>
      <trkpt lat="44.82557" lon="5.04577">
        <ele>396.85</ele>
        <time>2020-07-21T05:20:46.000Z</time>
      </trkpt>
      <trkpt lat="44.82566" lon="5.0458">
        <ele>398.82</ele>
        <time>2020-07-21T05:20:56.000Z</time>
      </trkpt>
      <trkpt lat="44.82573" lon="5.04584">
        <ele>400.25</ele>
        <time>2020-07-21T05:21:06.000Z</time>
      </trkpt>
      <trkpt lat="44.82574" lon="5.04584">
        <ele>400.47</ele>
        <time>2020-07-21T05:21:35.000Z</time>
      </trkpt>
      <trkpt lat="44.82582" lon="5.0459">
        <ele>401.5</ele>
        <time>2020-07-21T05:21:45.000Z</time>
      </trkpt>
      <trkpt lat="44.82589" lon="5.04598">
        <ele>401.93</ele>
        <time>2020-07-21T05:21:55.000Z</time>
      </trkpt>
      <trkpt lat="44.82597" lon="5.04608">
        <ele>401.78</ele>
        <time>2020-07-21T05:22:05.000Z</time>
      </trkpt>
      <trkpt lat="44.82606" lon="5.04619">
        <ele>401.17</ele>
        <time>2020-07-21T05:22:15.000Z</time>
      </trkpt>
      <trkpt lat="44.82615" lon="5.04631">
        <ele>400</ele>
        <time>2020-07-21T05:22:25.000Z</time>
      </trkpt>
      <trkpt lat="44.82623" lon="5.04644">
        <ele>398.54</ele>
        <time>2020-07-21T05:22:35.000Z</time>
      </trkpt>
      <trkpt lat="44.82631" lon="5.04659">
        <ele>397.14</ele>
        <time>2020-07-21T05:22:45.000Z</time>
      </trkpt>
      <trkpt lat="44.82634" lon="5.04676">
        <ele>395.51</ele>
        <time>2020-07-21T05:22:55.000Z</time>
      </trkpt>
      <trkpt lat="44.82636" lon="5.04694">
        <ele>393.82</ele>
        <time>2020-07-21T05:23:05.000Z</time>
      </trkpt>
      <trkpt lat="44.82637" lon="5.04712">
        <ele>392.1</ele>
        <time>2020-07-21T05:23:15.000Z</time>
      </trkpt>
      <trkpt lat="44.82637" lon="5.0473">
        <ele>390.75</ele>
        <time>2020-07-21T05:23:25.000Z</time>
      </trkpt>
      <trkpt lat="44.82636" lon="5.04746">
        <ele>389.99</ele>
        <time>2020-07-21T05:23:35.000Z</time>
      </trkpt>
      <trkpt lat="44.82634" lon="5.04762">
        <ele>389.79</ele>
        <time>2020-07-21T05:23:45.000Z</time>
      </trkpt>
      <trkpt lat="44.82634" lon="5.0478">
        <ele>390.16</ele>
        <time>2020-07-21T05:23:55.000Z</time>
      </trkpt>
      <trkpt lat="44.8263" lon="5.04795">
        <ele>390.7</ele>
        <time>2020-07-21T05:24:05.000Z</time>
      </trkpt>
      <trkpt lat="44.82624" lon="5.0481">
        <ele>391.29</ele>
        <time>2020-07-21T05:24:15.000Z</time>
      </trkpt>
      <trkpt lat="44.82619" lon="5.04826">
        <ele>392.01</ele>
        <time>2020-07-21T05:24:25.000Z</time>
      </trkpt>
      <trkpt lat="44.82614" lon="5.0484">
        <ele>392.65</ele>
        <time>2020-07-21T05:24:35.000Z</time>
      </trkpt>
      <trkpt lat="44.82608" lon="5.04855">
        <ele>393.31</ele>
        <time>2020-07-21T05:24:45.000Z</time>
      </trkpt>
      <trkpt lat="44.82604" lon="5.0487">
        <ele>394.23</ele>
        <time>2020-07-21T05:24:55.000Z</time>
      </trkpt>
      <trkpt lat="44.826" lon="5.04884">
        <ele>395.21</ele>
        <time>2020-07-21T05:25:05.000Z</time>
      </trkpt>
      <trkpt lat="44.82598" lon="5.04897">
        <ele>396.5</ele>
        <time>2020-07-21T05:25:15.000Z</time>
      </trkpt>
      <trkpt lat="44.82594" lon="5.04909">
        <ele>397.68</ele>
        <time>2020-07-21T05:25:25.000Z</time>
      </trkpt>
      <trkpt lat="44.82591" lon="5.04921">
        <ele>399.33</ele>
        <time>2020-07-21T05:25:35.000Z</time>
      </trkpt>
      <trkpt lat="44.82589" lon="5.04932">
        <ele>401.35</ele>
        <time>2020-07-21T05:25:45.000Z</time>
      </trkpt>
      <trkpt lat="44.82589" lon="5.04943">
        <ele>403.76</ele>
        <time>2020-07-21T05:25:55.000Z</time>
      </trkpt>
      <trkpt lat="44.82588" lon="5.04955">
        <ele>406.53</ele>
        <time>2020-07-21T05:26:05.000Z</time>
      </trkpt>
      <trkpt lat="44.82585" lon="5.04965">
        <ele>408.51</ele>
        <time>2020-07-21T05:26:15.000Z</time>
      </trkpt>
      <trkpt lat="44.8258" lon="5.0497">
        <ele>409.39</ele>
        <time>2020-07-21T05:26:25.000Z</time>
      </trkpt>
      <trkpt lat="44.82576" lon="5.04979">
        <ele>411.08</ele>
        <time>2020-07-21T05:26:35.000Z</time>
      </trkpt>
      <trkpt lat="44.82569" lon="5.04986">
        <ele>412.03</ele>
        <time>2020-07-21T05:26:45.000Z</time>
      </trkpt>
      <trkpt lat="44.82564" lon="5.04994">
        <ele>413.01</ele>
        <time>2020-07-21T05:26:55.000Z</time>
      </trkpt>
      <trkpt lat="44.82558" lon="5.05">
        <ele>413.42</ele>
        <time>2020-07-21T05:27:05.000Z</time>
      </trkpt>
      <trkpt lat="44.82553" lon="5.05009">
        <ele>413.64</ele>
        <time>2020-07-21T05:27:15.000Z</time>
      </trkpt>
      <trkpt lat="44.8255" lon="5.05023">
        <ele>413.35</ele>
        <time>2020-07-21T05:27:25.000Z</time>
      </trkpt>
      <trkpt lat="44.82554" lon="5.05033">
        <ele>413.26</ele>
        <time>2020-07-21T05:27:35.000Z</time>
      </trkpt>
      <trkpt lat="44.8256" lon="5.05042">
        <ele>413.68</ele>
        <time>2020-07-21T05:27:45.000Z</time>
      </trkpt>
      <trkpt lat="44.82567" lon="5.05052">
        <ele>414.31</ele>
        <time>2020-07-21T05:27:55.000Z</time>
      </trkpt>
      <trkpt lat="44.82576" lon="5.0506">
        <ele>415.6</ele>
        <time>2020-07-21T05:28:05.000Z</time>
      </trkpt>
      <trkpt lat="44.82582" lon="5.05072">
        <ele>416.42</ele>
        <time>2020-07-21T05:28:15.000Z</time>
      </trkpt>
      <trkpt lat="44.8259" lon="5.05082">
        <ele>417.47</ele>
        <time>2020-07-21T05:28:25.000Z</time>
      </trkpt>
      <trkpt lat="44.82598" lon="5.05093">
        <ele>418.16</ele>
        <time>2020-07-21T05:28:35.000Z</time>
      </trkpt>
      <trkpt lat="44.82606" lon="5.05105">
        <ele>418.17</ele>
        <time>2020-07-21T05:28:45.000Z</time>
      </trkpt>
      <trkpt lat="44.82611" lon="5.05118">
        <ele>417.14</ele>
        <time>2020-07-21T05:28:55.000Z</time>
      </trkpt>
      <trkpt lat="44.82617" lon="5.05131">
        <ele>416.54</ele>
        <time>2020-07-21T05:29:05.000Z</time>
      </trkpt>
      <trkpt lat="44.82625" lon="5.05143">
        <ele>416.79</ele>
        <time>2020-07-21T05:29:15.000Z</time>
      </trkpt>
      <trkpt lat="44.82631" lon="5.05158">
        <ele>417.44</ele>
        <time>2020-07-21T05:29:25.000Z</time>
      </trkpt>
      <trkpt lat="44.82638" lon="5.05171">
        <ele>418.79</ele>
        <time>2020-07-21T05:29:35.000Z</time>
      </trkpt>
      <trkpt lat="44.82642" lon="5.05186">
        <ele>419.71</ele>
        <time>2020-07-21T05:29:45.000Z</time>
      </trkpt>
      <trkpt lat="44.82645" lon="5.05202">
        <ele>420.05</ele>
        <time>2020-07-21T05:29:55.000Z</time>
      </trkpt>
      <trkpt lat="44.82646" lon="5.05218">
        <ele>420.26</ele>
        <time>2020-07-21T05:30:05.000Z</time>
      </trkpt>
      <trkpt lat="44.82648" lon="5.05233">
        <ele>420.61</ele>
        <time>2020-07-21T05:30:15.000Z</time>
      </trkpt>
      <trkpt lat="44.8265" lon="5.05249">
        <ele>421.13</ele>
        <time>2020-07-21T05:30:25.000Z</time>
      </trkpt>
      <trkpt lat="44.8265" lon="5.05264">
        <ele>421.93</ele>
        <time>2020-07-21T05:30:35.000Z</time>
      </trkpt>
      <trkpt lat="44.82647" lon="5.05276">
        <ele>422.84</ele>
        <time>2020-07-21T05:30:45.000Z</time>
      </trkpt>
      <trkpt lat="44.82644" lon="5.05292">
        <ele>424.36</ele>
        <time>2020-07-21T05:30:55.000Z</time>
      </trkpt>
      <trkpt lat="44.8264" lon="5.05307">
        <ele>426.09</ele>
        <time>2020-07-21T05:31:05.000Z</time>
      </trkpt>
      <trkpt lat="44.82638" lon="5.0532">
        <ele>427.62</ele>
        <time>2020-07-21T05:31:15.000Z</time>
      </trkpt>
      <trkpt lat="44.82628" lon="5.05326">
        <ele>428.62</ele>
        <time>2020-07-21T05:31:25.000Z</time>
      </trkpt>
      <trkpt lat="44.8262" lon="5.05331">
        <ele>429.55</ele>
        <time>2020-07-21T05:31:35.000Z</time>
      </trkpt>
      <trkpt lat="44.82613" lon="5.0534">
        <ele>430.88</ele>
        <time>2020-07-21T05:31:45.000Z</time>
      </trkpt>
      <trkpt lat="44.82606" lon="5.0535">
        <ele>432.24</ele>
        <time>2020-07-21T05:31:55.000Z</time>
      </trkpt>
      <trkpt lat="44.82601" lon="5.05361">
        <ele>433.86</ele>
        <time>2020-07-21T05:32:05.000Z</time>
      </trkpt>
      <trkpt lat="44.82599" lon="5.05373">
        <ele>435.51</ele>
        <time>2020-07-21T05:32:15.000Z</time>
      </trkpt>
      <trkpt lat="44.82598" lon="5.05384">
        <ele>437.04</ele>
        <time>2020-07-21T05:32:25.000Z</time>
      </trkpt>
      <trkpt lat="44.82597" lon="5.05391">
        <ele>437.88</ele>
        <time>2020-07-21T05:32:35.000Z</time>
      </trkpt>
      <trkpt lat="44.82597" lon="5.054">
        <ele>439.01</ele>
        <time>2020-07-21T05:32:45.000Z</time>
      </trkpt>
      <trkpt lat="44.82597" lon="5.05408">
        <ele>439.75</ele>
        <time>2020-07-21T05:32:55.000Z</time>
      </trkpt>
      <trkpt lat="44.82598" lon="5.05419">
        <ele>440.57</ele>
        <time>2020-07-21T05:33:05.000Z</time>
      </trkpt>
      <trkpt lat="44.82597" lon="5.05431">
        <ele>440.84</ele>
        <time>2020-07-21T05:33:15.000Z</time>
      </trkpt>
      <trkpt lat="44.82596" lon="5.05445">
        <ele>440.66</ele>
        <time>2020-07-21T05:33:25.000Z</time>
      </trkpt>
      <trkpt lat="44.82597" lon="5.05456">
        <ele>440.8</ele>
        <time>2020-07-21T05:33:35.000Z</time>
      </trkpt>
      <trkpt lat="44.82602" lon="5.05465">
        <ele>441.38</ele>
        <time>2020-07-21T05:33:45.000Z</time>
      </trkpt>
      <trkpt lat="44.82607" lon="5.05475">
        <ele>442.02</ele>
        <time>2020-07-21T05:33:55.000Z</time>
      </trkpt>
      <trkpt lat="44.82612" lon="5.05483">
        <ele>442.87</ele>
        <time>2020-07-21T05:34:05.000Z</time>
      </trkpt>
      <trkpt lat="44.82618" lon="5.05492">
        <ele>444.19</ele>
        <time>2020-07-21T05:34:15.000Z</time>
      </trkpt>
      <trkpt lat="44.82624" lon="5.055">
        <ele>445.57</ele>
        <time>2020-07-21T05:34:25.000Z</time>
      </trkpt>
      <trkpt lat="44.82625" lon="5.0551">
        <ele>446.32</ele>
        <time>2020-07-21T05:34:35.000Z</time>
      </trkpt>
      <trkpt lat="44.82628" lon="5.05519">
        <ele>447.56</ele>
        <time>2020-07-21T05:34:45.000Z</time>
      </trkpt>
      <trkpt lat="44.8263" lon="5.05529">
        <ele>448.45</ele>
        <time>2020-07-21T05:34:55.000Z</time>
      </trkpt>
      <trkpt lat="44.82633" lon="5.05538">
        <ele>449.86</ele>
        <time>2020-07-21T05:35:05.000Z</time>
      </trkpt>
      <trkpt lat="44.82637" lon="5.05547">
        <ele>451.63</ele>
        <time>2020-07-21T05:35:15.000Z</time>
      </trkpt>
      <trkpt lat="44.82642" lon="5.05555">
        <ele>453.82</ele>
        <time>2020-07-21T05:35:25.000Z</time>
      </trkpt>
      <trkpt lat="44.82645" lon="5.05561">
        <ele>455.41</ele>
        <time>2020-07-21T05:35:35.000Z</time>
      </trkpt>
      <trkpt lat="44.82651" lon="5.0556">
        <ele>457.48</ele>
        <time>2020-07-21T05:35:45.000Z</time>
      </trkpt>
      <trkpt lat="44.82657" lon="5.05563">
        <ele>459.9</ele>
        <time>2020-07-21T05:35:55.000Z</time>
      </trkpt>
      <trkpt lat="44.8266" lon="5.05567">
        <ele>461.27</ele>
        <time>2020-07-21T05:36:05.000Z</time>
      </trkpt>
      <trkpt lat="44.82664" lon="5.05572">
        <ele>462.8</ele>
        <time>2020-07-21T05:36:15.000Z</time>
      </trkpt>
      <trkpt lat="44.82669" lon="5.0558">
        <ele>465.36</ele>
        <time>2020-07-21T05:36:25.000Z</time>
      </trkpt>
      <trkpt lat="44.82673" lon="5.05585">
        <ele>467.16</ele>
        <time>2020-07-21T05:36:35.000Z</time>
      </trkpt>
      <trkpt lat="44.82677" lon="5.05591">
        <ele>468.81</ele>
        <time>2020-07-21T05:36:45.000Z</time>
      </trkpt>
      <trkpt lat="44.8268" lon="5.05597">
        <ele>470.15</ele>
        <time>2020-07-21T05:36:55.000Z</time>
      </trkpt>
      <trkpt lat="44.82684" lon="5.05602">
        <ele>471.6</ele>
        <time>2020-07-21T05:37:05.000Z</time>
      </trkpt>
      <trkpt lat="44.82686" lon="5.0561">
        <ele>472.92</ele>
        <time>2020-07-21T05:37:15.000Z</time>
      </trkpt>
      <trkpt lat="44.82687" lon="5.0562">
        <ele>474.33</ele>
        <time>2020-07-21T05:37:25.000Z</time>
      </trkpt>
      <trkpt lat="44.8269" lon="5.05629">
        <ele>475.91</ele>
        <time>2020-07-21T05:37:35.000Z</time>
      </trkpt>
      <trkpt lat="44.82693" lon="5.05637">
        <ele>477.66</ele>
        <time>2020-07-21T05:37:45.000Z</time>
      </trkpt>
      <trkpt lat="44.82694" lon="5.05644">
        <ele>478.78</ele>
        <time>2020-07-21T05:37:55.000Z</time>
      </trkpt>
      <trkpt lat="44.82696" lon="5.05652">
        <ele>480.3</ele>
        <time>2020-07-21T05:38:05.000Z</time>
      </trkpt>
      <trkpt lat="44.82697" lon="5.05664">
        <ele>482.35</ele>
        <time>2020-07-21T05:38:15.000Z</time>
      </trkpt>
      <trkpt lat="44.827" lon="5.05672">
        <ele>484.45</ele>
        <time>2020-07-21T05:38:25.000Z</time>
      </trkpt>
      <trkpt lat="44.82702" lon="5.0568">
        <ele>486.53</ele>
        <time>2020-07-21T05:38:35.000Z</time>
      </trkpt>
      <trkpt lat="44.82703" lon="5.05688">
        <ele>488.18</ele>
        <time>2020-07-21T05:38:45.000Z</time>
      </trkpt>
      <trkpt lat="44.82705" lon="5.05696">
        <ele>490.38</ele>
        <time>2020-07-21T05:38:55.000Z</time>
      </trkpt>
      <trkpt lat="44.82705" lon="5.05702">
        <ele>491.7</ele>
        <time>2020-07-21T05:39:05.000Z</time>
      </trkpt>
      <trkpt lat="44.82705" lon="5.05706">
        <ele>492.36</ele>
        <time>2020-07-21T05:39:15.000Z</time>
      </trkpt>
      <trkpt lat="44.82705" lon="5.05712">
        <ele>493.77</ele>
        <time>2020-07-21T05:39:25.000Z</time>
      </trkpt>
      <trkpt lat="44.82707" lon="5.0572">
        <ele>495.99</ele>
        <time>2020-07-21T05:39:35.000Z</time>
      </trkpt>
      <trkpt lat="44.82707" lon="5.05725">
        <ele>496.94</ele>
        <time>2020-07-21T05:39:45.000Z</time>
      </trkpt>
      <trkpt lat="44.8271" lon="5.05732">
        <ele>499.67</ele>
        <time>2020-07-21T05:39:55.000Z</time>
      </trkpt>
      <trkpt lat="44.82711" lon="5.05738">
        <ele>501.58</ele>
        <time>2020-07-21T05:40:05.000Z</time>
      </trkpt>
      <trkpt lat="44.82714" lon="5.05742">
        <ele>503.34</ele>
        <time>2020-07-21T05:40:15.000Z</time>
      </trkpt>
      <trkpt lat="44.82716" lon="5.05745">
        <ele>505.04</ele>
        <time>2020-07-21T05:40:25.000Z</time>
      </trkpt>
      <trkpt lat="44.82715" lon="5.05747">
        <ele>505.02</ele>
        <time>2020-07-21T05:40:36.000Z</time>
      </trkpt>
      <trkpt lat="44.82717" lon="5.05755">
        <ele>506.99</ele>
        <time>2020-07-21T05:40:46.000Z</time>
      </trkpt>
      <trkpt lat="44.82717" lon="5.05758">
        <ele>507.6</ele>
        <time>2020-07-21T05:40:56.000Z</time>
      </trkpt>
      <trkpt lat="44.82717" lon="5.05766">
        <ele>508.74</ele>
        <time>2020-07-21T05:41:06.000Z</time>
      </trkpt>
      <trkpt lat="44.82717" lon="5.05774">
        <ele>509.61</ele>
        <time>2020-07-21T05:41:16.000Z</time>
      </trkpt>
      <trkpt lat="44.82716" lon="5.0578">
        <ele>509.53</ele>
        <time>2020-07-21T05:41:26.000Z</time>
      </trkpt>
      <trkpt lat="44.82718" lon="5.05789">
        <ele>511.39</ele>
        <time>2020-07-21T05:41:36.000Z</time>
      </trkpt>
      <trkpt lat="44.8272" lon="5.05796">
        <ele>512.83</ele>
        <time>2020-07-21T05:41:46.000Z</time>
      </trkpt>
      <trkpt lat="44.82721" lon="5.05802">
        <ele>513.46</ele>
        <time>2020-07-21T05:41:56.000Z</time>
      </trkpt>
      <trkpt lat="44.82721" lon="5.05807">
        <ele>514.02</ele>
        <time>2020-07-21T05:42:06.000Z</time>
      </trkpt>
      <trkpt lat="44.82721" lon="5.05815">
        <ele>514.6</ele>
        <time>2020-07-21T05:42:16.000Z</time>
      </trkpt>
      <trkpt lat="44.82722" lon="5.05822">
        <ele>515.6</ele>
        <time>2020-07-21T05:42:26.000Z</time>
      </trkpt>
      <trkpt lat="44.82723" lon="5.0583">
        <ele>516.28</ele>
        <time>2020-07-21T05:42:36.000Z</time>
      </trkpt>
      <trkpt lat="44.82722" lon="5.05835">
        <ele>516.59</ele>
        <time>2020-07-21T05:42:46.000Z</time>
      </trkpt>
      <trkpt lat="44.82723" lon="5.05843">
        <ele>517.52</ele>
        <time>2020-07-21T05:42:56.000Z</time>
      </trkpt>
      <trkpt lat="44.82723" lon="5.0585">
        <ele>518.23</ele>
        <time>2020-07-21T05:43:06.000Z</time>
      </trkpt>
      <trkpt lat="44.82722" lon="5.05855">
        <ele>518.67</ele>
        <time>2020-07-21T05:43:16.000Z</time>
      </trkpt>
      <trkpt lat="44.82722" lon="5.05864">
        <ele>519.54</ele>
        <time>2020-07-21T05:43:26.000Z</time>
      </trkpt>
      <trkpt lat="44.8272" lon="5.05875">
        <ele>520.35</ele>
        <time>2020-07-21T05:43:36.000Z</time>
      </trkpt>
      <trkpt lat="44.82717" lon="5.05882">
        <ele>520.9</ele>
        <time>2020-07-21T05:43:46.000Z</time>
      </trkpt>
      <trkpt lat="44.82717" lon="5.05889">
        <ele>521.62</ele>
        <time>2020-07-21T05:43:56.000Z</time>
      </trkpt>
      <trkpt lat="44.82715" lon="5.059">
        <ele>522.56</ele>
        <time>2020-07-21T05:44:06.000Z</time>
      </trkpt>
      <trkpt lat="44.82711" lon="5.05913">
        <ele>523.47</ele>
        <time>2020-07-21T05:44:16.000Z</time>
      </trkpt>
      <trkpt lat="44.82707" lon="5.05922">
        <ele>524.01</ele>
        <time>2020-07-21T05:44:26.000Z</time>
      </trkpt>
      <trkpt lat="44.82706" lon="5.05933">
        <ele>524.6</ele>
        <time>2020-07-21T05:44:36.000Z</time>
      </trkpt>
      <trkpt lat="44.82704" lon="5.05945">
        <ele>525.11</ele>
        <time>2020-07-21T05:44:46.000Z</time>
      </trkpt>
      <trkpt lat="44.82704" lon="5.05962">
        <ele>525.39</ele>
        <time>2020-07-21T05:44:56.000Z</time>
      </trkpt>
      <trkpt lat="44.82706" lon="5.05975">
        <ele>525.04</ele>
        <time>2020-07-21T05:45:06.000Z</time>
      </trkpt>
      <trkpt lat="44.82708" lon="5.05989">
        <ele>524.5</ele>
        <time>2020-07-21T05:45:16.000Z</time>
      </trkpt>
      <trkpt lat="44.82707" lon="5.06004">
        <ele>524.77</ele>
        <time>2020-07-21T05:45:26.000Z</time>
      </trkpt>
      <trkpt lat="44.82709" lon="5.06017">
        <ele>523.8</ele>
        <time>2020-07-21T05:45:36.000Z</time>
      </trkpt>
      <trkpt lat="44.82708" lon="5.06032">
        <ele>524.25</ele>
        <time>2020-07-21T05:45:46.000Z</time>
      </trkpt>
      <trkpt lat="44.82708" lon="5.06041">
        <ele>524.23</ele>
        <time>2020-07-21T05:45:56.000Z</time>
      </trkpt>
      <trkpt lat="44.82705" lon="5.06055">
        <ele>526.01</ele>
        <time>2020-07-21T05:46:06.000Z</time>
      </trkpt>
      <trkpt lat="44.82704" lon="5.06067">
        <ele>527.02</ele>
        <time>2020-07-21T05:46:16.000Z</time>
      </trkpt>
      <trkpt lat="44.82705" lon="5.06077">
        <ele>526.6</ele>
        <time>2020-07-21T05:46:26.000Z</time>
      </trkpt>
      <trkpt lat="44.82701" lon="5.06088">
        <ele>529.81</ele>
        <time>2020-07-21T05:46:36.000Z</time>
      </trkpt>
      <trkpt lat="44.82697" lon="5.06096">
        <ele>532.32</ele>
        <time>2020-07-21T05:46:46.000Z</time>
      </trkpt>
      <trkpt lat="44.82692" lon="5.06104">
        <ele>535.12</ele>
        <time>2020-07-21T05:46:56.000Z</time>
      </trkpt>
      <trkpt lat="44.82688" lon="5.06115">
        <ele>537.62</ele>
        <time>2020-07-21T05:47:06.000Z</time>
      </trkpt>
      <trkpt lat="44.82687" lon="5.06124">
        <ele>538.84</ele>
        <time>2020-07-21T05:47:16.000Z</time>
      </trkpt>
      <trkpt lat="44.82684" lon="5.06134">
        <ele>540.48</ele>
        <time>2020-07-21T05:47:26.000Z</time>
      </trkpt>
      <trkpt lat="44.82684" lon="5.06147">
        <ele>541.04</ele>
        <time>2020-07-21T05:47:36.000Z</time>
      </trkpt>
      <trkpt lat="44.82682" lon="5.06159">
        <ele>542.64</ele>
        <time>2020-07-21T05:47:46.000Z</time>
      </trkpt>
      <trkpt lat="44.8268" lon="5.06172">
        <ele>544.26</ele>
        <time>2020-07-21T05:47:56.000Z</time>
      </trkpt>
      <trkpt lat="44.8268" lon="5.06181">
        <ele>545.05</ele>
        <time>2020-07-21T05:48:06.000Z</time>
      </trkpt>
      <trkpt lat="44.8268" lon="5.06191">
        <ele>546.2</ele>
        <time>2020-07-21T05:48:16.000Z</time>
      </trkpt>
      <trkpt lat="44.82678" lon="5.06203">
        <ele>547.97</ele>
        <time>2020-07-21T05:48:26.000Z</time>
      </trkpt>
      <trkpt lat="44.82678" lon="5.06215">
        <ele>549.33</ele>
        <time>2020-07-21T05:48:36.000Z</time>
      </trkpt>
      <trkpt lat="44.82676" lon="5.06223">
        <ele>550.84</ele>
        <time>2020-07-21T05:48:46.000Z</time>
      </trkpt>
      <trkpt lat="44.82673" lon="5.06233">
        <ele>552.37</ele>
        <time>2020-07-21T05:48:56.000Z</time>
      </trkpt>
      <trkpt lat="44.82671" lon="5.06239">
        <ele>553.35</ele>
        <time>2020-07-21T05:49:06.000Z</time>
      </trkpt>
      <trkpt lat="44.82671" lon="5.06249">
        <ele>554.82</ele>
        <time>2020-07-21T05:49:16.000Z</time>
      </trkpt>
      <trkpt lat="44.82669" lon="5.06259">
        <ele>556.22</ele>
        <time>2020-07-21T05:49:26.000Z</time>
      </trkpt>
      <trkpt lat="44.8267" lon="5.06263">
        <ele>556.85</ele>
        <time>2020-07-21T05:49:36.000Z</time>
      </trkpt>
      <trkpt lat="44.82668" lon="5.0627">
        <ele>558.09</ele>
        <time>2020-07-21T05:49:46.000Z</time>
      </trkpt>
      <trkpt lat="44.82668" lon="5.06276">
        <ele>559.15</ele>
        <time>2020-07-21T05:49:56.000Z</time>
      </trkpt>
      <trkpt lat="44.82664" lon="5.0628">
        <ele>559.77</ele>
        <time>2020-07-21T05:50:06.000Z</time>
      </trkpt>
      <trkpt lat="44.82664" lon="5.06286">
        <ele>560.87</ele>
        <time>2020-07-21T05:50:16.000Z</time>
      </trkpt>
      <trkpt lat="44.82665" lon="5.06294">
        <ele>562.35</ele>
        <time>2020-07-21T05:50:26.000Z</time>
      </trkpt>
      <trkpt lat="44.82666" lon="5.06302">
        <ele>563.7</ele>
        <time>2020-07-21T05:50:36.000Z</time>
      </trkpt>
      <trkpt lat="44.82664" lon="5.06307">
        <ele>564.67</ele>
        <time>2020-07-21T05:50:46.000Z</time>
      </trkpt>
      <trkpt lat="44.82662" lon="5.06314">
        <ele>565.85</ele>
        <time>2020-07-21T05:50:56.000Z</time>
      </trkpt>
      <trkpt lat="44.82662" lon="5.06321">
        <ele>567.06</ele>
        <time>2020-07-21T05:51:06.000Z</time>
      </trkpt>
      <trkpt lat="44.8266" lon="5.06331">
        <ele>568.54</ele>
        <time>2020-07-21T05:51:16.000Z</time>
      </trkpt>
      <trkpt lat="44.82658" lon="5.06341">
        <ele>569.84</ele>
        <time>2020-07-21T05:51:26.000Z</time>
      </trkpt>
      <trkpt lat="44.82655" lon="5.06349">
        <ele>570.7</ele>
        <time>2020-07-21T05:51:36.000Z</time>
      </trkpt>
      <trkpt lat="44.82653" lon="5.06357">
        <ele>571.57</ele>
        <time>2020-07-21T05:51:46.000Z</time>
      </trkpt>
      <trkpt lat="44.82652" lon="5.06367">
        <ele>572.67</ele>
        <time>2020-07-21T05:51:56.000Z</time>
      </trkpt>
      <trkpt lat="44.82653" lon="5.0637">
        <ele>573.09</ele>
        <time>2020-07-21T05:52:06.000Z</time>
      </trkpt>
      <trkpt lat="44.82653" lon="5.06375">
        <ele>573.74</ele>
        <time>2020-07-21T05:52:16.000Z</time>
      </trkpt>
      <trkpt lat="44.82653" lon="5.0638">
        <ele>574.47</ele>
        <time>2020-07-21T05:52:26.000Z</time>
      </trkpt>
      <trkpt lat="44.82653" lon="5.06391">
        <ele>575.84</ele>
        <time>2020-07-21T05:52:36.000Z</time>
      </trkpt>
      <trkpt lat="44.82652" lon="5.06401">
        <ele>577.32</ele>
        <time>2020-07-21T05:52:46.000Z</time>
      </trkpt>
      <trkpt lat="44.82652" lon="5.06409">
        <ele>578.76</ele>
        <time>2020-07-21T05:52:56.000Z</time>
      </trkpt>
      <trkpt lat="44.82651" lon="5.0642">
        <ele>580.63</ele>
        <time>2020-07-21T05:53:06.000Z</time>
      </trkpt>
      <trkpt lat="44.8265" lon="5.06427">
        <ele>582.23</ele>
        <time>2020-07-21T05:53:16.000Z</time>
      </trkpt>
      <trkpt lat="44.82651" lon="5.06436">
        <ele>584.42</ele>
        <time>2020-07-21T05:53:26.000Z</time>
      </trkpt>
      <trkpt lat="44.82652" lon="5.0644">
        <ele>585.61</ele>
        <time>2020-07-21T05:53:36.000Z</time>
      </trkpt>
      <trkpt lat="44.82653" lon="5.0645">
        <ele>588</ele>
        <time>2020-07-21T05:53:46.000Z</time>
      </trkpt>
      <trkpt lat="44.82655" lon="5.06457">
        <ele>590.05</ele>
        <time>2020-07-21T05:53:56.000Z</time>
      </trkpt>
      <trkpt lat="44.82657" lon="5.06463">
        <ele>591.62</ele>
        <time>2020-07-21T05:54:06.000Z</time>
      </trkpt>
      <trkpt lat="44.82659" lon="5.06471">
        <ele>593.42</ele>
        <time>2020-07-21T05:54:16.000Z</time>
      </trkpt>
      <trkpt lat="44.82662" lon="5.06475">
        <ele>594.42</ele>
        <time>2020-07-21T05:54:26.000Z</time>
      </trkpt>
      <trkpt lat="44.82663" lon="5.06481">
        <ele>595.92</ele>
        <time>2020-07-21T05:54:36.000Z</time>
      </trkpt>
      <trkpt lat="44.82664" lon="5.06483">
        <ele>596.35</ele>
        <time>2020-07-21T05:54:52.000Z</time>
      </trkpt>
      <trkpt lat="44.82665" lon="5.06488">
        <ele>597.38</ele>
        <time>2020-07-21T05:55:02.000Z</time>
      </trkpt>
      <trkpt lat="44.82667" lon="5.06497">
        <ele>599.2</ele>
        <time>2020-07-21T05:55:12.000Z</time>
      </trkpt>
      <trkpt lat="44.82669" lon="5.06503">
        <ele>600.36</ele>
        <time>2020-07-21T05:55:22.000Z</time>
      </trkpt>
      <trkpt lat="44.82668" lon="5.06509">
        <ele>601.74</ele>
        <time>2020-07-21T05:55:32.000Z</time>
      </trkpt>
      <trkpt lat="44.82666" lon="5.06518">
        <ele>604.15</ele>
        <time>2020-07-21T05:55:42.000Z</time>
      </trkpt>
      <trkpt lat="44.82666" lon="5.06523">
        <ele>605.16</ele>
        <time>2020-07-21T05:55:52.000Z</time>
      </trkpt>
      <trkpt lat="44.82666" lon="5.06529">
        <ele>606.4</ele>
        <time>2020-07-21T05:56:02.000Z</time>
      </trkpt>
      <trkpt lat="44.82665" lon="5.06535">
        <ele>607.79</ele>
        <time>2020-07-21T05:56:12.000Z</time>
      </trkpt>
      <trkpt lat="44.82666" lon="5.06543">
        <ele>609.39</ele>
        <time>2020-07-21T05:56:22.000Z</time>
      </trkpt>
      <trkpt lat="44.82666" lon="5.06551">
        <ele>610.93</ele>
        <time>2020-07-21T05:56:32.000Z</time>
      </trkpt>
      <trkpt lat="44.82667" lon="5.06555">
        <ele>611.91</ele>
        <time>2020-07-21T05:56:42.000Z</time>
      </trkpt>
      <trkpt lat="44.82668" lon="5.06564">
        <ele>613.62</ele>
        <time>2020-07-21T05:56:52.000Z</time>
      </trkpt>
      <trkpt lat="44.8267" lon="5.06571">
        <ele>614.67</ele>
        <time>2020-07-21T05:57:02.000Z</time>
      </trkpt>
      <trkpt lat="44.82669" lon="5.06579">
        <ele>616.49</ele>
        <time>2020-07-21T05:57:12.000Z</time>
      </trkpt>
      <trkpt lat="44.82669" lon="5.06584">
        <ele>617.74</ele>
        <time>2020-07-21T05:57:22.000Z</time>
      </trkpt>
      <trkpt lat="44.82669" lon="5.06591">
        <ele>619.51</ele>
        <time>2020-07-21T05:57:32.000Z</time>
      </trkpt>
      <trkpt lat="44.82669" lon="5.06596">
        <ele>620.55</ele>
        <time>2020-07-21T05:57:42.000Z</time>
      </trkpt>
      <trkpt lat="44.82666" lon="5.06604">
        <ele>622.99</ele>
        <time>2020-07-21T05:57:52.000Z</time>
      </trkpt>
      <trkpt lat="44.82665" lon="5.0661">
        <ele>624.71</ele>
        <time>2020-07-21T05:58:02.000Z</time>
      </trkpt>
      <trkpt lat="44.82664" lon="5.06617">
        <ele>626.49</ele>
        <time>2020-07-21T05:58:12.000Z</time>
      </trkpt>
      <trkpt lat="44.82663" lon="5.06623">
        <ele>628.07</ele>
        <time>2020-07-21T05:58:22.000Z</time>
      </trkpt>
      <trkpt lat="44.82662" lon="5.06629">
        <ele>629.59</ele>
        <time>2020-07-21T05:58:32.000Z</time>
      </trkpt>
      <trkpt lat="44.82661" lon="5.06631">
        <ele>630.26</ele>
        <time>2020-07-21T05:58:42.000Z</time>
      </trkpt>
      <trkpt lat="44.82662" lon="5.0663">
        <ele>629.93</ele>
        <time>2020-07-21T06:00:30.000Z</time>
      </trkpt>
      <trkpt lat="44.82662" lon="5.06632">
        <ele>630.25</ele>
        <time>2020-07-21T06:01:26.000Z</time>
      </trkpt>
      <trkpt lat="44.82664" lon="5.06636">
        <ele>631.23</ele>
        <time>2020-07-21T06:01:36.000Z</time>
      </trkpt>
      <trkpt lat="44.82666" lon="5.06642">
        <ele>632.33</ele>
        <time>2020-07-21T06:01:46.000Z</time>
      </trkpt>
      <trkpt lat="44.82667" lon="5.06649">
        <ele>633.93</ele>
        <time>2020-07-21T06:01:56.000Z</time>
      </trkpt>
      <trkpt lat="44.82668" lon="5.06653">
        <ele>634.81</ele>
        <time>2020-07-21T06:02:06.000Z</time>
      </trkpt>
      <trkpt lat="44.82669" lon="5.06656">
        <ele>635.33</ele>
        <time>2020-07-21T06:02:16.000Z</time>
      </trkpt>
      <trkpt lat="44.82668" lon="5.0666">
        <ele>636.32</ele>
        <time>2020-07-21T06:02:26.000Z</time>
      </trkpt>
      <trkpt lat="44.82669" lon="5.06666">
        <ele>637.57</ele>
        <time>2020-07-21T06:02:36.000Z</time>
      </trkpt>
      <trkpt lat="44.82669" lon="5.06673">
        <ele>639.06</ele>
        <time>2020-07-21T06:02:46.000Z</time>
      </trkpt>
      <trkpt lat="44.82667" lon="5.06675">
        <ele>639.72</ele>
        <time>2020-07-21T06:02:56.000Z</time>
      </trkpt>
      <trkpt lat="44.82665" lon="5.06682">
        <ele>641.23</ele>
        <time>2020-07-21T06:03:06.000Z</time>
      </trkpt>
      <trkpt lat="44.82663" lon="5.06687">
        <ele>642.15</ele>
        <time>2020-07-21T06:03:16.000Z</time>
      </trkpt>
      <trkpt lat="44.82659" lon="5.06692">
        <ele>642.98</ele>
        <time>2020-07-21T06:03:26.000Z</time>
      </trkpt>
      <trkpt lat="44.82657" lon="5.06697">
        <ele>643.74</ele>
        <time>2020-07-21T06:03:36.000Z</time>
      </trkpt>
      <trkpt lat="44.82654" lon="5.06701">
        <ele>644.19</ele>
        <time>2020-07-21T06:03:46.000Z</time>
      </trkpt>
      <trkpt lat="44.82652" lon="5.06707">
        <ele>644.95</ele>
        <time>2020-07-21T06:03:56.000Z</time>
      </trkpt>
      <trkpt lat="44.82653" lon="5.06708">
        <ele>645.27</ele>
        <time>2020-07-21T06:04:10.000Z</time>
      </trkpt>
      <trkpt lat="44.82653" lon="5.0671">
        <ele>645.51</ele>
        <time>2020-07-21T06:04:20.000Z</time>
      </trkpt>
      <trkpt lat="44.82648" lon="5.06718">
        <ele>646.18</ele>
        <time>2020-07-21T06:04:30.000Z</time>
      </trkpt>
      <trkpt lat="44.82646" lon="5.06726">
        <ele>647.24</ele>
        <time>2020-07-21T06:04:40.000Z</time>
      </trkpt>
      <trkpt lat="44.82646" lon="5.06733">
        <ele>648.4</ele>
        <time>2020-07-21T06:04:50.000Z</time>
      </trkpt>
      <trkpt lat="44.82646" lon="5.06744">
        <ele>650.07</ele>
        <time>2020-07-21T06:05:00.000Z</time>
      </trkpt>
      <trkpt lat="44.82645" lon="5.0675">
        <ele>651.08</ele>
        <time>2020-07-21T06:05:10.000Z</time>
      </trkpt>
      <trkpt lat="44.82644" lon="5.06761">
        <ele>652.71</ele>
        <time>2020-07-21T06:05:20.000Z</time>
      </trkpt>
      <trkpt lat="44.82645" lon="5.0677">
        <ele>654.61</ele>
        <time>2020-07-21T06:05:30.000Z</time>
      </trkpt>
      <trkpt lat="44.82645" lon="5.06778">
        <ele>655.97</ele>
        <time>2020-07-21T06:05:40.000Z</time>
      </trkpt>
      <trkpt lat="44.82645" lon="5.06785">
        <ele>657.23</ele>
        <time>2020-07-21T06:05:50.000Z</time>
      </trkpt>
      <trkpt lat="44.82643" lon="5.06792">
        <ele>658.15</ele>
        <time>2020-07-21T06:06:00.000Z</time>
      </trkpt>
      <trkpt lat="44.82643" lon="5.06799">
        <ele>659.43</ele>
        <time>2020-07-21T06:06:10.000Z</time>
      </trkpt>
      <trkpt lat="44.82641" lon="5.06806">
        <ele>660.56</ele>
        <time>2020-07-21T06:06:20.000Z</time>
      </trkpt>
      <trkpt lat="44.82641" lon="5.06814">
        <ele>662.19</ele>
        <time>2020-07-21T06:06:30.000Z</time>
      </trkpt>
      <trkpt lat="44.82644" lon="5.06821">
        <ele>664.63</ele>
        <time>2020-07-21T06:06:40.000Z</time>
      </trkpt>
      <trkpt lat="44.82646" lon="5.06826">
        <ele>666.38</ele>
        <time>2020-07-21T06:06:50.000Z</time>
      </trkpt>
      <trkpt lat="44.82647" lon="5.06834">
        <ele>668.86</ele>
        <time>2020-07-21T06:07:00.000Z</time>
      </trkpt>
      <trkpt lat="44.82648" lon="5.0684">
        <ele>670.71</ele>
        <time>2020-07-21T06:07:10.000Z</time>
      </trkpt>
      <trkpt lat="44.82651" lon="5.06845">
        <ele>673.04</ele>
        <time>2020-07-21T06:07:20.000Z</time>
      </trkpt>
      <trkpt lat="44.82652" lon="5.06848">
        <ele>674.19</ele>
        <time>2020-07-21T06:07:30.000Z</time>
      </trkpt>
      <trkpt lat="44.82653" lon="5.06847">
        <ele>674.01</ele>
        <time>2020-07-21T06:08:04.000Z</time>
      </trkpt>
      <trkpt lat="44.82654" lon="5.06849">
        <ele>674.67</ele>
        <time>2020-07-21T06:09:21.000Z</time>
      </trkpt>
      <trkpt lat="44.82655" lon="5.06848">
        <ele>674.47</ele>
        <time>2020-07-21T06:09:31.000Z</time>
      </trkpt>
      <trkpt lat="44.82654" lon="5.06846">
        <ele>673.76</ele>
        <time>2020-07-21T06:09:51.000Z</time>
      </trkpt>
      <trkpt lat="44.82651" lon="5.06846">
        <ele>673.26</ele>
        <time>2020-07-21T06:10:01.000Z</time>
      </trkpt>
      <trkpt lat="44.82652" lon="5.06845">
        <ele>673.11</ele>
        <time>2020-07-21T06:10:57.000Z</time>
      </trkpt>
      <trkpt lat="44.82653" lon="5.06847">
        <ele>673.71</ele>
        <time>2020-07-21T06:11:48.000Z</time>
      </trkpt>
      <trkpt lat="44.82655" lon="5.06854">
        <ele>676.55</ele>
        <time>2020-07-21T06:11:58.000Z</time>
      </trkpt>
      <trkpt lat="44.82659" lon="5.0686">
        <ele>679.33</ele>
        <time>2020-07-21T06:12:08.000Z</time>
      </trkpt>
      <trkpt lat="44.82664" lon="5.06866">
        <ele>682.17</ele>
        <time>2020-07-21T06:12:18.000Z</time>
      </trkpt>
      <trkpt lat="44.82668" lon="5.06872">
        <ele>684.87</ele>
        <time>2020-07-21T06:12:28.000Z</time>
      </trkpt>
      <trkpt lat="44.82672" lon="5.06876">
        <ele>686.51</ele>
        <time>2020-07-21T06:12:38.000Z</time>
      </trkpt>
      <trkpt lat="44.82674" lon="5.06881">
        <ele>688.19</ele>
        <time>2020-07-21T06:12:48.000Z</time>
      </trkpt>
      <trkpt lat="44.8268" lon="5.06885">
        <ele>690.01</ele>
        <time>2020-07-21T06:12:58.000Z</time>
      </trkpt>
      <trkpt lat="44.82685" lon="5.06893">
        <ele>692.91</ele>
        <time>2020-07-21T06:13:08.000Z</time>
      </trkpt>
      <trkpt lat="44.82687" lon="5.06898">
        <ele>694.7</ele>
        <time>2020-07-21T06:13:18.000Z</time>
      </trkpt>
      <trkpt lat="44.8269" lon="5.06901">
        <ele>696</ele>
        <time>2020-07-21T06:13:28.000Z</time>
      </trkpt>
      <trkpt lat="44.82694" lon="5.06905">
        <ele>697.29</ele>
        <time>2020-07-21T06:13:38.000Z</time>
      </trkpt>
      <trkpt lat="44.82698" lon="5.0691">
        <ele>699.05</ele>
        <time>2020-07-21T06:13:48.000Z</time>
      </trkpt>
      <trkpt lat="44.82701" lon="5.06914">
        <ele>700.24</ele>
        <time>2020-07-21T06:13:58.000Z</time>
      </trkpt>
      <trkpt lat="44.82705" lon="5.06919">
        <ele>702.08</ele>
        <time>2020-07-21T06:14:08.000Z</time>
      </trkpt>
      <trkpt lat="44.8271" lon="5.06927">
        <ele>704.88</ele>
        <time>2020-07-21T06:14:18.000Z</time>
      </trkpt>
      <trkpt lat="44.82718" lon="5.06932">
        <ele>706.34</ele>
        <time>2020-07-21T06:14:28.000Z</time>
      </trkpt>
      <trkpt lat="44.82723" lon="5.06936">
        <ele>707.3</ele>
        <time>2020-07-21T06:14:38.000Z</time>
      </trkpt>
      <trkpt lat="44.82728" lon="5.0694">
        <ele>708.72</ele>
        <time>2020-07-21T06:14:48.000Z</time>
      </trkpt>
      <trkpt lat="44.82731" lon="5.06943">
        <ele>709.68</ele>
        <time>2020-07-21T06:14:58.000Z</time>
      </trkpt>
      <trkpt lat="44.82735" lon="5.06946">
        <ele>710.85</ele>
        <time>2020-07-21T06:15:08.000Z</time>
      </trkpt>
      <trkpt lat="44.8274" lon="5.0695">
        <ele>712.3</ele>
        <time>2020-07-21T06:15:18.000Z</time>
      </trkpt>
      <trkpt lat="44.82745" lon="5.06951">
        <ele>712.31</ele>
        <time>2020-07-21T06:15:28.000Z</time>
      </trkpt>
      <trkpt lat="44.82749" lon="5.06953">
        <ele>713.22</ele>
        <time>2020-07-21T06:15:38.000Z</time>
      </trkpt>
      <trkpt lat="44.82756" lon="5.06957">
        <ele>714.64</ele>
        <time>2020-07-21T06:15:48.000Z</time>
      </trkpt>
      <trkpt lat="44.82758" lon="5.06958">
        <ele>715.08</ele>
        <time>2020-07-21T06:15:58.000Z</time>
      </trkpt>
      <trkpt lat="44.82761" lon="5.06963">
        <ele>717.53</ele>
        <time>2020-07-21T06:16:08.000Z</time>
      </trkpt>
      <trkpt lat="44.82766" lon="5.06968">
        <ele>719.83</ele>
        <time>2020-07-21T06:16:18.000Z</time>
      </trkpt>
      <trkpt lat="44.82769" lon="5.06971">
        <ele>721.54</ele>
        <time>2020-07-21T06:16:28.000Z</time>
      </trkpt>
      <trkpt lat="44.82775" lon="5.06974">
        <ele>723.1</ele>
        <time>2020-07-21T06:16:38.000Z</time>
      </trkpt>
      <trkpt lat="44.82778" lon="5.06976">
        <ele>724.15</ele>
        <time>2020-07-21T06:16:48.000Z</time>
      </trkpt>
      <trkpt lat="44.82783" lon="5.06977">
        <ele>724.63</ele>
        <time>2020-07-21T06:16:58.000Z</time>
      </trkpt>
      <trkpt lat="44.82787" lon="5.0698">
        <ele>726.12</ele>
        <time>2020-07-21T06:17:08.000Z</time>
      </trkpt>
      <trkpt lat="44.82792" lon="5.06983">
        <ele>727.37</ele>
        <time>2020-07-21T06:17:18.000Z</time>
      </trkpt>
      <trkpt lat="44.82794" lon="5.06985">
        <ele>728.32</ele>
        <time>2020-07-21T06:17:28.000Z</time>
      </trkpt>
      <trkpt lat="44.82798" lon="5.06989">
        <ele>730.56</ele>
        <time>2020-07-21T06:17:38.000Z</time>
      </trkpt>
      <trkpt lat="44.82802" lon="5.06991">
        <ele>731.61</ele>
        <time>2020-07-21T06:17:48.000Z</time>
      </trkpt>
      <trkpt lat="44.82806" lon="5.06993">
        <ele>732.6</ele>
        <time>2020-07-21T06:17:58.000Z</time>
      </trkpt>
      <trkpt lat="44.82811" lon="5.06996">
        <ele>734.19</ele>
        <time>2020-07-21T06:18:08.000Z</time>
      </trkpt>
      <trkpt lat="44.82814" lon="5.06999">
        <ele>735.46</ele>
        <time>2020-07-21T06:18:18.000Z</time>
      </trkpt>
      <trkpt lat="44.82816" lon="5.07001">
        <ele>736.19</ele>
        <time>2020-07-21T06:18:48.000Z</time>
      </trkpt>
      <trkpt lat="44.8282" lon="5.07006">
        <ele>738.75</ele>
        <time>2020-07-21T06:18:58.000Z</time>
      </trkpt>
      <trkpt lat="44.82826" lon="5.07007">
        <ele>739.13</ele>
        <time>2020-07-21T06:19:08.000Z</time>
      </trkpt>
      <trkpt lat="44.82829" lon="5.0701">
        <ele>740.82</ele>
        <time>2020-07-21T06:19:18.000Z</time>
      </trkpt>
      <trkpt lat="44.82832" lon="5.07015">
        <ele>743.21</ele>
        <time>2020-07-21T06:19:28.000Z</time>
      </trkpt>
      <trkpt lat="44.82836" lon="5.07021">
        <ele>746.04</ele>
        <time>2020-07-21T06:19:38.000Z</time>
      </trkpt>
      <trkpt lat="44.82842" lon="5.07024">
        <ele>747.38</ele>
        <time>2020-07-21T06:19:48.000Z</time>
      </trkpt>
      <trkpt lat="44.82845" lon="5.07027">
        <ele>748.79</ele>
        <time>2020-07-21T06:19:58.000Z</time>
      </trkpt>
      <trkpt lat="44.82848" lon="5.07029">
        <ele>749.78</ele>
        <time>2020-07-21T06:20:08.000Z</time>
      </trkpt>
      <trkpt lat="44.82854" lon="5.07034">
        <ele>752.29</ele>
        <time>2020-07-21T06:20:18.000Z</time>
      </trkpt>
      <trkpt lat="44.82857" lon="5.0704">
        <ele>755.37</ele>
        <time>2020-07-21T06:20:28.000Z</time>
      </trkpt>
      <trkpt lat="44.82859" lon="5.07045">
        <ele>757.6</ele>
        <time>2020-07-21T06:20:38.000Z</time>
      </trkpt>
      <trkpt lat="44.82861" lon="5.0705">
        <ele>760.28</ele>
        <time>2020-07-21T06:20:48.000Z</time>
      </trkpt>
      <trkpt lat="44.82863" lon="5.07056">
        <ele>763.62</ele>
        <time>2020-07-21T06:20:58.000Z</time>
      </trkpt>
      <trkpt lat="44.82868" lon="5.07059">
        <ele>764.54</ele>
        <time>2020-07-21T06:21:08.000Z</time>
      </trkpt>
      <trkpt lat="44.82869" lon="5.07063">
        <ele>766.79</ele>
        <time>2020-07-21T06:21:18.000Z</time>
      </trkpt>
      <trkpt lat="44.82874" lon="5.07068">
        <ele>768.93</ele>
        <time>2020-07-21T06:21:28.000Z</time>
      </trkpt>
      <trkpt lat="44.8288" lon="5.07073">
        <ele>771.19</ele>
        <time>2020-07-21T06:21:38.000Z</time>
      </trkpt>
      <trkpt lat="44.82884" lon="5.07078">
        <ele>773</ele>
        <time>2020-07-21T06:21:48.000Z</time>
      </trkpt>
      <trkpt lat="44.82888" lon="5.0708">
        <ele>773.64</ele>
        <time>2020-07-21T06:21:58.000Z</time>
      </trkpt>
      <trkpt lat="44.82894" lon="5.07086">
        <ele>775.74</ele>
        <time>2020-07-21T06:22:08.000Z</time>
      </trkpt>
      <trkpt lat="44.82897" lon="5.0709">
        <ele>777.58</ele>
        <time>2020-07-21T06:22:18.000Z</time>
      </trkpt>
      <trkpt lat="44.829" lon="5.07092">
        <ele>778.55</ele>
        <time>2020-07-21T06:22:28.000Z</time>
      </trkpt>
      <trkpt lat="44.82905" lon="5.07096">
        <ele>779.8</ele>
        <time>2020-07-21T06:22:38.000Z</time>
      </trkpt>
      <trkpt lat="44.8291" lon="5.07099">
        <ele>780.34</ele>
        <time>2020-07-21T06:22:48.000Z</time>
      </trkpt>
      <trkpt lat="44.82914" lon="5.07105">
        <ele>782.75</ele>
        <time>2020-07-21T06:22:58.000Z</time>
      </trkpt>
      <trkpt lat="44.82916" lon="5.07107">
        <ele>783.73</ele>
        <time>2020-07-21T06:23:08.000Z</time>
      </trkpt>
      <trkpt lat="44.82922" lon="5.07111">
        <ele>784.47</ele>
        <time>2020-07-21T06:23:18.000Z</time>
      </trkpt>
      <trkpt lat="44.82925" lon="5.07116">
        <ele>786.79</ele>
        <time>2020-07-21T06:23:28.000Z</time>
      </trkpt>
      <trkpt lat="44.82929" lon="5.07122">
        <ele>788.69</ele>
        <time>2020-07-21T06:23:38.000Z</time>
      </trkpt>
      <trkpt lat="44.82933" lon="5.07124">
        <ele>788.99</ele>
        <time>2020-07-21T06:23:48.000Z</time>
      </trkpt>
      <trkpt lat="44.82936" lon="5.0713">
        <ele>791.28</ele>
        <time>2020-07-21T06:23:58.000Z</time>
      </trkpt>
      <trkpt lat="44.8294" lon="5.07133">
        <ele>792.02</ele>
        <time>2020-07-21T06:24:08.000Z</time>
      </trkpt>
      <trkpt lat="44.82946" lon="5.07139">
        <ele>793.03</ele>
        <time>2020-07-21T06:24:18.000Z</time>
      </trkpt>
      <trkpt lat="44.8295" lon="5.07142">
        <ele>793.57</ele>
        <time>2020-07-21T06:24:28.000Z</time>
      </trkpt>
      <trkpt lat="44.82956" lon="5.07146">
        <ele>793.39</ele>
        <time>2020-07-21T06:24:38.000Z</time>
      </trkpt>
      <trkpt lat="44.82962" lon="5.07151">
        <ele>794.33</ele>
        <time>2020-07-21T06:24:48.000Z</time>
      </trkpt>
      <trkpt lat="44.8297" lon="5.07154">
        <ele>793.31</ele>
        <time>2020-07-21T06:24:58.000Z</time>
      </trkpt>
      <trkpt lat="44.82974" lon="5.07162">
        <ele>796.45</ele>
        <time>2020-07-21T06:25:08.000Z</time>
      </trkpt>
      <trkpt lat="44.82978" lon="5.07164">
        <ele>796.11</ele>
        <time>2020-07-21T06:25:18.000Z</time>
      </trkpt>
      <trkpt lat="44.82984" lon="5.0717">
        <ele>797.9</ele>
        <time>2020-07-21T06:25:28.000Z</time>
      </trkpt>
      <trkpt lat="44.82992" lon="5.07176">
        <ele>799.8</ele>
        <time>2020-07-21T06:25:38.000Z</time>
      </trkpt>
      <trkpt lat="44.82999" lon="5.0718">
        <ele>800.63</ele>
        <time>2020-07-21T06:25:48.000Z</time>
      </trkpt>
      <trkpt lat="44.83003" lon="5.07181">
        <ele>800.18</ele>
        <time>2020-07-21T06:25:58.000Z</time>
      </trkpt>
      <trkpt lat="44.83007" lon="5.07184">
        <ele>801.3</ele>
        <time>2020-07-21T06:26:08.000Z</time>
      </trkpt>
      <trkpt lat="44.83011" lon="5.0719">
        <ele>804.27</ele>
        <time>2020-07-21T06:26:18.000Z</time>
      </trkpt>
      <trkpt lat="44.83015" lon="5.07196">
        <ele>807.71</ele>
        <time>2020-07-21T06:26:28.000Z</time>
      </trkpt>
      <trkpt lat="44.83015" lon="5.07203">
        <ele>812.54</ele>
        <time>2020-07-21T06:26:38.000Z</time>
      </trkpt>
      <trkpt lat="44.83012" lon="5.07204">
        <ele>813.4</ele>
        <time>2020-07-21T06:26:48.000Z</time>
      </trkpt>
      <trkpt lat="44.83009" lon="5.07203">
        <ele>813.48</ele>
        <time>2020-07-21T06:26:58.000Z</time>
      </trkpt>
      <trkpt lat="44.83004" lon="5.07201">
        <ele>812.74</ele>
        <time>2020-07-21T06:27:08.000Z</time>
      </trkpt>
      <trkpt lat="44.83002" lon="5.07204">
        <ele>815.3</ele>
        <time>2020-07-21T06:27:18.000Z</time>
      </trkpt>
      <trkpt lat="44.82997" lon="5.07207">
        <ele>818.43</ele>
        <time>2020-07-21T06:27:28.000Z</time>
      </trkpt>
      <trkpt lat="44.82995" lon="5.07203">
        <ele>815.95</ele>
        <time>2020-07-21T06:27:38.000Z</time>
      </trkpt>
      <trkpt lat="44.82995" lon="5.072">
        <ele>813.9</ele>
        <time>2020-07-21T06:27:48.000Z</time>
      </trkpt>
      <trkpt lat="44.82991" lon="5.07201">
        <ele>815.51</ele>
        <time>2020-07-21T06:27:58.000Z</time>
      </trkpt>
      <trkpt lat="44.82989" lon="5.07208">
        <ele>821.19</ele>
        <time>2020-07-21T06:28:08.000Z</time>
      </trkpt>
      <trkpt lat="44.82986" lon="5.07209">
        <ele>822.6</ele>
        <time>2020-07-21T06:28:18.000Z</time>
      </trkpt>
      <trkpt lat="44.82989" lon="5.07214">
        <ele>825.19</ele>
        <time>2020-07-21T06:28:28.000Z</time>
      </trkpt>
      <trkpt lat="44.82992" lon="5.07218">
        <ele>826.89</ele>
        <time>2020-07-21T06:28:38.000Z</time>
      </trkpt>
      <trkpt lat="44.82996" lon="5.07221">
        <ele>827.65</ele>
        <time>2020-07-21T06:28:48.000Z</time>
      </trkpt>
      <trkpt lat="44.83" lon="5.07223">
        <ele>828.44</ele>
        <time>2020-07-21T06:28:58.000Z</time>
      </trkpt>
      <trkpt lat="44.83005" lon="5.07225">
        <ele>828.68</ele>
        <time>2020-07-21T06:29:08.000Z</time>
      </trkpt>
      <trkpt lat="44.8301" lon="5.0723">
        <ele>830.98</ele>
        <time>2020-07-21T06:29:18.000Z</time>
      </trkpt>
      <trkpt lat="44.83012" lon="5.07235">
        <ele>833.99</ele>
        <time>2020-07-21T06:29:28.000Z</time>
      </trkpt>
      <trkpt lat="44.83016" lon="5.0724">
        <ele>836.5</ele>
        <time>2020-07-21T06:29:38.000Z</time>
      </trkpt>
      <trkpt lat="44.83021" lon="5.07242">
        <ele>836.76</ele>
        <time>2020-07-21T06:29:48.000Z</time>
      </trkpt>
      <trkpt lat="44.83024" lon="5.07245">
        <ele>838.1</ele>
        <time>2020-07-21T06:29:58.000Z</time>
      </trkpt>
      <trkpt lat="44.83031" lon="5.07251">
        <ele>840.18</ele>
        <time>2020-07-21T06:30:08.000Z</time>
      </trkpt>
      <trkpt lat="44.83036" lon="5.07256">
        <ele>842</ele>
        <time>2020-07-21T06:30:18.000Z</time>
      </trkpt>
      <trkpt lat="44.83035" lon="5.0726">
        <ele>844.99</ele>
        <time>2020-07-21T06:30:28.000Z</time>
      </trkpt>
      <trkpt lat="44.83031" lon="5.07261">
        <ele>846.46</ele>
        <time>2020-07-21T06:30:38.000Z</time>
      </trkpt>
      <trkpt lat="44.83027" lon="5.07265">
        <ele>849.78</ele>
        <time>2020-07-21T06:30:48.000Z</time>
      </trkpt>
      <trkpt lat="44.83033" lon="5.07269">
        <ele>851.24</ele>
        <time>2020-07-21T06:30:58.000Z</time>
      </trkpt>
      <trkpt lat="44.83034" lon="5.07269">
        <ele>850.76</ele>
        <time>2020-07-21T06:31:08.000Z</time>
      </trkpt>
      <trkpt lat="44.83034" lon="5.07267">
        <ele>849.8</ele>
        <time>2020-07-21T06:33:19.000Z</time>
      </trkpt>
      <trkpt lat="44.83037" lon="5.07268">
        <ele>849.78</ele>
        <time>2020-07-21T06:33:29.000Z</time>
      </trkpt>
      <trkpt lat="44.83042" lon="5.07271">
        <ele>850.53</ele>
        <time>2020-07-21T06:33:39.000Z</time>
      </trkpt>
      <trkpt lat="44.83049" lon="5.07275">
        <ele>852.09</ele>
        <time>2020-07-21T06:33:49.000Z</time>
      </trkpt>
      <trkpt lat="44.83054" lon="5.07279">
        <ele>853.4</ele>
        <time>2020-07-21T06:33:59.000Z</time>
      </trkpt>
      <trkpt lat="44.8306" lon="5.07281">
        <ele>853.88</ele>
        <time>2020-07-21T06:34:09.000Z</time>
      </trkpt>
      <trkpt lat="44.83066" lon="5.07285">
        <ele>855.61</ele>
        <time>2020-07-21T06:34:19.000Z</time>
      </trkpt>
      <trkpt lat="44.8307" lon="5.07287">
        <ele>855.81</ele>
        <time>2020-07-21T06:34:29.000Z</time>
      </trkpt>
      <trkpt lat="44.83076" lon="5.07293">
        <ele>858.89</ele>
        <time>2020-07-21T06:34:39.000Z</time>
      </trkpt>
      <trkpt lat="44.83087" lon="5.07297">
        <ele>859.67</ele>
        <time>2020-07-21T06:34:49.000Z</time>
      </trkpt>
      <trkpt lat="44.83096" lon="5.07302">
        <ele>861.7</ele>
        <time>2020-07-21T06:34:59.000Z</time>
      </trkpt>
      <trkpt lat="44.83101" lon="5.07305">
        <ele>863.06</ele>
        <time>2020-07-21T06:35:09.000Z</time>
      </trkpt>
      <trkpt lat="44.83107" lon="5.07307">
        <ele>863.52</ele>
        <time>2020-07-21T06:35:19.000Z</time>
      </trkpt>
      <trkpt lat="44.83112" lon="5.0731">
        <ele>864.44</ele>
        <time>2020-07-21T06:35:29.000Z</time>
      </trkpt>
      <trkpt lat="44.83117" lon="5.07315">
        <ele>866.74</ele>
        <time>2020-07-21T06:35:39.000Z</time>
      </trkpt>
      <trkpt lat="44.83122" lon="5.07317">
        <ele>867.05</ele>
        <time>2020-07-21T06:35:49.000Z</time>
      </trkpt>
      <trkpt lat="44.83127" lon="5.07318">
        <ele>867.17</ele>
        <time>2020-07-21T06:35:59.000Z</time>
      </trkpt>
      <trkpt lat="44.83134" lon="5.0732">
        <ele>867.58</ele>
        <time>2020-07-21T06:36:09.000Z</time>
      </trkpt>
      <trkpt lat="44.83139" lon="5.07325">
        <ele>868.85</ele>
        <time>2020-07-21T06:36:19.000Z</time>
      </trkpt>
      <trkpt lat="44.83144" lon="5.07327">
        <ele>869.1</ele>
        <time>2020-07-21T06:36:29.000Z</time>
      </trkpt>
      <trkpt lat="44.83147" lon="5.07329">
        <ele>869.53</ele>
        <time>2020-07-21T06:36:39.000Z</time>
      </trkpt>
      <trkpt lat="44.83152" lon="5.07334">
        <ele>870.38</ele>
        <time>2020-07-21T06:36:49.000Z</time>
      </trkpt>
      <trkpt lat="44.83159" lon="5.07338">
        <ele>870.79</ele>
        <time>2020-07-21T06:36:59.000Z</time>
      </trkpt>
      <trkpt lat="44.83163" lon="5.07342">
        <ele>871.19</ele>
        <time>2020-07-21T06:37:09.000Z</time>
      </trkpt>
      <trkpt lat="44.83164" lon="5.07342">
        <ele>871.22</ele>
        <time>2020-07-21T06:37:19.000Z</time>
      </trkpt>
      <trkpt lat="44.83166" lon="5.07343">
        <ele>871.18</ele>
        <time>2020-07-21T06:37:29.000Z</time>
      </trkpt>
      <trkpt lat="44.83173" lon="5.07341">
        <ele>870.98</ele>
        <time>2020-07-21T06:37:39.000Z</time>
      </trkpt>
      <trkpt lat="44.83182" lon="5.07335">
        <ele>870.48</ele>
        <time>2020-07-21T06:37:49.000Z</time>
      </trkpt>
      <trkpt lat="44.83191" lon="5.07328">
        <ele>869.72</ele>
        <time>2020-07-21T06:37:59.000Z</time>
      </trkpt>
      <trkpt lat="44.83199" lon="5.07322">
        <ele>869.11</ele>
        <time>2020-07-21T06:38:09.000Z</time>
      </trkpt>
      <trkpt lat="44.83206" lon="5.07314">
        <ele>867.8</ele>
        <time>2020-07-21T06:38:19.000Z</time>
      </trkpt>
      <trkpt lat="44.83209" lon="5.0731">
        <ele>867.08</ele>
        <time>2020-07-21T06:38:29.000Z</time>
      </trkpt>
      <trkpt lat="44.83211" lon="5.0731">
        <ele>867.42</ele>
        <time>2020-07-21T06:38:39.000Z</time>
      </trkpt>
      <trkpt lat="44.8321" lon="5.07308">
        <ele>866.94</ele>
        <time>2020-07-21T06:40:26.000Z</time>
      </trkpt>
      <trkpt lat="44.83207" lon="5.07313">
        <ele>867.8</ele>
        <time>2020-07-21T06:40:36.000Z</time>
      </trkpt>
      <trkpt lat="44.83207" lon="5.07315">
        <ele>868.21</ele>
        <time>2020-07-21T06:41:30.000Z</time>
      </trkpt>
      <trkpt lat="44.83198" lon="5.07323">
        <ele>869.26</ele>
        <time>2020-07-21T06:41:40.000Z</time>
      </trkpt>
      <trkpt lat="44.83188" lon="5.07328">
        <ele>869.74</ele>
        <time>2020-07-21T06:41:50.000Z</time>
      </trkpt>
      <trkpt lat="44.83179" lon="5.07338">
        <ele>870.77</ele>
        <time>2020-07-21T06:42:00.000Z</time>
      </trkpt>
      <trkpt lat="44.83169" lon="5.07346">
        <ele>871.35</ele>
        <time>2020-07-21T06:42:10.000Z</time>
      </trkpt>
      <trkpt lat="44.83156" lon="5.07349">
        <ele>871.91</ele>
        <time>2020-07-21T06:42:20.000Z</time>
      </trkpt>
      <trkpt lat="44.83146" lon="5.07344">
        <ele>872.23</ele>
        <time>2020-07-21T06:42:30.000Z</time>
      </trkpt>
      <trkpt lat="44.83135" lon="5.07343">
        <ele>872.92</ele>
        <time>2020-07-21T06:42:40.000Z</time>
      </trkpt>
      <trkpt lat="44.83124" lon="5.07345">
        <ele>874.24</ele>
        <time>2020-07-21T06:42:50.000Z</time>
      </trkpt>
      <trkpt lat="44.83115" lon="5.07348">
        <ele>875.7</ele>
        <time>2020-07-21T06:43:00.000Z</time>
      </trkpt>
      <trkpt lat="44.83106" lon="5.0735">
        <ele>877.16</ele>
        <time>2020-07-21T06:43:10.000Z</time>
      </trkpt>
      <trkpt lat="44.83097" lon="5.07352">
        <ele>878.93</ele>
        <time>2020-07-21T06:43:20.000Z</time>
      </trkpt>
      <trkpt lat="44.8309" lon="5.07355">
        <ele>880.48</ele>
        <time>2020-07-21T06:43:30.000Z</time>
      </trkpt>
      <trkpt lat="44.83082" lon="5.07358">
        <ele>882.11</ele>
        <time>2020-07-21T06:43:40.000Z</time>
      </trkpt>
      <trkpt lat="44.83075" lon="5.0736">
        <ele>883.68</ele>
        <time>2020-07-21T06:43:50.000Z</time>
      </trkpt>
      <trkpt lat="44.8307" lon="5.07362">
        <ele>884.95</ele>
        <time>2020-07-21T06:44:00.000Z</time>
      </trkpt>
      <trkpt lat="44.83063" lon="5.07364">
        <ele>886.66</ele>
        <time>2020-07-21T06:44:10.000Z</time>
      </trkpt>
      <trkpt lat="44.83057" lon="5.07364">
        <ele>888.1</ele>
        <time>2020-07-21T06:44:20.000Z</time>
      </trkpt>
      <trkpt lat="44.8305" lon="5.07365">
        <ele>889.81</ele>
        <time>2020-07-21T06:44:30.000Z</time>
      </trkpt>
      <trkpt lat="44.83045" lon="5.07365">
        <ele>891.03</ele>
        <time>2020-07-21T06:44:40.000Z</time>
      </trkpt>
      <trkpt lat="44.8304" lon="5.07363">
        <ele>892.01</ele>
        <time>2020-07-21T06:44:50.000Z</time>
      </trkpt>
      <trkpt lat="44.83034" lon="5.07364">
        <ele>893.62</ele>
        <time>2020-07-21T06:45:00.000Z</time>
      </trkpt>
      <trkpt lat="44.83028" lon="5.07365">
        <ele>895.46</ele>
        <time>2020-07-21T06:45:10.000Z</time>
      </trkpt>
      <trkpt lat="44.8302" lon="5.07367">
        <ele>897.66</ele>
        <time>2020-07-21T06:45:20.000Z</time>
      </trkpt>
      <trkpt lat="44.83016" lon="5.07367">
        <ele>898.76</ele>
        <time>2020-07-21T06:45:30.000Z</time>
      </trkpt>
      <trkpt lat="44.8301" lon="5.0737">
        <ele>900.58</ele>
        <time>2020-07-21T06:45:40.000Z</time>
      </trkpt>
      <trkpt lat="44.83005" lon="5.07372">
        <ele>902</ele>
        <time>2020-07-21T06:45:50.000Z</time>
      </trkpt>
      <trkpt lat="44.83001" lon="5.07372">
        <ele>902.98</ele>
        <time>2020-07-21T06:46:00.000Z</time>
      </trkpt>
      <trkpt lat="44.82995" lon="5.07372">
        <ele>904.26</ele>
        <time>2020-07-21T06:46:10.000Z</time>
      </trkpt>
      <trkpt lat="44.82989" lon="5.07372">
        <ele>905.89</ele>
        <time>2020-07-21T06:46:20.000Z</time>
      </trkpt>
      <trkpt lat="44.82984" lon="5.07373">
        <ele>907.39</ele>
        <time>2020-07-21T06:46:30.000Z</time>
      </trkpt>
      <trkpt lat="44.82979" lon="5.07376">
        <ele>908.94</ele>
        <time>2020-07-21T06:46:40.000Z</time>
      </trkpt>
      <trkpt lat="44.82973" lon="5.07372">
        <ele>910.04</ele>
        <time>2020-07-21T06:46:50.000Z</time>
      </trkpt>
      <trkpt lat="44.82969" lon="5.0737">
        <ele>911</ele>
        <time>2020-07-21T06:47:00.000Z</time>
      </trkpt>
      <trkpt lat="44.82964" lon="5.07369">
        <ele>912.32</ele>
        <time>2020-07-21T06:47:10.000Z</time>
      </trkpt>
      <trkpt lat="44.82956" lon="5.07368">
        <ele>914.08</ele>
        <time>2020-07-21T06:47:20.000Z</time>
      </trkpt>
      <trkpt lat="44.82949" lon="5.07368">
        <ele>915.81</ele>
        <time>2020-07-21T06:47:30.000Z</time>
      </trkpt>
      <trkpt lat="44.82942" lon="5.07366">
        <ele>917.28</ele>
        <time>2020-07-21T06:47:40.000Z</time>
      </trkpt>
      <trkpt lat="44.82935" lon="5.07364">
        <ele>918.32</ele>
        <time>2020-07-21T06:47:50.000Z</time>
      </trkpt>
      <trkpt lat="44.82927" lon="5.07362">
        <ele>919.44</ele>
        <time>2020-07-21T06:48:00.000Z</time>
      </trkpt>
      <trkpt lat="44.82919" lon="5.07359">
        <ele>920.3</ele>
        <time>2020-07-21T06:48:10.000Z</time>
      </trkpt>
      <trkpt lat="44.82911" lon="5.07356">
        <ele>920.69</ele>
        <time>2020-07-21T06:48:20.000Z</time>
      </trkpt>
      <trkpt lat="44.82903" lon="5.07356">
        <ele>921.53</ele>
        <time>2020-07-21T06:48:30.000Z</time>
      </trkpt>
      <trkpt lat="44.82896" lon="5.07352">
        <ele>921.5</ele>
        <time>2020-07-21T06:48:40.000Z</time>
      </trkpt>
      <trkpt lat="44.82893" lon="5.07345">
        <ele>920.7</ele>
        <time>2020-07-21T06:48:50.000Z</time>
      </trkpt>
      <trkpt lat="44.82891" lon="5.07345">
        <ele>920.82</ele>
        <time>2020-07-21T06:49:00.000Z</time>
      </trkpt>
      <trkpt lat="44.8289" lon="5.07347">
        <ele>921.21</ele>
        <time>2020-07-21T06:50:11.000Z</time>
      </trkpt>
      <trkpt lat="44.82895" lon="5.07354">
        <ele>922.04</ele>
        <time>2020-07-21T06:50:21.000Z</time>
      </trkpt>
      <trkpt lat="44.82899" lon="5.07359">
        <ele>922.3</ele>
        <time>2020-07-21T06:50:31.000Z</time>
      </trkpt>
      <trkpt lat="44.829" lon="5.0736">
        <ele>922.35</ele>
        <time>2020-07-21T06:51:17.000Z</time>
      </trkpt>
      <trkpt lat="44.82903" lon="5.07362">
        <ele>922.42</ele>
        <time>2020-07-21T06:51:27.000Z</time>
      </trkpt>
      <trkpt lat="44.82904" lon="5.07362">
        <ele>922.33</ele>
        <time>2020-07-21T06:51:43.000Z</time>
      </trkpt>
      <trkpt lat="44.82907" lon="5.07362">
        <ele>922.05</ele>
        <time>2020-07-21T06:51:53.000Z</time>
      </trkpt>
      <trkpt lat="44.82908" lon="5.07362">
        <ele>921.98</ele>
        <time>2020-07-21T06:52:44.000Z</time>
      </trkpt>
      <trkpt lat="44.8291" lon="5.07363">
        <ele>921.84</ele>
        <time>2020-07-21T06:52:54.000Z</time>
      </trkpt>
      <trkpt lat="44.82915" lon="5.07364">
        <ele>921.45</ele>
        <time>2020-07-21T06:53:04.000Z</time>
      </trkpt>
      <trkpt lat="44.82924" lon="5.07367">
        <ele>920.76</ele>
        <time>2020-07-21T06:53:14.000Z</time>
      </trkpt>
      <trkpt lat="44.8293" lon="5.07367">
        <ele>919.67</ele>
        <time>2020-07-21T06:53:24.000Z</time>
      </trkpt>
      <trkpt lat="44.82931" lon="5.07366">
        <ele>919.43</ele>
        <time>2020-07-21T06:54:19.000Z</time>
      </trkpt>
      <trkpt lat="44.82933" lon="5.07365">
        <ele>918.98</ele>
        <time>2020-07-21T06:54:29.000Z</time>
      </trkpt>
      <trkpt lat="44.82933" lon="5.07367">
        <ele>919.17</ele>
        <time>2020-07-21T06:54:46.000Z</time>
      </trkpt>
      <trkpt lat="44.82932" lon="5.07367">
        <ele>919.44</ele>
        <time>2020-07-21T06:55:24.000Z</time>
      </trkpt>
      <trkpt lat="44.82931" lon="5.07367">
        <ele>919.6</ele>
        <time>2020-07-21T06:55:34.000Z</time>
      </trkpt>
      <trkpt lat="44.8293" lon="5.07366">
        <ele>919.65</ele>
        <time>2020-07-21T06:56:17.000Z</time>
      </trkpt>
      <trkpt lat="44.8293" lon="5.07364">
        <ele>919.46</ele>
        <time>2020-07-21T07:02:04.000Z</time>
      </trkpt>
      <trkpt lat="44.82931" lon="5.07366">
        <ele>919.43</ele>
        <time>2020-07-21T07:02:51.000Z</time>
      </trkpt>
      <trkpt lat="44.82941" lon="5.07371">
        <ele>918.25</ele>
        <time>2020-07-21T07:03:01.000Z</time>
      </trkpt>
      <trkpt lat="44.82949" lon="5.07378">
        <ele>917.01</ele>
        <time>2020-07-21T07:03:11.000Z</time>
      </trkpt>
      <trkpt lat="44.82958" lon="5.07385">
        <ele>915.53</ele>
        <time>2020-07-21T07:03:21.000Z</time>
      </trkpt>
      <trkpt lat="44.82957" lon="5.07384">
        <ele>915.6</ele>
        <time>2020-07-21T07:03:55.000Z</time>
      </trkpt>
      <trkpt lat="44.82962" lon="5.0738">
        <ele>913.92</ele>
        <time>2020-07-21T07:04:05.000Z</time>
      </trkpt>
      <trkpt lat="44.8297" lon="5.07374">
        <ele>911.14</ele>
        <time>2020-07-21T07:04:15.000Z</time>
      </trkpt>
      <trkpt lat="44.8298" lon="5.07376">
        <ele>908.62</ele>
        <time>2020-07-21T07:04:25.000Z</time>
      </trkpt>
      <trkpt lat="44.82987" lon="5.07376">
        <ele>906.74</ele>
        <time>2020-07-21T07:04:35.000Z</time>
      </trkpt>
      <trkpt lat="44.82996" lon="5.07375">
        <ele>904.26</ele>
        <time>2020-07-21T07:04:45.000Z</time>
      </trkpt>
      <trkpt lat="44.83003" lon="5.07372">
        <ele>902.35</ele>
        <time>2020-07-21T07:04:55.000Z</time>
      </trkpt>
      <trkpt lat="44.8301" lon="5.07369">
        <ele>900.23</ele>
        <time>2020-07-21T07:05:05.000Z</time>
      </trkpt>
      <trkpt lat="44.8302" lon="5.07367">
        <ele>897.77</ele>
        <time>2020-07-21T07:05:15.000Z</time>
      </trkpt>
      <trkpt lat="44.8303" lon="5.07366">
        <ele>895.1</ele>
        <time>2020-07-21T07:05:25.000Z</time>
      </trkpt>
      <trkpt lat="44.83039" lon="5.07365">
        <ele>892.66</ele>
        <time>2020-07-21T07:05:35.000Z</time>
      </trkpt>
      <trkpt lat="44.83049" lon="5.07368">
        <ele>890.38</ele>
        <time>2020-07-21T07:05:45.000Z</time>
      </trkpt>
      <trkpt lat="44.83058" lon="5.07364">
        <ele>887.91</ele>
        <time>2020-07-21T07:05:55.000Z</time>
      </trkpt>
      <trkpt lat="44.83067" lon="5.07363">
        <ele>885.6</ele>
        <time>2020-07-21T07:06:05.000Z</time>
      </trkpt>
      <trkpt lat="44.83074" lon="5.07359">
        <ele>883.85</ele>
        <time>2020-07-21T07:06:15.000Z</time>
      </trkpt>
      <trkpt lat="44.83082" lon="5.07357">
        <ele>882.04</ele>
        <time>2020-07-21T07:06:25.000Z</time>
      </trkpt>
      <trkpt lat="44.83091" lon="5.07354">
        <ele>880.02</ele>
        <time>2020-07-21T07:06:35.000Z</time>
      </trkpt>
      <trkpt lat="44.83101" lon="5.07353">
        <ele>878.38</ele>
        <time>2020-07-21T07:06:45.000Z</time>
      </trkpt>
      <trkpt lat="44.8311" lon="5.0735">
        <ele>876.67</ele>
        <time>2020-07-21T07:06:55.000Z</time>
      </trkpt>
      <trkpt lat="44.83121" lon="5.07345">
        <ele>874.66</ele>
        <time>2020-07-21T07:07:05.000Z</time>
      </trkpt>
      <trkpt lat="44.8313" lon="5.07342">
        <ele>873.22</ele>
        <time>2020-07-21T07:07:15.000Z</time>
      </trkpt>
      <trkpt lat="44.83141" lon="5.07344">
        <ele>872.52</ele>
        <time>2020-07-21T07:07:25.000Z</time>
      </trkpt>
      <trkpt lat="44.83151" lon="5.0735">
        <ele>872.19</ele>
        <time>2020-07-21T07:07:35.000Z</time>
      </trkpt>
      <trkpt lat="44.83161" lon="5.07348">
        <ele>871.65</ele>
        <time>2020-07-21T07:07:45.000Z</time>
      </trkpt>
      <trkpt lat="44.8317" lon="5.07354">
        <ele>871.47</ele>
        <time>2020-07-21T07:07:55.000Z</time>
      </trkpt>
      <trkpt lat="44.83173" lon="5.07369">
        <ele>870.53</ele>
        <time>2020-07-21T07:08:05.000Z</time>
      </trkpt>
      <trkpt lat="44.83165" lon="5.07382">
        <ele>869.26</ele>
        <time>2020-07-21T07:08:15.000Z</time>
      </trkpt>
      <trkpt lat="44.83158" lon="5.07392">
        <ele>868.49</ele>
        <time>2020-07-21T07:08:25.000Z</time>
      </trkpt>
      <trkpt lat="44.83151" lon="5.07407">
        <ele>867.78</ele>
        <time>2020-07-21T07:08:35.000Z</time>
      </trkpt>
      <trkpt lat="44.8315" lon="5.07423">
        <ele>866.85</ele>
        <time>2020-07-21T07:08:45.000Z</time>
      </trkpt>
      <trkpt lat="44.83146" lon="5.07442">
        <ele>866.36</ele>
        <time>2020-07-21T07:08:55.000Z</time>
      </trkpt>
      <trkpt lat="44.83142" lon="5.0746">
        <ele>866.02</ele>
        <time>2020-07-21T07:09:05.000Z</time>
      </trkpt>
      <trkpt lat="44.83141" lon="5.07465">
        <ele>866.04</ele>
        <time>2020-07-21T07:09:15.000Z</time>
      </trkpt>
      <trkpt lat="44.8314" lon="5.0748">
        <ele>865.23</ele>
        <time>2020-07-21T07:09:25.000Z</time>
      </trkpt>
      <trkpt lat="44.83139" lon="5.07496">
        <ele>864.3</ele>
        <time>2020-07-21T07:09:35.000Z</time>
      </trkpt>
      <trkpt lat="44.83138" lon="5.07513">
        <ele>863.35</ele>
        <time>2020-07-21T07:09:45.000Z</time>
      </trkpt>
      <trkpt lat="44.83135" lon="5.07526">
        <ele>863.35</ele>
        <time>2020-07-21T07:09:55.000Z</time>
      </trkpt>
      <trkpt lat="44.83134" lon="5.07543">
        <ele>862.18</ele>
        <time>2020-07-21T07:10:05.000Z</time>
      </trkpt>
      <trkpt lat="44.83128" lon="5.07558">
        <ele>862.53</ele>
        <time>2020-07-21T07:10:15.000Z</time>
      </trkpt>
      <trkpt lat="44.83121" lon="5.07576">
        <ele>862.15</ele>
        <time>2020-07-21T07:10:25.000Z</time>
      </trkpt>
      <trkpt lat="44.83114" lon="5.07594">
        <ele>861.59</ele>
        <time>2020-07-21T07:10:35.000Z</time>
      </trkpt>
      <trkpt lat="44.83106" lon="5.07606">
        <ele>862.22</ele>
        <time>2020-07-21T07:10:45.000Z</time>
      </trkpt>
      <trkpt lat="44.83101" lon="5.07623">
        <ele>861.06</ele>
        <time>2020-07-21T07:10:55.000Z</time>
      </trkpt>
      <trkpt lat="44.83094" lon="5.07642">
        <ele>860.38</ele>
        <time>2020-07-21T07:11:05.000Z</time>
      </trkpt>
      <trkpt lat="44.83091" lon="5.0766">
        <ele>858.85</ele>
        <time>2020-07-21T07:11:15.000Z</time>
      </trkpt>
      <trkpt lat="44.83089" lon="5.07677">
        <ele>857.58</ele>
        <time>2020-07-21T07:11:25.000Z</time>
      </trkpt>
      <trkpt lat="44.83084" lon="5.07693">
        <ele>857.61</ele>
        <time>2020-07-21T07:11:35.000Z</time>
      </trkpt>
      <trkpt lat="44.83079" lon="5.0771">
        <ele>857.62</ele>
        <time>2020-07-21T07:11:45.000Z</time>
      </trkpt>
      <trkpt lat="44.83074" lon="5.07729">
        <ele>857.49</ele>
        <time>2020-07-21T07:11:55.000Z</time>
      </trkpt>
      <trkpt lat="44.83071" lon="5.07747">
        <ele>856.76</ele>
        <time>2020-07-21T07:12:05.000Z</time>
      </trkpt>
      <trkpt lat="44.83069" lon="5.07764">
        <ele>855.25</ele>
        <time>2020-07-21T07:12:15.000Z</time>
      </trkpt>
      <trkpt lat="44.83064" lon="5.0778">
        <ele>854.6</ele>
        <time>2020-07-21T07:12:25.000Z</time>
      </trkpt>
      <trkpt lat="44.83061" lon="5.07795">
        <ele>853.4</ele>
        <time>2020-07-21T07:12:35.000Z</time>
      </trkpt>
      <trkpt lat="44.83061" lon="5.07813">
        <ele>850.57</ele>
        <time>2020-07-21T07:12:45.000Z</time>
      </trkpt>
      <trkpt lat="44.83059" lon="5.07829">
        <ele>849.1</ele>
        <time>2020-07-21T07:12:55.000Z</time>
      </trkpt>
      <trkpt lat="44.83055" lon="5.07845">
        <ele>848.17</ele>
        <time>2020-07-21T07:13:05.000Z</time>
      </trkpt>
      <trkpt lat="44.83053" lon="5.07861">
        <ele>846.58</ele>
        <time>2020-07-21T07:13:15.000Z</time>
      </trkpt>
      <trkpt lat="44.83049" lon="5.07876">
        <ele>845.65</ele>
        <time>2020-07-21T07:13:25.000Z</time>
      </trkpt>
      <trkpt lat="44.83047" lon="5.07892">
        <ele>843.98</ele>
        <time>2020-07-21T07:13:35.000Z</time>
      </trkpt>
      <trkpt lat="44.83048" lon="5.07909">
        <ele>841.45</ele>
        <time>2020-07-21T07:13:45.000Z</time>
      </trkpt>
      <trkpt lat="44.83046" lon="5.07926">
        <ele>839.49</ele>
        <time>2020-07-21T07:13:55.000Z</time>
      </trkpt>
      <trkpt lat="44.83042" lon="5.07943">
        <ele>837.57</ele>
        <time>2020-07-21T07:14:05.000Z</time>
      </trkpt>
      <trkpt lat="44.83042" lon="5.07959">
        <ele>834.93</ele>
        <time>2020-07-21T07:14:15.000Z</time>
      </trkpt>
      <trkpt lat="44.83045" lon="5.07973">
        <ele>831.91</ele>
        <time>2020-07-21T07:14:25.000Z</time>
      </trkpt>
      <trkpt lat="44.83049" lon="5.07988">
        <ele>828.78</ele>
        <time>2020-07-21T07:14:35.000Z</time>
      </trkpt>
      <trkpt lat="44.83051" lon="5.08002">
        <ele>826.49</ele>
        <time>2020-07-21T07:14:45.000Z</time>
      </trkpt>
      <trkpt lat="44.83053" lon="5.08017">
        <ele>823.83</ele>
        <time>2020-07-21T07:14:55.000Z</time>
      </trkpt>
      <trkpt lat="44.83058" lon="5.08029">
        <ele>821.33</ele>
        <time>2020-07-21T07:15:05.000Z</time>
      </trkpt>
      <trkpt lat="44.83059" lon="5.08043">
        <ele>819.48</ele>
        <time>2020-07-21T07:15:15.000Z</time>
      </trkpt>
      <trkpt lat="44.83062" lon="5.08058">
        <ele>817.01</ele>
        <time>2020-07-21T07:15:25.000Z</time>
      </trkpt>
      <trkpt lat="44.83066" lon="5.08072">
        <ele>814.24</ele>
        <time>2020-07-21T07:15:35.000Z</time>
      </trkpt>
      <trkpt lat="44.83069" lon="5.08084">
        <ele>812.09</ele>
        <time>2020-07-21T07:15:45.000Z</time>
      </trkpt>
      <trkpt lat="44.8307" lon="5.08097">
        <ele>810.33</ele>
        <time>2020-07-21T07:15:55.000Z</time>
      </trkpt>
      <trkpt lat="44.83071" lon="5.08113">
        <ele>808.47</ele>
        <time>2020-07-21T07:16:05.000Z</time>
      </trkpt>
      <trkpt lat="44.83071" lon="5.08125">
        <ele>807.26</ele>
        <time>2020-07-21T07:16:15.000Z</time>
      </trkpt>
      <trkpt lat="44.83071" lon="5.08141">
        <ele>805.39</ele>
        <time>2020-07-21T07:16:25.000Z</time>
      </trkpt>
      <trkpt lat="44.83071" lon="5.08145">
        <ele>805.03</ele>
        <time>2020-07-21T07:16:35.000Z</time>
      </trkpt>
      <trkpt lat="44.83072" lon="5.08147">
        <ele>804.77</ele>
        <time>2020-07-21T07:17:14.000Z</time>
      </trkpt>
      <trkpt lat="44.83072" lon="5.0816">
        <ele>803.33</ele>
        <time>2020-07-21T07:17:24.000Z</time>
      </trkpt>
      <trkpt lat="44.83074" lon="5.08168">
        <ele>802.07</ele>
        <time>2020-07-21T07:17:34.000Z</time>
      </trkpt>
      <trkpt lat="44.83075" lon="5.08169">
        <ele>801.73</ele>
        <time>2020-07-21T07:17:48.000Z</time>
      </trkpt>
      <trkpt lat="44.83076" lon="5.08184">
        <ele>799.95</ele>
        <time>2020-07-21T07:17:58.000Z</time>
      </trkpt>
      <trkpt lat="44.83081" lon="5.08196">
        <ele>797.59</ele>
        <time>2020-07-21T07:18:08.000Z</time>
      </trkpt>
      <trkpt lat="44.83088" lon="5.08208">
        <ele>794.26</ele>
        <time>2020-07-21T07:18:18.000Z</time>
      </trkpt>
      <trkpt lat="44.83093" lon="5.08221">
        <ele>791.17</ele>
        <time>2020-07-21T07:18:28.000Z</time>
      </trkpt>
      <trkpt lat="44.83095" lon="5.08228">
        <ele>790.11</ele>
        <time>2020-07-21T07:18:38.000Z</time>
      </trkpt>
      <trkpt lat="44.83097" lon="5.08229">
        <ele>789.51</ele>
        <time>2020-07-21T07:18:48.000Z</time>
      </trkpt>
      <trkpt lat="44.83098" lon="5.08229">
        <ele>788.89</ele>
        <time>2020-07-21T07:19:14.000Z</time>
      </trkpt>
      <trkpt lat="44.83102" lon="5.08222">
        <ele>787.16</ele>
        <time>2020-07-21T07:19:24.000Z</time>
      </trkpt>
      <trkpt lat="44.83109" lon="5.08209">
        <ele>784.11</ele>
        <time>2020-07-21T07:19:34.000Z</time>
      </trkpt>
      <trkpt lat="44.83113" lon="5.08195">
        <ele>782.17</ele>
        <time>2020-07-21T07:19:44.000Z</time>
      </trkpt>
      <trkpt lat="44.83114" lon="5.08184">
        <ele>781.81</ele>
        <time>2020-07-21T07:19:54.000Z</time>
      </trkpt>
      <trkpt lat="44.8312" lon="5.08169">
        <ele>779.1</ele>
        <time>2020-07-21T07:20:04.000Z</time>
      </trkpt>
      <trkpt lat="44.83127" lon="5.08156">
        <ele>774.46</ele>
        <time>2020-07-21T07:20:14.000Z</time>
      </trkpt>
      <trkpt lat="44.83133" lon="5.08145">
        <ele>771.07</ele>
        <time>2020-07-21T07:20:24.000Z</time>
      </trkpt>
      <trkpt lat="44.83135" lon="5.0814">
        <ele>770.17</ele>
        <time>2020-07-21T07:20:34.000Z</time>
      </trkpt>
      <trkpt lat="44.83133" lon="5.08136">
        <ele>771.4</ele>
        <time>2020-07-21T07:20:44.000Z</time>
      </trkpt>
      <trkpt lat="44.83135" lon="5.08135">
        <ele>770.47</ele>
        <time>2020-07-21T07:21:04.000Z</time>
      </trkpt>
      <trkpt lat="44.83136" lon="5.08133">
        <ele>769.93</ele>
        <time>2020-07-21T07:21:14.000Z</time>
      </trkpt>
      <trkpt lat="44.83138" lon="5.08122">
        <ele>769.01</ele>
        <time>2020-07-21T07:21:24.000Z</time>
      </trkpt>
      <trkpt lat="44.83136" lon="5.08112">
        <ele>771.78</ele>
        <time>2020-07-21T07:21:34.000Z</time>
      </trkpt>
      <trkpt lat="44.83134" lon="5.08101">
        <ele>774.24</ele>
        <time>2020-07-21T07:21:44.000Z</time>
      </trkpt>
      <trkpt lat="44.83133" lon="5.08091">
        <ele>775.78</ele>
        <time>2020-07-21T07:21:54.000Z</time>
      </trkpt>
      <trkpt lat="44.83134" lon="5.08079">
        <ele>775.34</ele>
        <time>2020-07-21T07:22:04.000Z</time>
      </trkpt>
      <trkpt lat="44.83136" lon="5.08068">
        <ele>774.67</ele>
        <time>2020-07-21T07:22:14.000Z</time>
      </trkpt>
      <trkpt lat="44.83135" lon="5.08054">
        <ele>775.16</ele>
        <time>2020-07-21T07:22:24.000Z</time>
      </trkpt>
      <trkpt lat="44.83135" lon="5.08038">
        <ele>775.71</ele>
        <time>2020-07-21T07:22:34.000Z</time>
      </trkpt>
      <trkpt lat="44.83138" lon="5.08022">
        <ele>773.65</ele>
        <time>2020-07-21T07:22:44.000Z</time>
      </trkpt>
      <trkpt lat="44.83143" lon="5.08007">
        <ele>770.02</ele>
        <time>2020-07-21T07:22:54.000Z</time>
      </trkpt>
      <trkpt lat="44.83148" lon="5.07995">
        <ele>767.07</ele>
        <time>2020-07-21T07:23:04.000Z</time>
      </trkpt>
      <trkpt lat="44.83149" lon="5.07981">
        <ele>767.76</ele>
        <time>2020-07-21T07:23:14.000Z</time>
      </trkpt>
      <trkpt lat="44.83153" lon="5.07968">
        <ele>765.88</ele>
        <time>2020-07-21T07:23:24.000Z</time>
      </trkpt>
      <trkpt lat="44.83156" lon="5.07955">
        <ele>765.11</ele>
        <time>2020-07-21T07:23:34.000Z</time>
      </trkpt>
      <trkpt lat="44.83161" lon="5.07944">
        <ele>763.17</ele>
        <time>2020-07-21T07:23:44.000Z</time>
      </trkpt>
      <trkpt lat="44.83164" lon="5.07933">
        <ele>762.61</ele>
        <time>2020-07-21T07:23:54.000Z</time>
      </trkpt>
      <trkpt lat="44.83171" lon="5.07926">
        <ele>759.96</ele>
        <time>2020-07-21T07:24:04.000Z</time>
      </trkpt>
      <trkpt lat="44.8318" lon="5.07918">
        <ele>756.67</ele>
        <time>2020-07-21T07:24:14.000Z</time>
      </trkpt>
      <trkpt lat="44.83186" lon="5.0791">
        <ele>755.45</ele>
        <time>2020-07-21T07:24:24.000Z</time>
      </trkpt>
      <trkpt lat="44.83193" lon="5.079">
        <ele>754.45</ele>
        <time>2020-07-21T07:24:34.000Z</time>
      </trkpt>
      <trkpt lat="44.83202" lon="5.07892">
        <ele>752.97</ele>
        <time>2020-07-21T07:24:44.000Z</time>
      </trkpt>
      <trkpt lat="44.83209" lon="5.07881">
        <ele>753.5</ele>
        <time>2020-07-21T07:24:54.000Z</time>
      </trkpt>
      <trkpt lat="44.83217" lon="5.07868">
        <ele>754.87</ele>
        <time>2020-07-21T07:25:04.000Z</time>
      </trkpt>
      <trkpt lat="44.83222" lon="5.07857">
        <ele>756.85</ele>
        <time>2020-07-21T07:25:14.000Z</time>
      </trkpt>
      <trkpt lat="44.83231" lon="5.07854">
        <ele>756.51</ele>
        <time>2020-07-21T07:25:24.000Z</time>
      </trkpt>
      <trkpt lat="44.83238" lon="5.0786">
        <ele>753.73</ele>
        <time>2020-07-21T07:25:34.000Z</time>
      </trkpt>
      <trkpt lat="44.83245" lon="5.07871">
        <ele>749.58</ele>
        <time>2020-07-21T07:25:44.000Z</time>
      </trkpt>
      <trkpt lat="44.8325" lon="5.07884">
        <ele>744.62</ele>
        <time>2020-07-21T07:25:54.000Z</time>
      </trkpt>
      <trkpt lat="44.83256" lon="5.07895">
        <ele>740.29</ele>
        <time>2020-07-21T07:26:04.000Z</time>
      </trkpt>
      <trkpt lat="44.83263" lon="5.0791">
        <ele>734.32</ele>
        <time>2020-07-21T07:26:14.000Z</time>
      </trkpt>
      <trkpt lat="44.83267" lon="5.07921">
        <ele>729.78</ele>
        <time>2020-07-21T07:26:24.000Z</time>
      </trkpt>
      <trkpt lat="44.83274" lon="5.07932">
        <ele>725.01</ele>
        <time>2020-07-21T07:26:34.000Z</time>
      </trkpt>
      <trkpt lat="44.83286" lon="5.07935">
        <ele>724.63</ele>
        <time>2020-07-21T07:26:44.000Z</time>
      </trkpt>
      <trkpt lat="44.83297" lon="5.07931">
        <ele>727.25</ele>
        <time>2020-07-21T07:26:54.000Z</time>
      </trkpt>
      <trkpt lat="44.83307" lon="5.07926">
        <ele>730.15</ele>
        <time>2020-07-21T07:27:04.000Z</time>
      </trkpt>
      <trkpt lat="44.83319" lon="5.07925">
        <ele>731.17</ele>
        <time>2020-07-21T07:27:14.000Z</time>
      </trkpt>
      <trkpt lat="44.83328" lon="5.07924">
        <ele>730.56</ele>
        <time>2020-07-21T07:27:24.000Z</time>
      </trkpt>
      <trkpt lat="44.83338" lon="5.0792">
        <ele>730.39</ele>
        <time>2020-07-21T07:27:34.000Z</time>
      </trkpt>
      <trkpt lat="44.83345" lon="5.07915">
        <ele>730.77</ele>
        <time>2020-07-21T07:27:44.000Z</time>
      </trkpt>
      <trkpt lat="44.83347" lon="5.07913">
        <ele>731.05</ele>
        <time>2020-07-21T07:28:03.000Z</time>
      </trkpt>
      <trkpt lat="44.83354" lon="5.07906">
        <ele>731.67</ele>
        <time>2020-07-21T07:28:13.000Z</time>
      </trkpt>
      <trkpt lat="44.83362" lon="5.07899">
        <ele>732.24</ele>
        <time>2020-07-21T07:28:23.000Z</time>
      </trkpt>
      <trkpt lat="44.83375" lon="5.07893">
        <ele>729.84</ele>
        <time>2020-07-21T07:28:33.000Z</time>
      </trkpt>
      <trkpt lat="44.83386" lon="5.07887">
        <ele>728.16</ele>
        <time>2020-07-21T07:28:43.000Z</time>
      </trkpt>
      <trkpt lat="44.83396" lon="5.07878">
        <ele>728.03</ele>
        <time>2020-07-21T07:28:53.000Z</time>
      </trkpt>
      <trkpt lat="44.83408" lon="5.07866">
        <ele>729.28</ele>
        <time>2020-07-21T07:29:03.000Z</time>
      </trkpt>
      <trkpt lat="44.83417" lon="5.07857">
        <ele>729.95</ele>
        <time>2020-07-21T07:29:13.000Z</time>
      </trkpt>
      <trkpt lat="44.83423" lon="5.07846">
        <ele>733.04</ele>
        <time>2020-07-21T07:29:23.000Z</time>
      </trkpt>
      <trkpt lat="44.83428" lon="5.07837">
        <ele>734.67</ele>
        <time>2020-07-21T07:29:33.000Z</time>
      </trkpt>
      <trkpt lat="44.83433" lon="5.07837">
        <ele>732.29</ele>
        <time>2020-07-21T07:29:43.000Z</time>
      </trkpt>
      <trkpt lat="44.83437" lon="5.07832">
        <ele>732.46</ele>
        <time>2020-07-21T07:29:53.000Z</time>
      </trkpt>
      <trkpt lat="44.83445" lon="5.07821">
        <ele>732.5</ele>
        <time>2020-07-21T07:30:03.000Z</time>
      </trkpt>
      <trkpt lat="44.83456" lon="5.07812">
        <ele>729.38</ele>
        <time>2020-07-21T07:30:13.000Z</time>
      </trkpt>
      <trkpt lat="44.83466" lon="5.07806">
        <ele>726.38</ele>
        <time>2020-07-21T07:30:23.000Z</time>
      </trkpt>
      <trkpt lat="44.83474" lon="5.07793">
        <ele>726.54</ele>
        <time>2020-07-21T07:30:33.000Z</time>
      </trkpt>
      <trkpt lat="44.83484" lon="5.07785">
        <ele>723.95</ele>
        <time>2020-07-21T07:30:43.000Z</time>
      </trkpt>
      <trkpt lat="44.83493" lon="5.0777">
        <ele>724.51</ele>
        <time>2020-07-21T07:30:53.000Z</time>
      </trkpt>
      <trkpt lat="44.83499" lon="5.0776">
        <ele>725.14</ele>
        <time>2020-07-21T07:31:03.000Z</time>
      </trkpt>
      <trkpt lat="44.83508" lon="5.07746">
        <ele>724.58</ele>
        <time>2020-07-21T07:31:13.000Z</time>
      </trkpt>
      <trkpt lat="44.83519" lon="5.07735">
        <ele>721.73</ele>
        <time>2020-07-21T07:31:23.000Z</time>
      </trkpt>
      <trkpt lat="44.83526" lon="5.07723">
        <ele>721.11</ele>
        <time>2020-07-21T07:31:33.000Z</time>
      </trkpt>
      <trkpt lat="44.83533" lon="5.07707">
        <ele>721.22</ele>
        <time>2020-07-21T07:31:43.000Z</time>
      </trkpt>
      <trkpt lat="44.83541" lon="5.07692">
        <ele>720.87</ele>
        <time>2020-07-21T07:31:53.000Z</time>
      </trkpt>
      <trkpt lat="44.83545" lon="5.0768">
        <ele>721.08</ele>
        <time>2020-07-21T07:32:03.000Z</time>
      </trkpt>
      <trkpt lat="44.83551" lon="5.07666">
        <ele>720.75</ele>
        <time>2020-07-21T07:32:13.000Z</time>
      </trkpt>
      <trkpt lat="44.83557" lon="5.07653">
        <ele>719.13</ele>
        <time>2020-07-21T07:32:23.000Z</time>
      </trkpt>
      <trkpt lat="44.83563" lon="5.07637">
        <ele>718.9</ele>
        <time>2020-07-21T07:32:33.000Z</time>
      </trkpt>
      <trkpt lat="44.83567" lon="5.07622">
        <ele>719.66</ele>
        <time>2020-07-21T07:32:43.000Z</time>
      </trkpt>
      <trkpt lat="44.83568" lon="5.07615">
        <ele>720.58</ele>
        <time>2020-07-21T07:32:53.000Z</time>
      </trkpt>
      <trkpt lat="44.8357" lon="5.07608">
        <ele>721.15</ele>
        <time>2020-07-21T07:33:03.000Z</time>
      </trkpt>
      <trkpt lat="44.83572" lon="5.076">
        <ele>721.45</ele>
        <time>2020-07-21T07:33:13.000Z</time>
      </trkpt>
      <trkpt lat="44.83576" lon="5.07587">
        <ele>721.9</ele>
        <time>2020-07-21T07:33:23.000Z</time>
      </trkpt>
      <trkpt lat="44.83579" lon="5.07574">
        <ele>722.81</ele>
        <time>2020-07-21T07:33:33.000Z</time>
      </trkpt>
      <trkpt lat="44.83586" lon="5.07561">
        <ele>721.75</ele>
        <time>2020-07-21T07:33:43.000Z</time>
      </trkpt>
      <trkpt lat="44.8359" lon="5.07548">
        <ele>721.86</ele>
        <time>2020-07-21T07:33:53.000Z</time>
      </trkpt>
      <trkpt lat="44.83595" lon="5.07537">
        <ele>721.65</ele>
        <time>2020-07-21T07:34:03.000Z</time>
      </trkpt>
      <trkpt lat="44.836" lon="5.0752">
        <ele>722.77</ele>
        <time>2020-07-21T07:34:13.000Z</time>
      </trkpt>
      <trkpt lat="44.83607" lon="5.07507">
        <ele>722.51</ele>
        <time>2020-07-21T07:34:23.000Z</time>
      </trkpt>
      <trkpt lat="44.83611" lon="5.07492">
        <ele>724.85</ele>
        <time>2020-07-21T07:34:33.000Z</time>
      </trkpt>
      <trkpt lat="44.83617" lon="5.07475">
        <ele>727.65</ele>
        <time>2020-07-21T07:34:43.000Z</time>
      </trkpt>
      <trkpt lat="44.83622" lon="5.07461">
        <ele>730.68</ele>
        <time>2020-07-21T07:34:53.000Z</time>
      </trkpt>
      <trkpt lat="44.83631" lon="5.07451">
        <ele>731.41</ele>
        <time>2020-07-21T07:35:03.000Z</time>
      </trkpt>
      <trkpt lat="44.83639" lon="5.07446">
        <ele>730.91</ele>
        <time>2020-07-21T07:35:13.000Z</time>
      </trkpt>
      <trkpt lat="44.83649" lon="5.07442">
        <ele>729.67</ele>
        <time>2020-07-21T07:35:23.000Z</time>
      </trkpt>
      <trkpt lat="44.83657" lon="5.07437">
        <ele>729.19</ele>
        <time>2020-07-21T07:35:33.000Z</time>
      </trkpt>
      <trkpt lat="44.83666" lon="5.07438">
        <ele>727.06</ele>
        <time>2020-07-21T07:35:43.000Z</time>
      </trkpt>
      <trkpt lat="44.83676" lon="5.07437">
        <ele>725.2</ele>
        <time>2020-07-21T07:35:53.000Z</time>
      </trkpt>
      <trkpt lat="44.83686" lon="5.07433">
        <ele>723.99</ele>
        <time>2020-07-21T07:36:03.000Z</time>
      </trkpt>
      <trkpt lat="44.83695" lon="5.07434">
        <ele>722.37</ele>
        <time>2020-07-21T07:36:13.000Z</time>
      </trkpt>
      <trkpt lat="44.83705" lon="5.07427">
        <ele>722.08</ele>
        <time>2020-07-21T07:36:23.000Z</time>
      </trkpt>
      <trkpt lat="44.83717" lon="5.07419">
        <ele>721.11</ele>
        <time>2020-07-21T07:36:33.000Z</time>
      </trkpt>
      <trkpt lat="44.83726" lon="5.07409">
        <ele>720.33</ele>
        <time>2020-07-21T07:36:43.000Z</time>
      </trkpt>
      <trkpt lat="44.83734" lon="5.07399">
        <ele>719.27</ele>
        <time>2020-07-21T07:36:53.000Z</time>
      </trkpt>
      <trkpt lat="44.83744" lon="5.07389">
        <ele>718.16</ele>
        <time>2020-07-21T07:37:03.000Z</time>
      </trkpt>
      <trkpt lat="44.83754" lon="5.07381">
        <ele>717.18</ele>
        <time>2020-07-21T07:37:13.000Z</time>
      </trkpt>
      <trkpt lat="44.83755" lon="5.07379">
        <ele>716.98</ele>
        <time>2020-07-21T07:37:23.000Z</time>
      </trkpt>
      <trkpt lat="44.83756" lon="5.07377">
        <ele>716.89</ele>
        <time>2020-07-21T07:37:40.000Z</time>
      </trkpt>
      <trkpt lat="44.83764" lon="5.07375">
        <ele>716.56</ele>
        <time>2020-07-21T07:37:50.000Z</time>
      </trkpt>
      <trkpt lat="44.83773" lon="5.07371">
        <ele>716.36</ele>
        <time>2020-07-21T07:38:00.000Z</time>
      </trkpt>
      <trkpt lat="44.83786" lon="5.07366">
        <ele>716.39</ele>
        <time>2020-07-21T07:38:10.000Z</time>
      </trkpt>
      <trkpt lat="44.83799" lon="5.07362">
        <ele>716.63</ele>
        <time>2020-07-21T07:38:20.000Z</time>
      </trkpt>
      <trkpt lat="44.83811" lon="5.07361">
        <ele>716.84</ele>
        <time>2020-07-21T07:38:30.000Z</time>
      </trkpt>
      <trkpt lat="44.83821" lon="5.07359">
        <ele>716.8</ele>
        <time>2020-07-21T07:38:40.000Z</time>
      </trkpt>
      <trkpt lat="44.8383" lon="5.07359">
        <ele>716.53</ele>
        <time>2020-07-21T07:38:50.000Z</time>
      </trkpt>
      <trkpt lat="44.83844" lon="5.07361">
        <ele>715.68</ele>
        <time>2020-07-21T07:39:00.000Z</time>
      </trkpt>
      <trkpt lat="44.83857" lon="5.07362">
        <ele>714.73</ele>
        <time>2020-07-21T07:39:10.000Z</time>
      </trkpt>
      <trkpt lat="44.83865" lon="5.07367">
        <ele>714.12</ele>
        <time>2020-07-21T07:39:20.000Z</time>
      </trkpt>
      <trkpt lat="44.83878" lon="5.07378">
        <ele>712.94</ele>
        <time>2020-07-21T07:39:30.000Z</time>
      </trkpt>
      <trkpt lat="44.8389" lon="5.07385">
        <ele>711.84</ele>
        <time>2020-07-21T07:39:40.000Z</time>
      </trkpt>
      <trkpt lat="44.83902" lon="5.07392">
        <ele>710.6</ele>
        <time>2020-07-21T07:39:50.000Z</time>
      </trkpt>
      <trkpt lat="44.83913" lon="5.07399">
        <ele>709.23</ele>
        <time>2020-07-21T07:40:00.000Z</time>
      </trkpt>
      <trkpt lat="44.83912" lon="5.07401">
        <ele>709.28</ele>
        <time>2020-07-21T07:40:10.000Z</time>
      </trkpt>
      <trkpt lat="44.83914" lon="5.07402">
        <ele>709.08</ele>
        <time>2020-07-21T07:40:28.000Z</time>
      </trkpt>
      <trkpt lat="44.83921" lon="5.07411">
        <ele>707.73</ele>
        <time>2020-07-21T07:40:38.000Z</time>
      </trkpt>
      <trkpt lat="44.83926" lon="5.07416">
        <ele>706.65</ele>
        <time>2020-07-21T07:40:48.000Z</time>
      </trkpt>
      <trkpt lat="44.83937" lon="5.07426">
        <ele>703.95</ele>
        <time>2020-07-21T07:40:58.000Z</time>
      </trkpt>
      <trkpt lat="44.83945" lon="5.07434">
        <ele>701.87</ele>
        <time>2020-07-21T07:41:08.000Z</time>
      </trkpt>
      <trkpt lat="44.83942" lon="5.07432">
        <ele>702.57</ele>
        <time>2020-07-21T07:41:18.000Z</time>
      </trkpt>
      <trkpt lat="44.83934" lon="5.07425">
        <ele>704.57</ele>
        <time>2020-07-21T07:41:28.000Z</time>
      </trkpt>
      <trkpt lat="44.83927" lon="5.07417">
        <ele>706.45</ele>
        <time>2020-07-21T07:41:38.000Z</time>
      </trkpt>
      <trkpt lat="44.83921" lon="5.0741">
        <ele>707.82</ele>
        <time>2020-07-21T07:41:48.000Z</time>
      </trkpt>
      <trkpt lat="44.83914" lon="5.07401">
        <ele>709.06</ele>
        <time>2020-07-21T07:41:58.000Z</time>
      </trkpt>
      <trkpt lat="44.83906" lon="5.07397">
        <ele>710.18</ele>
        <time>2020-07-21T07:42:08.000Z</time>
      </trkpt>
      <trkpt lat="44.83897" lon="5.07389">
        <ele>711.1</ele>
        <time>2020-07-21T07:42:18.000Z</time>
      </trkpt>
      <trkpt lat="44.8389" lon="5.07384">
        <ele>711.79</ele>
        <time>2020-07-21T07:42:28.000Z</time>
      </trkpt>
      <trkpt lat="44.83881" lon="5.07376">
        <ele>712.65</ele>
        <time>2020-07-21T07:42:38.000Z</time>
      </trkpt>
      <trkpt lat="44.83873" lon="5.07368">
        <ele>713.39</ele>
        <time>2020-07-21T07:42:48.000Z</time>
      </trkpt>
      <trkpt lat="44.83866" lon="5.07362">
        <ele>713.88</ele>
        <time>2020-07-21T07:42:58.000Z</time>
      </trkpt>
      <trkpt lat="44.83857" lon="5.0736">
        <ele>714.7</ele>
        <time>2020-07-21T07:43:08.000Z</time>
      </trkpt>
      <trkpt lat="44.83847" lon="5.07359">
        <ele>715.47</ele>
        <time>2020-07-21T07:43:18.000Z</time>
      </trkpt>
      <trkpt lat="44.83838" lon="5.0736">
        <ele>716.08</ele>
        <time>2020-07-21T07:43:28.000Z</time>
      </trkpt>
      <trkpt lat="44.83827" lon="5.07359">
        <ele>716.66</ele>
        <time>2020-07-21T07:43:38.000Z</time>
      </trkpt>
      <trkpt lat="44.83816" lon="5.07359">
        <ele>716.83</ele>
        <time>2020-07-21T07:43:48.000Z</time>
      </trkpt>
      <trkpt lat="44.83807" lon="5.07359">
        <ele>716.71</ele>
        <time>2020-07-21T07:43:58.000Z</time>
      </trkpt>
      <trkpt lat="44.83798" lon="5.07359">
        <ele>716.48</ele>
        <time>2020-07-21T07:44:08.000Z</time>
      </trkpt>
      <trkpt lat="44.83786" lon="5.07363">
        <ele>716.26</ele>
        <time>2020-07-21T07:44:18.000Z</time>
      </trkpt>
      <trkpt lat="44.83776" lon="5.07366">
        <ele>716.13</ele>
        <time>2020-07-21T07:44:28.000Z</time>
      </trkpt>
      <trkpt lat="44.83766" lon="5.07369">
        <ele>716.2</ele>
        <time>2020-07-21T07:44:38.000Z</time>
      </trkpt>
      <trkpt lat="44.83759" lon="5.07374">
        <ele>716.6</ele>
        <time>2020-07-21T07:44:48.000Z</time>
      </trkpt>
      <trkpt lat="44.83756" lon="5.07376">
        <ele>716.8</ele>
        <time>2020-07-21T07:44:58.000Z</time>
      </trkpt>
      <trkpt lat="44.83757" lon="5.07377">
        <ele>716.84</ele>
        <time>2020-07-21T07:45:15.000Z</time>
      </trkpt>
      <trkpt lat="44.83756" lon="5.0738">
        <ele>717.01</ele>
        <time>2020-07-21T07:45:25.000Z</time>
      </trkpt>
      <trkpt lat="44.83754" lon="5.07378">
        <ele>717.02</ele>
        <time>2020-07-21T07:45:35.000Z</time>
      </trkpt>
      <trkpt lat="44.83757" lon="5.07375">
        <ele>716.72</ele>
        <time>2020-07-21T07:45:45.000Z</time>
      </trkpt>
      <trkpt lat="44.83758" lon="5.07368">
        <ele>716.12</ele>
        <time>2020-07-21T07:45:55.000Z</time>
      </trkpt>
      <trkpt lat="44.83761" lon="5.0736">
        <ele>715.31</ele>
        <time>2020-07-21T07:46:05.000Z</time>
      </trkpt>
      <trkpt lat="44.83767" lon="5.07352">
        <ele>714.44</ele>
        <time>2020-07-21T07:46:15.000Z</time>
      </trkpt>
      <trkpt lat="44.83775" lon="5.07346">
        <ele>713.92</ele>
        <time>2020-07-21T07:46:25.000Z</time>
      </trkpt>
      <trkpt lat="44.83783" lon="5.07337">
        <ele>712.95</ele>
        <time>2020-07-21T07:46:35.000Z</time>
      </trkpt>
      <trkpt lat="44.83792" lon="5.07331">
        <ele>712.3</ele>
        <time>2020-07-21T07:46:45.000Z</time>
      </trkpt>
      <trkpt lat="44.83799" lon="5.07327">
        <ele>711.83</ele>
        <time>2020-07-21T07:46:55.000Z</time>
      </trkpt>
      <trkpt lat="44.83807" lon="5.07322">
        <ele>710.85</ele>
        <time>2020-07-21T07:47:05.000Z</time>
      </trkpt>
      <trkpt lat="44.8381" lon="5.07319">
        <ele>710.06</ele>
        <time>2020-07-21T07:47:15.000Z</time>
      </trkpt>
      <trkpt lat="44.83812" lon="5.07318">
        <ele>709.6</ele>
        <time>2020-07-21T07:47:25.000Z</time>
      </trkpt>
      <trkpt lat="44.83813" lon="5.07316">
        <ele>709.07</ele>
        <time>2020-07-21T07:47:37.000Z</time>
      </trkpt>
      <trkpt lat="44.83819" lon="5.07315">
        <ele>708.94</ele>
        <time>2020-07-21T07:47:47.000Z</time>
      </trkpt>
      <trkpt lat="44.83823" lon="5.07312">
        <ele>707.83</ele>
        <time>2020-07-21T07:47:57.000Z</time>
      </trkpt>
      <trkpt lat="44.8383" lon="5.07308">
        <ele>705.94</ele>
        <time>2020-07-21T07:48:07.000Z</time>
      </trkpt>
      <trkpt lat="44.83838" lon="5.07304">
        <ele>704.16</ele>
        <time>2020-07-21T07:48:17.000Z</time>
      </trkpt>
      <trkpt lat="44.83848" lon="5.073">
        <ele>702.63</ele>
        <time>2020-07-21T07:48:27.000Z</time>
      </trkpt>
      <trkpt lat="44.83856" lon="5.07296">
        <ele>700.91</ele>
        <time>2020-07-21T07:48:37.000Z</time>
      </trkpt>
      <trkpt lat="44.83865" lon="5.07292">
        <ele>699.28</ele>
        <time>2020-07-21T07:48:47.000Z</time>
      </trkpt>
      <trkpt lat="44.83873" lon="5.07289">
        <ele>697.93</ele>
        <time>2020-07-21T07:48:57.000Z</time>
      </trkpt>
      <trkpt lat="44.8388" lon="5.07285">
        <ele>696.61</ele>
        <time>2020-07-21T07:49:07.000Z</time>
      </trkpt>
      <trkpt lat="44.83886" lon="5.07279">
        <ele>694.78</ele>
        <time>2020-07-21T07:49:17.000Z</time>
      </trkpt>
      <trkpt lat="44.83891" lon="5.07272">
        <ele>692.55</ele>
        <time>2020-07-21T07:49:27.000Z</time>
      </trkpt>
      <trkpt lat="44.83897" lon="5.07266">
        <ele>690.65</ele>
        <time>2020-07-21T07:49:37.000Z</time>
      </trkpt>
      <trkpt lat="44.83904" lon="5.07262">
        <ele>689.15</ele>
        <time>2020-07-21T07:49:47.000Z</time>
      </trkpt>
      <trkpt lat="44.8391" lon="5.07255">
        <ele>686.99</ele>
        <time>2020-07-21T07:49:57.000Z</time>
      </trkpt>
      <trkpt lat="44.83919" lon="5.07249">
        <ele>684.43</ele>
        <time>2020-07-21T07:50:07.000Z</time>
      </trkpt>
      <trkpt lat="44.83921" lon="5.07242">
        <ele>682</ele>
        <time>2020-07-21T07:50:17.000Z</time>
      </trkpt>
      <trkpt lat="44.83927" lon="5.07241">
        <ele>680.96</ele>
        <time>2020-07-21T07:50:27.000Z</time>
      </trkpt>
      <trkpt lat="44.83934" lon="5.07234">
        <ele>677.83</ele>
        <time>2020-07-21T07:50:37.000Z</time>
      </trkpt>
      <trkpt lat="44.83941" lon="5.0723">
        <ele>675.89</ele>
        <time>2020-07-21T07:50:47.000Z</time>
      </trkpt>
      <trkpt lat="44.83946" lon="5.07223">
        <ele>672.94</ele>
        <time>2020-07-21T07:50:57.000Z</time>
      </trkpt>
      <trkpt lat="44.83951" lon="5.07217">
        <ele>670.7</ele>
        <time>2020-07-21T07:51:07.000Z</time>
      </trkpt>
      <trkpt lat="44.83957" lon="5.07208">
        <ele>668.01</ele>
        <time>2020-07-21T07:51:17.000Z</time>
      </trkpt>
      <trkpt lat="44.83963" lon="5.07202">
        <ele>666.37</ele>
        <time>2020-07-21T07:51:27.000Z</time>
      </trkpt>
      <trkpt lat="44.83969" lon="5.07198">
        <ele>665.7</ele>
        <time>2020-07-21T07:51:37.000Z</time>
      </trkpt>
      <trkpt lat="44.83973" lon="5.07193">
        <ele>664.7</ele>
        <time>2020-07-21T07:51:47.000Z</time>
      </trkpt>
      <trkpt lat="44.83979" lon="5.07185">
        <ele>663.24</ele>
        <time>2020-07-21T07:51:57.000Z</time>
      </trkpt>
      <trkpt lat="44.83985" lon="5.07179">
        <ele>662.28</ele>
        <time>2020-07-21T07:52:07.000Z</time>
      </trkpt>
      <trkpt lat="44.83989" lon="5.07171">
        <ele>660.86</ele>
        <time>2020-07-21T07:52:17.000Z</time>
      </trkpt>
      <trkpt lat="44.83992" lon="5.07167">
        <ele>659.86</ele>
        <time>2020-07-21T07:52:27.000Z</time>
      </trkpt>
      <trkpt lat="44.83996" lon="5.07159">
        <ele>657.97</ele>
        <time>2020-07-21T07:52:37.000Z</time>
      </trkpt>
      <trkpt lat="44.83999" lon="5.07151">
        <ele>656.04</ele>
        <time>2020-07-21T07:52:47.000Z</time>
      </trkpt>
      <trkpt lat="44.84005" lon="5.07145">
        <ele>653.93</ele>
        <time>2020-07-21T07:52:57.000Z</time>
      </trkpt>
      <trkpt lat="44.84012" lon="5.07137">
        <ele>650.8</ele>
        <time>2020-07-21T07:53:07.000Z</time>
      </trkpt>
      <trkpt lat="44.84021" lon="5.07129">
        <ele>647.37</ele>
        <time>2020-07-21T07:53:17.000Z</time>
      </trkpt>
      <trkpt lat="44.84029" lon="5.07121">
        <ele>644.59</ele>
        <time>2020-07-21T07:53:27.000Z</time>
      </trkpt>
      <trkpt lat="44.84034" lon="5.0711">
        <ele>642.46</ele>
        <time>2020-07-21T07:53:37.000Z</time>
      </trkpt>
      <trkpt lat="44.8404" lon="5.07097">
        <ele>640.86</ele>
        <time>2020-07-21T07:53:47.000Z</time>
      </trkpt>
      <trkpt lat="44.84046" lon="5.07086">
        <ele>640.11</ele>
        <time>2020-07-21T07:53:57.000Z</time>
      </trkpt>
      <trkpt lat="44.84049" lon="5.07084">
        <ele>639.99</ele>
        <time>2020-07-21T07:54:07.000Z</time>
      </trkpt>
      <trkpt lat="44.8405" lon="5.07081">
        <ele>639.88</ele>
        <time>2020-07-21T07:54:17.000Z</time>
      </trkpt>
      <trkpt lat="44.84052" lon="5.07079">
        <ele>639.85</ele>
        <time>2020-07-21T07:54:27.000Z</time>
      </trkpt>
      <trkpt lat="44.84055" lon="5.07076">
        <ele>639.83</ele>
        <time>2020-07-21T07:54:37.000Z</time>
      </trkpt>
      <trkpt lat="44.84049" lon="5.07082">
        <ele>639.91</ele>
        <time>2020-07-21T07:54:47.000Z</time>
      </trkpt>
      <trkpt lat="44.84039" lon="5.07087">
        <ele>640.21</ele>
        <time>2020-07-21T07:54:57.000Z</time>
      </trkpt>
      <trkpt lat="44.84029" lon="5.07092">
        <ele>640.71</ele>
        <time>2020-07-21T07:55:07.000Z</time>
      </trkpt>
      <trkpt lat="44.8402" lon="5.07094">
        <ele>641.1</ele>
        <time>2020-07-21T07:55:17.000Z</time>
      </trkpt>
      <trkpt lat="44.84011" lon="5.07098">
        <ele>641.91</ele>
        <time>2020-07-21T07:55:27.000Z</time>
      </trkpt>
      <trkpt lat="44.84003" lon="5.07103">
        <ele>643.05</ele>
        <time>2020-07-21T07:55:37.000Z</time>
      </trkpt>
      <trkpt lat="44.83992" lon="5.07108">
        <ele>644.37</ele>
        <time>2020-07-21T07:55:47.000Z</time>
      </trkpt>
      <trkpt lat="44.8398" lon="5.07111">
        <ele>644.11</ele>
        <time>2020-07-21T07:55:57.000Z</time>
      </trkpt>
      <trkpt lat="44.83977" lon="5.07113">
        <ele>644.5</ele>
        <time>2020-07-21T07:56:07.000Z</time>
      </trkpt>
      <trkpt lat="44.83977" lon="5.07115">
        <ele>644.89</ele>
        <time>2020-07-21T07:56:17.000Z</time>
      </trkpt>
      <trkpt lat="44.83972" lon="5.07114">
        <ele>644.03</ele>
        <time>2020-07-21T07:56:27.000Z</time>
      </trkpt>
      <trkpt lat="44.83967" lon="5.07113">
        <ele>642.82</ele>
        <time>2020-07-21T07:56:37.000Z</time>
      </trkpt>
      <trkpt lat="44.83958" lon="5.07117">
        <ele>642.28</ele>
        <time>2020-07-21T07:56:47.000Z</time>
      </trkpt>
      <trkpt lat="44.83945" lon="5.07116">
        <ele>639.66</ele>
        <time>2020-07-21T07:56:57.000Z</time>
      </trkpt>
      <trkpt lat="44.83932" lon="5.07118">
        <ele>637.88</ele>
        <time>2020-07-21T07:57:07.000Z</time>
      </trkpt>
      <trkpt lat="44.83922" lon="5.07119">
        <ele>636.7</ele>
        <time>2020-07-21T07:57:17.000Z</time>
      </trkpt>
      <trkpt lat="44.83909" lon="5.07121">
        <ele>636.27</ele>
        <time>2020-07-21T07:57:27.000Z</time>
      </trkpt>
      <trkpt lat="44.83898" lon="5.07119">
        <ele>635.23</ele>
        <time>2020-07-21T07:57:37.000Z</time>
      </trkpt>
      <trkpt lat="44.83887" lon="5.07117">
        <ele>634.48</ele>
        <time>2020-07-21T07:57:47.000Z</time>
      </trkpt>
      <trkpt lat="44.83876" lon="5.07116">
        <ele>633.99</ele>
        <time>2020-07-21T07:57:57.000Z</time>
      </trkpt>
      <trkpt lat="44.83865" lon="5.07114">
        <ele>633.26</ele>
        <time>2020-07-21T07:58:07.000Z</time>
      </trkpt>
      <trkpt lat="44.83854" lon="5.07109">
        <ele>631.95</ele>
        <time>2020-07-21T07:58:17.000Z</time>
      </trkpt>
      <trkpt lat="44.83841" lon="5.07105">
        <ele>630.59</ele>
        <time>2020-07-21T07:58:27.000Z</time>
      </trkpt>
      <trkpt lat="44.83831" lon="5.07101">
        <ele>628.85</ele>
        <time>2020-07-21T07:58:37.000Z</time>
      </trkpt>
      <trkpt lat="44.8382" lon="5.07101">
        <ele>628.25</ele>
        <time>2020-07-21T07:58:47.000Z</time>
      </trkpt>
      <trkpt lat="44.83807" lon="5.07099">
        <ele>626.77</ele>
        <time>2020-07-21T07:58:57.000Z</time>
      </trkpt>
      <trkpt lat="44.83797" lon="5.071">
        <ele>626.33</ele>
        <time>2020-07-21T07:59:07.000Z</time>
      </trkpt>
      <trkpt lat="44.83785" lon="5.07102">
        <ele>625.89</ele>
        <time>2020-07-21T07:59:17.000Z</time>
      </trkpt>
      <trkpt lat="44.83772" lon="5.07106">
        <ele>626.61</ele>
        <time>2020-07-21T07:59:27.000Z</time>
      </trkpt>
      <trkpt lat="44.83763" lon="5.07114">
        <ele>628.74</ele>
        <time>2020-07-21T07:59:37.000Z</time>
      </trkpt>
      <trkpt lat="44.8375" lon="5.07118">
        <ele>630.3</ele>
        <time>2020-07-21T07:59:47.000Z</time>
      </trkpt>
      <trkpt lat="44.83742" lon="5.07122">
        <ele>632.04</ele>
        <time>2020-07-21T07:59:57.000Z</time>
      </trkpt>
      <trkpt lat="44.83733" lon="5.07128">
        <ele>634.26</ele>
        <time>2020-07-21T08:00:07.000Z</time>
      </trkpt>
      <trkpt lat="44.83723" lon="5.07129">
        <ele>634.95</ele>
        <time>2020-07-21T08:00:17.000Z</time>
      </trkpt>
      <trkpt lat="44.83716" lon="5.07121">
        <ele>633.86</ele>
        <time>2020-07-21T08:00:27.000Z</time>
      </trkpt>
      <trkpt lat="44.83704" lon="5.071">
        <ele>631.08</ele>
        <time>2020-07-21T08:00:37.000Z</time>
      </trkpt>
      <trkpt lat="44.837" lon="5.07086">
        <ele>628.78</ele>
        <time>2020-07-21T08:00:47.000Z</time>
      </trkpt>
      <trkpt lat="44.83702" lon="5.07073">
        <ele>624.97</ele>
        <time>2020-07-21T08:00:57.000Z</time>
      </trkpt>
      <trkpt lat="44.83698" lon="5.07058">
        <ele>621.74</ele>
        <time>2020-07-21T08:01:07.000Z</time>
      </trkpt>
      <trkpt lat="44.83694" lon="5.07045">
        <ele>618.85</ele>
        <time>2020-07-21T08:01:17.000Z</time>
      </trkpt>
      <trkpt lat="44.83687" lon="5.07028">
        <ele>615.52</ele>
        <time>2020-07-21T08:01:27.000Z</time>
      </trkpt>
      <trkpt lat="44.83681" lon="5.07016">
        <ele>613.31</ele>
        <time>2020-07-21T08:01:37.000Z</time>
      </trkpt>
      <trkpt lat="44.83674" lon="5.07003">
        <ele>611.81</ele>
        <time>2020-07-21T08:01:47.000Z</time>
      </trkpt>
      <trkpt lat="44.83668" lon="5.06993">
        <ele>610.89</ele>
        <time>2020-07-21T08:01:57.000Z</time>
      </trkpt>
      <trkpt lat="44.8366" lon="5.06983">
        <ele>610.69</ele>
        <time>2020-07-21T08:02:07.000Z</time>
      </trkpt>
      <trkpt lat="44.83654" lon="5.06975">
        <ele>611.15</ele>
        <time>2020-07-21T08:02:17.000Z</time>
      </trkpt>
      <trkpt lat="44.83648" lon="5.06966">
        <ele>611.5</ele>
        <time>2020-07-21T08:02:27.000Z</time>
      </trkpt>
      <trkpt lat="44.83642" lon="5.06957">
        <ele>611.98</ele>
        <time>2020-07-21T08:02:37.000Z</time>
      </trkpt>
      <trkpt lat="44.83639" lon="5.06945">
        <ele>611.02</ele>
        <time>2020-07-21T08:02:47.000Z</time>
      </trkpt>
      <trkpt lat="44.83634" lon="5.06927">
        <ele>609.93</ele>
        <time>2020-07-21T08:02:57.000Z</time>
      </trkpt>
      <trkpt lat="44.83633" lon="5.06911">
        <ele>608</ele>
        <time>2020-07-21T08:03:07.000Z</time>
      </trkpt>
      <trkpt lat="44.83634" lon="5.06895">
        <ele>605.53</ele>
        <time>2020-07-21T08:03:17.000Z</time>
      </trkpt>
      <trkpt lat="44.83631" lon="5.06879">
        <ele>604.57</ele>
        <time>2020-07-21T08:03:27.000Z</time>
      </trkpt>
      <trkpt lat="44.8363" lon="5.06864">
        <ele>603.19</ele>
        <time>2020-07-21T08:03:37.000Z</time>
      </trkpt>
      <trkpt lat="44.83627" lon="5.06847">
        <ele>602.14</ele>
        <time>2020-07-21T08:03:47.000Z</time>
      </trkpt>
      <trkpt lat="44.83621" lon="5.06832">
        <ele>601.38</ele>
        <time>2020-07-21T08:03:57.000Z</time>
      </trkpt>
      <trkpt lat="44.83615" lon="5.06824">
        <ele>601.33</ele>
        <time>2020-07-21T08:04:07.000Z</time>
      </trkpt>
      <trkpt lat="44.83607" lon="5.06823">
        <ele>602.72</ele>
        <time>2020-07-21T08:04:17.000Z</time>
      </trkpt>
      <trkpt lat="44.83601" lon="5.06826">
        <ele>604.57</ele>
        <time>2020-07-21T08:04:27.000Z</time>
      </trkpt>
      <trkpt lat="44.836" lon="5.06827">
        <ele>604.85</ele>
        <time>2020-07-21T08:04:54.000Z</time>
      </trkpt>
      <trkpt lat="44.83591" lon="5.06824">
        <ele>605.46</ele>
        <time>2020-07-21T08:05:04.000Z</time>
      </trkpt>
      <trkpt lat="44.83583" lon="5.06826">
        <ele>606.68</ele>
        <time>2020-07-21T08:05:14.000Z</time>
      </trkpt>
      <trkpt lat="44.83574" lon="5.06827">
        <ele>607.19</ele>
        <time>2020-07-21T08:05:24.000Z</time>
      </trkpt>
      <trkpt lat="44.83563" lon="5.06828">
        <ele>606.82</ele>
        <time>2020-07-21T08:05:34.000Z</time>
      </trkpt>
      <trkpt lat="44.83553" lon="5.06829">
        <ele>605.94</ele>
        <time>2020-07-21T08:05:44.000Z</time>
      </trkpt>
      <trkpt lat="44.83544" lon="5.0683">
        <ele>604.53</ele>
        <time>2020-07-21T08:05:54.000Z</time>
      </trkpt>
      <trkpt lat="44.83533" lon="5.06833">
        <ele>603.8</ele>
        <time>2020-07-21T08:06:04.000Z</time>
      </trkpt>
      <trkpt lat="44.83524" lon="5.06836">
        <ele>603.19</ele>
        <time>2020-07-21T08:06:14.000Z</time>
      </trkpt>
      <trkpt lat="44.83515" lon="5.06835">
        <ele>601.69</ele>
        <time>2020-07-21T08:06:24.000Z</time>
      </trkpt>
      <trkpt lat="44.83505" lon="5.06829">
        <ele>599.75</ele>
        <time>2020-07-21T08:06:34.000Z</time>
      </trkpt>
      <trkpt lat="44.83493" lon="5.06822">
        <ele>598.28</ele>
        <time>2020-07-21T08:06:44.000Z</time>
      </trkpt>
      <trkpt lat="44.83482" lon="5.0681">
        <ele>596.46</ele>
        <time>2020-07-21T08:06:54.000Z</time>
      </trkpt>
      <trkpt lat="44.83471" lon="5.06795">
        <ele>594.69</ele>
        <time>2020-07-21T08:07:04.000Z</time>
      </trkpt>
      <trkpt lat="44.8346" lon="5.06784">
        <ele>594.01</ele>
        <time>2020-07-21T08:07:14.000Z</time>
      </trkpt>
      <trkpt lat="44.83448" lon="5.06775">
        <ele>594.36</ele>
        <time>2020-07-21T08:07:24.000Z</time>
      </trkpt>
      <trkpt lat="44.83437" lon="5.06773">
        <ele>595.78</ele>
        <time>2020-07-21T08:07:34.000Z</time>
      </trkpt>
      <trkpt lat="44.83426" lon="5.06771">
        <ele>597.52</ele>
        <time>2020-07-21T08:07:44.000Z</time>
      </trkpt>
      <trkpt lat="44.83415" lon="5.06765">
        <ele>597.79</ele>
        <time>2020-07-21T08:07:54.000Z</time>
      </trkpt>
      <trkpt lat="44.83405" lon="5.06757">
        <ele>597.55</ele>
        <time>2020-07-21T08:08:04.000Z</time>
      </trkpt>
      <trkpt lat="44.83396" lon="5.06749">
        <ele>597.56</ele>
        <time>2020-07-21T08:08:14.000Z</time>
      </trkpt>
      <trkpt lat="44.83389" lon="5.06743">
        <ele>597.58</ele>
        <time>2020-07-21T08:08:24.000Z</time>
      </trkpt>
      <trkpt lat="44.83384" lon="5.06733">
        <ele>596.19</ele>
        <time>2020-07-21T08:08:34.000Z</time>
      </trkpt>
      <trkpt lat="44.83378" lon="5.0672">
        <ele>594.55</ele>
        <time>2020-07-21T08:08:44.000Z</time>
      </trkpt>
      <trkpt lat="44.83373" lon="5.06706">
        <ele>592.3</ele>
        <time>2020-07-21T08:08:54.000Z</time>
      </trkpt>
      <trkpt lat="44.83368" lon="5.06692">
        <ele>590.46</ele>
        <time>2020-07-21T08:09:04.000Z</time>
      </trkpt>
      <trkpt lat="44.83364" lon="5.06678">
        <ele>588.89</ele>
        <time>2020-07-21T08:09:14.000Z</time>
      </trkpt>
      <trkpt lat="44.83359" lon="5.06664">
        <ele>587.34</ele>
        <time>2020-07-21T08:09:24.000Z</time>
      </trkpt>
      <trkpt lat="44.83352" lon="5.06652">
        <ele>586.87</ele>
        <time>2020-07-21T08:09:34.000Z</time>
      </trkpt>
      <trkpt lat="44.83344" lon="5.06642">
        <ele>587.07</ele>
        <time>2020-07-21T08:09:44.000Z</time>
      </trkpt>
      <trkpt lat="44.83338" lon="5.06628">
        <ele>584.85</ele>
        <time>2020-07-21T08:09:54.000Z</time>
      </trkpt>
      <trkpt lat="44.83332" lon="5.06619">
        <ele>583.27</ele>
        <time>2020-07-21T08:10:04.000Z</time>
      </trkpt>
      <trkpt lat="44.83324" lon="5.06614">
        <ele>582.2</ele>
        <time>2020-07-21T08:10:14.000Z</time>
      </trkpt>
      <trkpt lat="44.83317" lon="5.06614">
        <ele>581.6</ele>
        <time>2020-07-21T08:10:24.000Z</time>
      </trkpt>
      <trkpt lat="44.83308" lon="5.06611">
        <ele>579.53</ele>
        <time>2020-07-21T08:10:34.000Z</time>
      </trkpt>
      <trkpt lat="44.833" lon="5.06615">
        <ele>579.01</ele>
        <time>2020-07-21T08:10:44.000Z</time>
      </trkpt>
      <trkpt lat="44.83293" lon="5.06621">
        <ele>578.67</ele>
        <time>2020-07-21T08:10:54.000Z</time>
      </trkpt>
      <trkpt lat="44.83283" lon="5.0663">
        <ele>578.56</ele>
        <time>2020-07-21T08:11:04.000Z</time>
      </trkpt>
      <trkpt lat="44.83271" lon="5.06629">
        <ele>575.35</ele>
        <time>2020-07-21T08:11:14.000Z</time>
      </trkpt>
      <trkpt lat="44.83261" lon="5.06619">
        <ele>570.82</ele>
        <time>2020-07-21T08:11:24.000Z</time>
      </trkpt>
      <trkpt lat="44.83253" lon="5.06608">
        <ele>567.18</ele>
        <time>2020-07-21T08:11:34.000Z</time>
      </trkpt>
      <trkpt lat="44.83243" lon="5.066">
        <ele>564.78</ele>
        <time>2020-07-21T08:11:44.000Z</time>
      </trkpt>
      <trkpt lat="44.83234" lon="5.06591">
        <ele>562.73</ele>
        <time>2020-07-21T08:11:54.000Z</time>
      </trkpt>
      <trkpt lat="44.83228" lon="5.06579">
        <ele>560.5</ele>
        <time>2020-07-21T08:12:04.000Z</time>
      </trkpt>
      <trkpt lat="44.83219" lon="5.0657">
        <ele>559.23</ele>
        <time>2020-07-21T08:12:14.000Z</time>
      </trkpt>
      <trkpt lat="44.8321" lon="5.06562">
        <ele>558.56</ele>
        <time>2020-07-21T08:12:24.000Z</time>
      </trkpt>
      <trkpt lat="44.83202" lon="5.06555">
        <ele>557.74</ele>
        <time>2020-07-21T08:12:34.000Z</time>
      </trkpt>
      <trkpt lat="44.83201" lon="5.06554">
        <ele>557.88</ele>
        <time>2020-07-21T08:12:44.000Z</time>
      </trkpt>
      <trkpt lat="44.832" lon="5.06553">
        <ele>557.79</ele>
        <time>2020-07-21T08:13:23.000Z</time>
      </trkpt>
      <trkpt lat="44.83198" lon="5.06554">
        <ele>558.08</ele>
        <time>2020-07-21T08:19:15.000Z</time>
      </trkpt>
      <trkpt lat="44.832" lon="5.06555">
        <ele>558.23</ele>
        <time>2020-07-21T08:20:01.000Z</time>
      </trkpt>
      <trkpt lat="44.83201" lon="5.06556">
        <ele>558.25</ele>
        <time>2020-07-21T08:20:14.000Z</time>
      </trkpt>
      <trkpt lat="44.83205" lon="5.06557">
        <ele>557.83</ele>
        <time>2020-07-21T08:20:24.000Z</time>
      </trkpt>
      <trkpt lat="44.83214" lon="5.06552">
        <ele>555.94</ele>
        <time>2020-07-21T08:20:34.000Z</time>
      </trkpt>
      <trkpt lat="44.83222" lon="5.06543">
        <ele>553.39</ele>
        <time>2020-07-21T08:20:44.000Z</time>
      </trkpt>
      <trkpt lat="44.83228" lon="5.06534">
        <ele>551.1</ele>
        <time>2020-07-21T08:20:54.000Z</time>
      </trkpt>
      <trkpt lat="44.83233" lon="5.06524">
        <ele>548.77</ele>
        <time>2020-07-21T08:21:04.000Z</time>
      </trkpt>
      <trkpt lat="44.83242" lon="5.06517">
        <ele>547.15</ele>
        <time>2020-07-21T08:21:14.000Z</time>
      </trkpt>
      <trkpt lat="44.83249" lon="5.06508">
        <ele>545.59</ele>
        <time>2020-07-21T08:21:24.000Z</time>
      </trkpt>
      <trkpt lat="44.83256" lon="5.06501">
        <ele>544.41</ele>
        <time>2020-07-21T08:21:34.000Z</time>
      </trkpt>
      <trkpt lat="44.8326" lon="5.0649">
        <ele>542.47</ele>
        <time>2020-07-21T08:21:44.000Z</time>
      </trkpt>
      <trkpt lat="44.83261" lon="5.06476">
        <ele>540.07</ele>
        <time>2020-07-21T08:21:54.000Z</time>
      </trkpt>
      <trkpt lat="44.83265" lon="5.06464">
        <ele>538.08</ele>
        <time>2020-07-21T08:22:04.000Z</time>
      </trkpt>
      <trkpt lat="44.83269" lon="5.06451">
        <ele>535.79</ele>
        <time>2020-07-21T08:22:14.000Z</time>
      </trkpt>
      <trkpt lat="44.83273" lon="5.0644">
        <ele>533.76</ele>
        <time>2020-07-21T08:22:24.000Z</time>
      </trkpt>
      <trkpt lat="44.83278" lon="5.06432">
        <ele>532.27</ele>
        <time>2020-07-21T08:22:34.000Z</time>
      </trkpt>
      <trkpt lat="44.83283" lon="5.06421">
        <ele>529.72</ele>
        <time>2020-07-21T08:22:44.000Z</time>
      </trkpt>
      <trkpt lat="44.83288" lon="5.06409">
        <ele>526.97</ele>
        <time>2020-07-21T08:22:54.000Z</time>
      </trkpt>
      <trkpt lat="44.83292" lon="5.06402">
        <ele>525.08</ele>
        <time>2020-07-21T08:23:04.000Z</time>
      </trkpt>
      <trkpt lat="44.83294" lon="5.0639">
        <ele>521.68</ele>
        <time>2020-07-21T08:23:14.000Z</time>
      </trkpt>
      <trkpt lat="44.83295" lon="5.06383">
        <ele>519.59</ele>
        <time>2020-07-21T08:23:24.000Z</time>
      </trkpt>
      <trkpt lat="44.83298" lon="5.06369">
        <ele>515.85</ele>
        <time>2020-07-21T08:23:34.000Z</time>
      </trkpt>
      <trkpt lat="44.83301" lon="5.0636">
        <ele>513.62</ele>
        <time>2020-07-21T08:23:44.000Z</time>
      </trkpt>
      <trkpt lat="44.83303" lon="5.06347">
        <ele>510.73</ele>
        <time>2020-07-21T08:23:54.000Z</time>
      </trkpt>
      <trkpt lat="44.83305" lon="5.06334">
        <ele>508.15</ele>
        <time>2020-07-21T08:24:04.000Z</time>
      </trkpt>
      <trkpt lat="44.83307" lon="5.06323">
        <ele>506.07</ele>
        <time>2020-07-21T08:24:14.000Z</time>
      </trkpt>
      <trkpt lat="44.83311" lon="5.06313">
        <ele>504.03</ele>
        <time>2020-07-21T08:24:24.000Z</time>
      </trkpt>
      <trkpt lat="44.83315" lon="5.06305">
        <ele>502.09</ele>
        <time>2020-07-21T08:24:34.000Z</time>
      </trkpt>
      <trkpt lat="44.83318" lon="5.06298">
        <ele>500.57</ele>
        <time>2020-07-21T08:24:44.000Z</time>
      </trkpt>
      <trkpt lat="44.8332" lon="5.06292">
        <ele>499.02</ele>
        <time>2020-07-21T08:24:54.000Z</time>
      </trkpt>
      <trkpt lat="44.83328" lon="5.06282">
        <ele>496.09</ele>
        <time>2020-07-21T08:25:04.000Z</time>
      </trkpt>
      <trkpt lat="44.83334" lon="5.06272">
        <ele>493.51</ele>
        <time>2020-07-21T08:25:14.000Z</time>
      </trkpt>
      <trkpt lat="44.83338" lon="5.06264">
        <ele>491.92</ele>
        <time>2020-07-21T08:25:24.000Z</time>
      </trkpt>
      <trkpt lat="44.83344" lon="5.06254">
        <ele>490.3</ele>
        <time>2020-07-21T08:25:34.000Z</time>
      </trkpt>
      <trkpt lat="44.83352" lon="5.06247">
        <ele>489.42</ele>
        <time>2020-07-21T08:25:44.000Z</time>
      </trkpt>
      <trkpt lat="44.83358" lon="5.06237">
        <ele>488.64</ele>
        <time>2020-07-21T08:25:54.000Z</time>
      </trkpt>
      <trkpt lat="44.83363" lon="5.0623">
        <ele>488.05</ele>
        <time>2020-07-21T08:26:04.000Z</time>
      </trkpt>
      <trkpt lat="44.83368" lon="5.06222">
        <ele>487.18</ele>
        <time>2020-07-21T08:26:14.000Z</time>
      </trkpt>
      <trkpt lat="44.83371" lon="5.06209">
        <ele>485.71</ele>
        <time>2020-07-21T08:26:24.000Z</time>
      </trkpt>
      <trkpt lat="44.83375" lon="5.06192">
        <ele>483.83</ele>
        <time>2020-07-21T08:26:34.000Z</time>
      </trkpt>
      <trkpt lat="44.83383" lon="5.0618">
        <ele>481.26</ele>
        <time>2020-07-21T08:26:44.000Z</time>
      </trkpt>
      <trkpt lat="44.8339" lon="5.06166">
        <ele>479.34</ele>
        <time>2020-07-21T08:26:54.000Z</time>
      </trkpt>
      <trkpt lat="44.83398" lon="5.06157">
        <ele>477.4</ele>
        <time>2020-07-21T08:27:04.000Z</time>
      </trkpt>
      <trkpt lat="44.83403" lon="5.06151">
        <ele>476.62</ele>
        <time>2020-07-21T08:27:14.000Z</time>
      </trkpt>
      <trkpt lat="44.83412" lon="5.06144">
        <ele>475.19</ele>
        <time>2020-07-21T08:27:24.000Z</time>
      </trkpt>
      <trkpt lat="44.83423" lon="5.06139">
        <ele>473.68</ele>
        <time>2020-07-21T08:27:34.000Z</time>
      </trkpt>
      <trkpt lat="44.83431" lon="5.06134">
        <ele>472.95</ele>
        <time>2020-07-21T08:27:44.000Z</time>
      </trkpt>
      <trkpt lat="44.83441" lon="5.06124">
        <ele>472.22</ele>
        <time>2020-07-21T08:27:54.000Z</time>
      </trkpt>
      <trkpt lat="44.83443" lon="5.06124">
        <ele>471.86</ele>
        <time>2020-07-21T08:28:04.000Z</time>
      </trkpt>
      <trkpt lat="44.83443" lon="5.06123">
        <ele>471.92</ele>
        <time>2020-07-21T08:28:14.000Z</time>
      </trkpt>
      <trkpt lat="44.83451" lon="5.06117">
        <ele>470.85</ele>
        <time>2020-07-21T08:28:24.000Z</time>
      </trkpt>
      <trkpt lat="44.83459" lon="5.06112">
        <ele>469.59</ele>
        <time>2020-07-21T08:28:34.000Z</time>
      </trkpt>
      <trkpt lat="44.8347" lon="5.06104">
        <ele>467.38</ele>
        <time>2020-07-21T08:28:44.000Z</time>
      </trkpt>
      <trkpt lat="44.83478" lon="5.06092">
        <ele>465.19</ele>
        <time>2020-07-21T08:28:54.000Z</time>
      </trkpt>
      <trkpt lat="44.83486" lon="5.0608">
        <ele>463.22</ele>
        <time>2020-07-21T08:29:04.000Z</time>
      </trkpt>
      <trkpt lat="44.83496" lon="5.06071">
        <ele>461.31</ele>
        <time>2020-07-21T08:29:14.000Z</time>
      </trkpt>
      <trkpt lat="44.835" lon="5.06061">
        <ele>460.89</ele>
        <time>2020-07-21T08:29:24.000Z</time>
      </trkpt>
      <trkpt lat="44.8351" lon="5.06048">
        <ele>459.82</ele>
        <time>2020-07-21T08:29:34.000Z</time>
      </trkpt>
      <trkpt lat="44.83514" lon="5.06037">
        <ele>459.66</ele>
        <time>2020-07-21T08:29:44.000Z</time>
      </trkpt>
      <trkpt lat="44.83521" lon="5.06032">
        <ele>458.18</ele>
        <time>2020-07-21T08:29:54.000Z</time>
      </trkpt>
      <trkpt lat="44.83533" lon="5.06023">
        <ele>454.93</ele>
        <time>2020-07-21T08:30:04.000Z</time>
      </trkpt>
      <trkpt lat="44.83541" lon="5.06013">
        <ele>452.52</ele>
        <time>2020-07-21T08:30:14.000Z</time>
      </trkpt>
      <trkpt lat="44.83547" lon="5.06005">
        <ele>450.55</ele>
        <time>2020-07-21T08:30:24.000Z</time>
      </trkpt>
      <trkpt lat="44.8355" lon="5.06002">
        <ele>449.56</ele>
        <time>2020-07-21T08:30:34.000Z</time>
      </trkpt>
      <trkpt lat="44.83558" lon="5.05991">
        <ele>447.57</ele>
        <time>2020-07-21T08:30:44.000Z</time>
      </trkpt>
      <trkpt lat="44.83565" lon="5.05982">
        <ele>446.87</ele>
        <time>2020-07-21T08:30:54.000Z</time>
      </trkpt>
      <trkpt lat="44.83571" lon="5.05975">
        <ele>446.7</ele>
        <time>2020-07-21T08:31:04.000Z</time>
      </trkpt>
      <trkpt lat="44.8358" lon="5.05967">
        <ele>446.26</ele>
        <time>2020-07-21T08:31:14.000Z</time>
      </trkpt>
      <trkpt lat="44.8359" lon="5.05958">
        <ele>446.56</ele>
        <time>2020-07-21T08:31:24.000Z</time>
      </trkpt>
      <trkpt lat="44.83601" lon="5.05948">
        <ele>446.59</ele>
        <time>2020-07-21T08:31:34.000Z</time>
      </trkpt>
      <trkpt lat="44.83607" lon="5.05933">
        <ele>447.25</ele>
        <time>2020-07-21T08:31:44.000Z</time>
      </trkpt>
      <trkpt lat="44.83612" lon="5.05921">
        <ele>447.33</ele>
        <time>2020-07-21T08:31:54.000Z</time>
      </trkpt>
      <trkpt lat="44.83619" lon="5.0591">
        <ele>445.55</ele>
        <time>2020-07-21T08:32:04.000Z</time>
      </trkpt>
      <trkpt lat="44.83625" lon="5.05897">
        <ele>443.93</ele>
        <time>2020-07-21T08:32:14.000Z</time>
      </trkpt>
      <trkpt lat="44.83632" lon="5.05886">
        <ele>441.39</ele>
        <time>2020-07-21T08:32:24.000Z</time>
      </trkpt>
      <trkpt lat="44.83638" lon="5.05878">
        <ele>439.23</ele>
        <time>2020-07-21T08:32:34.000Z</time>
      </trkpt>
      <trkpt lat="44.83644" lon="5.05866">
        <ele>436.89</ele>
        <time>2020-07-21T08:32:44.000Z</time>
      </trkpt>
      <trkpt lat="44.83652" lon="5.05856">
        <ele>434.38</ele>
        <time>2020-07-21T08:32:54.000Z</time>
      </trkpt>
      <trkpt lat="44.83658" lon="5.05845">
        <ele>432.72</ele>
        <time>2020-07-21T08:33:04.000Z</time>
      </trkpt>
      <trkpt lat="44.83665" lon="5.05833">
        <ele>431.53</ele>
        <time>2020-07-21T08:33:14.000Z</time>
      </trkpt>
      <trkpt lat="44.83667" lon="5.05823">
        <ele>431.92</ele>
        <time>2020-07-21T08:33:24.000Z</time>
      </trkpt>
      <trkpt lat="44.83676" lon="5.05813">
        <ele>431.52</ele>
        <time>2020-07-21T08:33:34.000Z</time>
      </trkpt>
      <trkpt lat="44.83683" lon="5.05799">
        <ele>432.08</ele>
        <time>2020-07-21T08:33:44.000Z</time>
      </trkpt>
      <trkpt lat="44.8369" lon="5.05788">
        <ele>432.08</ele>
        <time>2020-07-21T08:33:54.000Z</time>
      </trkpt>
      <trkpt lat="44.83698" lon="5.05776">
        <ele>431.57</ele>
        <time>2020-07-21T08:34:04.000Z</time>
      </trkpt>
      <trkpt lat="44.83707" lon="5.05765">
        <ele>429.88</ele>
        <time>2020-07-21T08:34:14.000Z</time>
      </trkpt>
      <trkpt lat="44.83713" lon="5.05755">
        <ele>428.61</ele>
        <time>2020-07-21T08:34:24.000Z</time>
      </trkpt>
      <trkpt lat="44.8372" lon="5.05745">
        <ele>426.9</ele>
        <time>2020-07-21T08:34:34.000Z</time>
      </trkpt>
      <trkpt lat="44.83726" lon="5.05738">
        <ele>425.38</ele>
        <time>2020-07-21T08:34:44.000Z</time>
      </trkpt>
      <trkpt lat="44.83731" lon="5.05727">
        <ele>424.51</ele>
        <time>2020-07-21T08:34:54.000Z</time>
      </trkpt>
      <trkpt lat="44.83739" lon="5.05715">
        <ele>423.44</ele>
        <time>2020-07-21T08:35:04.000Z</time>
      </trkpt>
      <trkpt lat="44.83746" lon="5.057">
        <ele>423.21</ele>
        <time>2020-07-21T08:35:14.000Z</time>
      </trkpt>
      <trkpt lat="44.83754" lon="5.0569">
        <ele>422.69</ele>
        <time>2020-07-21T08:35:24.000Z</time>
      </trkpt>
      <trkpt lat="44.83765" lon="5.05679">
        <ele>421.62</ele>
        <time>2020-07-21T08:35:34.000Z</time>
      </trkpt>
      <trkpt lat="44.83773" lon="5.05669">
        <ele>421.01</ele>
        <time>2020-07-21T08:35:44.000Z</time>
      </trkpt>
      <trkpt lat="44.83781" lon="5.05656">
        <ele>420.38</ele>
        <time>2020-07-21T08:35:54.000Z</time>
      </trkpt>
      <trkpt lat="44.83791" lon="5.05645">
        <ele>419.12</ele>
        <time>2020-07-21T08:36:04.000Z</time>
      </trkpt>
      <trkpt lat="44.838" lon="5.05636">
        <ele>417.56</ele>
        <time>2020-07-21T08:36:14.000Z</time>
      </trkpt>
      <trkpt lat="44.83805" lon="5.05627">
        <ele>416.74</ele>
        <time>2020-07-21T08:36:24.000Z</time>
      </trkpt>
      <trkpt lat="44.83813" lon="5.05616">
        <ele>414.98</ele>
        <time>2020-07-21T08:36:34.000Z</time>
      </trkpt>
      <trkpt lat="44.8382" lon="5.05606">
        <ele>413.48</ele>
        <time>2020-07-21T08:36:44.000Z</time>
      </trkpt>
      <trkpt lat="44.83828" lon="5.05597">
        <ele>411.67</ele>
        <time>2020-07-21T08:36:54.000Z</time>
      </trkpt>
      <trkpt lat="44.83836" lon="5.05588">
        <ele>410.21</ele>
        <time>2020-07-21T08:37:04.000Z</time>
      </trkpt>
      <trkpt lat="44.83843" lon="5.05577">
        <ele>409.5</ele>
        <time>2020-07-21T08:37:14.000Z</time>
      </trkpt>
      <trkpt lat="44.83852" lon="5.05567">
        <ele>408.69</ele>
        <time>2020-07-21T08:37:24.000Z</time>
      </trkpt>
      <trkpt lat="44.83859" lon="5.05555">
        <ele>408.32</ele>
        <time>2020-07-21T08:37:34.000Z</time>
      </trkpt>
      <trkpt lat="44.83868" lon="5.05543">
        <ele>407.54</ele>
        <time>2020-07-21T08:37:44.000Z</time>
      </trkpt>
      <trkpt lat="44.83875" lon="5.0553">
        <ele>406.67</ele>
        <time>2020-07-21T08:37:54.000Z</time>
      </trkpt>
      <trkpt lat="44.83882" lon="5.05519">
        <ele>405.12</ele>
        <time>2020-07-21T08:38:04.000Z</time>
      </trkpt>
      <trkpt lat="44.83888" lon="5.05502">
        <ele>403.91</ele>
        <time>2020-07-21T08:38:14.000Z</time>
      </trkpt>
      <trkpt lat="44.83892" lon="5.05486">
        <ele>403.11</ele>
        <time>2020-07-21T08:38:24.000Z</time>
      </trkpt>
      <trkpt lat="44.83897" lon="5.05472">
        <ele>402.68</ele>
        <time>2020-07-21T08:38:34.000Z</time>
      </trkpt>
      <trkpt lat="44.83901" lon="5.05461">
        <ele>402.71</ele>
        <time>2020-07-21T08:38:44.000Z</time>
      </trkpt>
      <trkpt lat="44.83901" lon="5.05449">
        <ele>403.71</ele>
        <time>2020-07-21T08:38:54.000Z</time>
      </trkpt>
      <trkpt lat="44.83901" lon="5.05443">
        <ele>404.11</ele>
        <time>2020-07-21T08:39:04.000Z</time>
      </trkpt>
      <trkpt lat="44.83902" lon="5.05436">
        <ele>404.62</ele>
        <time>2020-07-21T08:39:14.000Z</time>
      </trkpt>
      <trkpt lat="44.83902" lon="5.05426">
        <ele>405.27</ele>
        <time>2020-07-21T08:39:24.000Z</time>
      </trkpt>
      <trkpt lat="44.83902" lon="5.05412">
        <ele>405.93</ele>
        <time>2020-07-21T08:39:34.000Z</time>
      </trkpt>
      <trkpt lat="44.83902" lon="5.05402">
        <ele>406.28</ele>
        <time>2020-07-21T08:39:44.000Z</time>
      </trkpt>
      <trkpt lat="44.839" lon="5.05388">
        <ele>407.21</ele>
        <time>2020-07-21T08:39:54.000Z</time>
      </trkpt>
      <trkpt lat="44.839" lon="5.05373">
        <ele>407.85</ele>
        <time>2020-07-21T08:40:04.000Z</time>
      </trkpt>
      <trkpt lat="44.839" lon="5.05357">
        <ele>407.77</ele>
        <time>2020-07-21T08:40:14.000Z</time>
      </trkpt>
      <trkpt lat="44.839" lon="5.05343">
        <ele>408.04</ele>
        <time>2020-07-21T08:40:24.000Z</time>
      </trkpt>
      <trkpt lat="44.83897" lon="5.05329">
        <ele>408.95</ele>
        <time>2020-07-21T08:40:34.000Z</time>
      </trkpt>
      <trkpt lat="44.83896" lon="5.05313">
        <ele>409</ele>
        <time>2020-07-21T08:40:44.000Z</time>
      </trkpt>
      <trkpt lat="44.83893" lon="5.05295">
        <ele>409.48</ele>
        <time>2020-07-21T08:40:54.000Z</time>
      </trkpt>
      <trkpt lat="44.83887" lon="5.05277">
        <ele>410.98</ele>
        <time>2020-07-21T08:41:04.000Z</time>
      </trkpt>
      <trkpt lat="44.8388" lon="5.05258">
        <ele>412.9</ele>
        <time>2020-07-21T08:41:14.000Z</time>
      </trkpt>
      <trkpt lat="44.8387" lon="5.05248">
        <ele>416.58</ele>
        <time>2020-07-21T08:41:24.000Z</time>
      </trkpt>
      <trkpt lat="44.83865" lon="5.05242">
        <ele>418.13</ele>
        <time>2020-07-21T08:41:34.000Z</time>
      </trkpt>
      <trkpt lat="44.83858" lon="5.05233">
        <ele>420.09</ele>
        <time>2020-07-21T08:41:44.000Z</time>
      </trkpt>
      <trkpt lat="44.83851" lon="5.05218">
        <ele>420.9</ele>
        <time>2020-07-21T08:41:54.000Z</time>
      </trkpt>
      <trkpt lat="44.83846" lon="5.05202">
        <ele>419.66</ele>
        <time>2020-07-21T08:42:04.000Z</time>
      </trkpt>
      <trkpt lat="44.83845" lon="5.05183">
        <ele>416.78</ele>
        <time>2020-07-21T08:42:14.000Z</time>
      </trkpt>
      <trkpt lat="44.83842" lon="5.05173">
        <ele>416.05</ele>
        <time>2020-07-21T08:42:24.000Z</time>
      </trkpt>
      <trkpt lat="44.83842" lon="5.05161">
        <ele>414.84</ele>
        <time>2020-07-21T08:42:34.000Z</time>
      </trkpt>
      <trkpt lat="44.83839" lon="5.05147">
        <ele>414.04</ele>
        <time>2020-07-21T08:42:44.000Z</time>
      </trkpt>
      <trkpt lat="44.83835" lon="5.05131">
        <ele>414.03</ele>
        <time>2020-07-21T08:42:54.000Z</time>
      </trkpt>
      <trkpt lat="44.83828" lon="5.05117">
        <ele>414.99</ele>
        <time>2020-07-21T08:43:04.000Z</time>
      </trkpt>
      <trkpt lat="44.83818" lon="5.05106">
        <ele>417.37</ele>
        <time>2020-07-21T08:43:14.000Z</time>
      </trkpt>
      <trkpt lat="44.83809" lon="5.05102">
        <ele>420.09</ele>
        <time>2020-07-21T08:43:24.000Z</time>
      </trkpt>
      <trkpt lat="44.83801" lon="5.05085">
        <ele>421.81</ele>
        <time>2020-07-21T08:43:34.000Z</time>
      </trkpt>
      <trkpt lat="44.83803" lon="5.05067">
        <ele>420.96</ele>
        <time>2020-07-21T08:43:44.000Z</time>
      </trkpt>
      <trkpt lat="44.83805" lon="5.05055">
        <ele>420.79</ele>
        <time>2020-07-21T08:43:54.000Z</time>
      </trkpt>
      <trkpt lat="44.83804" lon="5.0504">
        <ele>421.77</ele>
        <time>2020-07-21T08:44:04.000Z</time>
      </trkpt>
      <trkpt lat="44.83799" lon="5.05024">
        <ele>422.9</ele>
        <time>2020-07-21T08:44:14.000Z</time>
      </trkpt>
      <trkpt lat="44.83795" lon="5.05008">
        <ele>422.58</ele>
        <time>2020-07-21T08:44:24.000Z</time>
      </trkpt>
      <trkpt lat="44.8379" lon="5.04994">
        <ele>421.04</ele>
        <time>2020-07-21T08:44:34.000Z</time>
      </trkpt>
      <trkpt lat="44.83783" lon="5.04982">
        <ele>418.33</ele>
        <time>2020-07-21T08:44:44.000Z</time>
      </trkpt>
      <trkpt lat="44.83775" lon="5.04969">
        <ele>414.61</ele>
        <time>2020-07-21T08:44:54.000Z</time>
      </trkpt>
      <trkpt lat="44.83768" lon="5.04957">
        <ele>410.65</ele>
        <time>2020-07-21T08:45:04.000Z</time>
      </trkpt>
      <trkpt lat="44.83761" lon="5.04953">
        <ele>408.62</ele>
        <time>2020-07-21T08:45:14.000Z</time>
      </trkpt>
      <trkpt lat="44.83753" lon="5.04945">
        <ele>405.62</ele>
        <time>2020-07-21T08:45:24.000Z</time>
      </trkpt>
      <trkpt lat="44.83744" lon="5.04935">
        <ele>401.83</ele>
        <time>2020-07-21T08:45:34.000Z</time>
      </trkpt>
      <trkpt lat="44.83735" lon="5.04928">
        <ele>399.4</ele>
        <time>2020-07-21T08:45:44.000Z</time>
      </trkpt>
      <trkpt lat="44.83728" lon="5.04924">
        <ele>398.11</ele>
        <time>2020-07-21T08:45:54.000Z</time>
      </trkpt>
      <trkpt lat="44.83719" lon="5.04918">
        <ele>396.7</ele>
        <time>2020-07-21T08:46:04.000Z</time>
      </trkpt>
      <trkpt lat="44.8371" lon="5.04913">
        <ele>395.59</ele>
        <time>2020-07-21T08:46:14.000Z</time>
      </trkpt>
      <trkpt lat="44.83701" lon="5.04907">
        <ele>394.58</ele>
        <time>2020-07-21T08:46:24.000Z</time>
      </trkpt>
      <trkpt lat="44.83691" lon="5.04903">
        <ele>393.78</ele>
        <time>2020-07-21T08:46:34.000Z</time>
      </trkpt>
      <trkpt lat="44.83683" lon="5.049">
        <ele>393.32</ele>
        <time>2020-07-21T08:46:44.000Z</time>
      </trkpt>
      <trkpt lat="44.83677" lon="5.049">
        <ele>393.33</ele>
        <time>2020-07-21T08:46:54.000Z</time>
      </trkpt>
      <trkpt lat="44.83667" lon="5.04898">
        <ele>392.84</ele>
        <time>2020-07-21T08:47:04.000Z</time>
      </trkpt>
      <trkpt lat="44.83659" lon="5.04902">
        <ele>393.39</ele>
        <time>2020-07-21T08:47:14.000Z</time>
      </trkpt>
      <trkpt lat="44.83652" lon="5.04908">
        <ele>394.43</ele>
        <time>2020-07-21T08:47:24.000Z</time>
      </trkpt>
      <trkpt lat="44.83647" lon="5.04913">
        <ele>395.29</ele>
        <time>2020-07-21T08:47:34.000Z</time>
      </trkpt>
      <trkpt lat="44.83636" lon="5.04916">
        <ele>395.17</ele>
        <time>2020-07-21T08:47:44.000Z</time>
      </trkpt>
      <trkpt lat="44.83631" lon="5.04908">
        <ele>392.66</ele>
        <time>2020-07-21T08:47:54.000Z</time>
      </trkpt>
      <trkpt lat="44.83629" lon="5.04909">
        <ele>392.87</ele>
        <time>2020-07-21T08:48:04.000Z</time>
      </trkpt>
      <trkpt lat="44.8363" lon="5.04907">
        <ele>392.37</ele>
        <time>2020-07-21T08:48:25.000Z</time>
      </trkpt>
      <trkpt lat="44.83628" lon="5.04905">
        <ele>391.82</ele>
        <time>2020-07-21T08:48:35.000Z</time>
      </trkpt>
      <trkpt lat="44.83627" lon="5.04897">
        <ele>389.28</ele>
        <time>2020-07-21T08:48:45.000Z</time>
      </trkpt>
      <trkpt lat="44.83623" lon="5.04885">
        <ele>385.5</ele>
        <time>2020-07-21T08:48:55.000Z</time>
      </trkpt>
      <trkpt lat="44.83617" lon="5.04874">
        <ele>381.47</ele>
        <time>2020-07-21T08:49:05.000Z</time>
      </trkpt>
      <trkpt lat="44.83617" lon="5.0487">
        <ele>380.27</ele>
        <time>2020-07-21T08:49:15.000Z</time>
      </trkpt>
      <trkpt lat="44.83618" lon="5.04866">
        <ele>379.15</ele>
        <time>2020-07-21T08:49:25.000Z</time>
      </trkpt>
      <trkpt lat="44.83619" lon="5.04856">
        <ele>376.36</ele>
        <time>2020-07-21T08:49:35.000Z</time>
      </trkpt>
      <trkpt lat="44.83625" lon="5.04843">
        <ele>373.61</ele>
        <time>2020-07-21T08:49:45.000Z</time>
      </trkpt>
      <trkpt lat="44.83625" lon="5.04827">
        <ele>370.26</ele>
        <time>2020-07-21T08:49:55.000Z</time>
      </trkpt>
      <trkpt lat="44.83624" lon="5.04811">
        <ele>367.61</ele>
        <time>2020-07-21T08:50:05.000Z</time>
      </trkpt>
      <trkpt lat="44.83622" lon="5.04796">
        <ele>365.54</ele>
        <time>2020-07-21T08:50:15.000Z</time>
      </trkpt>
      <trkpt lat="44.83617" lon="5.04779">
        <ele>363.25</ele>
        <time>2020-07-21T08:50:25.000Z</time>
      </trkpt>
      <trkpt lat="44.8361" lon="5.04762">
        <ele>360.96</ele>
        <time>2020-07-21T08:50:35.000Z</time>
      </trkpt>
      <trkpt lat="44.83608" lon="5.04752">
        <ele>359.48</ele>
        <time>2020-07-21T08:50:45.000Z</time>
      </trkpt>
      <trkpt lat="44.83604" lon="5.04746">
        <ele>358.58</ele>
        <time>2020-07-21T08:50:55.000Z</time>
      </trkpt>
      <trkpt lat="44.83603" lon="5.04747">
        <ele>358.53</ele>
        <time>2020-07-21T08:51:08.000Z</time>
      </trkpt>
      <trkpt lat="44.83602" lon="5.04746">
        <ele>358.42</ele>
        <time>2020-07-21T08:51:21.000Z</time>
      </trkpt>
      <trkpt lat="44.83597" lon="5.04738">
        <ele>357.02</ele>
        <time>2020-07-21T08:51:31.000Z</time>
      </trkpt>
      <trkpt lat="44.8359" lon="5.04731">
        <ele>355.84</ele>
        <time>2020-07-21T08:51:41.000Z</time>
      </trkpt>
      <trkpt lat="44.83583" lon="5.04724">
        <ele>354.83</ele>
        <time>2020-07-21T08:51:51.000Z</time>
      </trkpt>
      <trkpt lat="44.83578" lon="5.0472">
        <ele>354.29</ele>
        <time>2020-07-21T08:52:01.000Z</time>
      </trkpt>
      <trkpt lat="44.83568" lon="5.04715">
        <ele>353.84</ele>
        <time>2020-07-21T08:52:11.000Z</time>
      </trkpt>
      <trkpt lat="44.83558" lon="5.0471">
        <ele>353.47</ele>
        <time>2020-07-21T08:52:21.000Z</time>
      </trkpt>
      <trkpt lat="44.8355" lon="5.04705">
        <ele>353.15</ele>
        <time>2020-07-21T08:52:31.000Z</time>
      </trkpt>
      <trkpt lat="44.83543" lon="5.04699">
        <ele>352.59</ele>
        <time>2020-07-21T08:52:41.000Z</time>
      </trkpt>
      <trkpt lat="44.83532" lon="5.04694">
        <ele>352.33</ele>
        <time>2020-07-21T08:52:51.000Z</time>
      </trkpt>
      <trkpt lat="44.8352" lon="5.04688">
        <ele>351.88</ele>
        <time>2020-07-21T08:53:01.000Z</time>
      </trkpt>
      <trkpt lat="44.83508" lon="5.0468">
        <ele>350.96</ele>
        <time>2020-07-21T08:53:11.000Z</time>
      </trkpt>
      <trkpt lat="44.83497" lon="5.04674">
        <ele>350.22</ele>
        <time>2020-07-21T08:53:21.000Z</time>
      </trkpt>
      <trkpt lat="44.83484" lon="5.04668">
        <ele>349.55</ele>
        <time>2020-07-21T08:53:31.000Z</time>
      </trkpt>
      <trkpt lat="44.83471" lon="5.04664">
        <ele>349.26</ele>
        <time>2020-07-21T08:53:41.000Z</time>
      </trkpt>
      <trkpt lat="44.83459" lon="5.0466">
        <ele>348.95</ele>
        <time>2020-07-21T08:53:51.000Z</time>
      </trkpt>
      <trkpt lat="44.83447" lon="5.04654">
        <ele>348.32</ele>
        <time>2020-07-21T08:54:01.000Z</time>
      </trkpt>
      <trkpt lat="44.83438" lon="5.04646">
        <ele>347.14</ele>
        <time>2020-07-21T08:54:11.000Z</time>
      </trkpt>
      <trkpt lat="44.83428" lon="5.04636">
        <ele>345.75</ele>
        <time>2020-07-21T08:54:21.000Z</time>
      </trkpt>
      <trkpt lat="44.83418" lon="5.04625">
        <ele>343.96</ele>
        <time>2020-07-21T08:54:31.000Z</time>
      </trkpt>
      <trkpt lat="44.83407" lon="5.04617">
        <ele>342.54</ele>
        <time>2020-07-21T08:54:41.000Z</time>
      </trkpt>
      <trkpt lat="44.83396" lon="5.04616">
        <ele>341.82</ele>
        <time>2020-07-21T08:54:51.000Z</time>
      </trkpt>
      <trkpt lat="44.83384" lon="5.04619">
        <ele>341.51</ele>
        <time>2020-07-21T08:55:01.000Z</time>
      </trkpt>
      <trkpt lat="44.83373" lon="5.0462">
        <ele>341.05</ele>
        <time>2020-07-21T08:55:11.000Z</time>
      </trkpt>
      <trkpt lat="44.83366" lon="5.04613">
        <ele>339.43</ele>
        <time>2020-07-21T08:55:21.000Z</time>
      </trkpt>
      <trkpt lat="44.83374" lon="5.04604">
        <ele>338.9</ele>
        <time>2020-07-21T08:55:31.000Z</time>
      </trkpt>
      <trkpt lat="44.83383" lon="5.04597">
        <ele>338.53</ele>
        <time>2020-07-21T08:55:41.000Z</time>
      </trkpt>
      <trkpt lat="44.83393" lon="5.04589">
        <ele>338.02</ele>
        <time>2020-07-21T08:55:51.000Z</time>
      </trkpt>
      <trkpt lat="44.83403" lon="5.04583">
        <ele>337.66</ele>
        <time>2020-07-21T08:56:01.000Z</time>
      </trkpt>
      <trkpt lat="44.83413" lon="5.04574">
        <ele>336.83</ele>
        <time>2020-07-21T08:56:11.000Z</time>
      </trkpt>
      <trkpt lat="44.83425" lon="5.04567">
        <ele>335.91</ele>
        <time>2020-07-21T08:56:21.000Z</time>
      </trkpt>
      <trkpt lat="44.83436" lon="5.04561">
        <ele>334.84</ele>
        <time>2020-07-21T08:56:31.000Z</time>
      </trkpt>
      <trkpt lat="44.83448" lon="5.04555">
        <ele>333.78</ele>
        <time>2020-07-21T08:56:41.000Z</time>
      </trkpt>
      <trkpt lat="44.83461" lon="5.0455">
        <ele>332.76</ele>
        <time>2020-07-21T08:56:51.000Z</time>
      </trkpt>
      <trkpt lat="44.83472" lon="5.04544">
        <ele>331.87</ele>
        <time>2020-07-21T08:57:01.000Z</time>
      </trkpt>
      <trkpt lat="44.83482" lon="5.04537">
        <ele>331.08</ele>
        <time>2020-07-21T08:57:11.000Z</time>
      </trkpt>
      <trkpt lat="44.83493" lon="5.04529">
        <ele>330.44</ele>
        <time>2020-07-21T08:57:21.000Z</time>
      </trkpt>
      <trkpt lat="44.83503" lon="5.04522">
        <ele>330.03</ele>
        <time>2020-07-21T08:57:31.000Z</time>
      </trkpt>
      <trkpt lat="44.83513" lon="5.04511">
        <ele>329.59</ele>
        <time>2020-07-21T08:57:41.000Z</time>
      </trkpt>
      <trkpt lat="44.83519" lon="5.04498">
        <ele>329.08</ele>
        <time>2020-07-21T08:57:51.000Z</time>
      </trkpt>
      <trkpt lat="44.83525" lon="5.04487">
        <ele>328.78</ele>
        <time>2020-07-21T08:58:01.000Z</time>
      </trkpt>
      <trkpt lat="44.83532" lon="5.04481">
        <ele>328.7</ele>
        <time>2020-07-21T08:58:11.000Z</time>
      </trkpt>
      <trkpt lat="44.8354" lon="5.04468">
        <ele>328.53</ele>
        <time>2020-07-21T08:58:21.000Z</time>
      </trkpt>
      <trkpt lat="44.83546" lon="5.04455">
        <ele>328.38</ele>
        <time>2020-07-21T08:58:31.000Z</time>
      </trkpt>
      <trkpt lat="44.83547" lon="5.04454">
        <ele>328.37</ele>
        <time>2020-07-21T08:58:54.000Z</time>
      </trkpt>
      <trkpt lat="44.83548" lon="5.04452">
        <ele>328.34</ele>
        <time>2020-07-21T08:59:07.000Z</time>
      </trkpt>
      <trkpt lat="44.83553" lon="5.04442">
        <ele>328.21</ele>
        <time>2020-07-21T08:59:17.000Z</time>
      </trkpt>
      <trkpt lat="44.83557" lon="5.04429">
        <ele>327.91</ele>
        <time>2020-07-21T08:59:27.000Z</time>
      </trkpt>
      <trkpt lat="44.83558" lon="5.04413">
        <ele>327.31</ele>
        <time>2020-07-21T08:59:37.000Z</time>
      </trkpt>
      <trkpt lat="44.83559" lon="5.04397">
        <ele>326.73</ele>
        <time>2020-07-21T08:59:47.000Z</time>
      </trkpt>
      <trkpt lat="44.8356" lon="5.04382">
        <ele>326.11</ele>
        <time>2020-07-21T08:59:57.000Z</time>
      </trkpt>
      <trkpt lat="44.83561" lon="5.04375">
        <ele>325.82</ele>
        <time>2020-07-21T09:00:07.000Z</time>
      </trkpt>
      <trkpt lat="44.83561" lon="5.04374">
        <ele>325.74</ele>
        <time>2020-07-21T09:00:20.000Z</time>
      </trkpt>
      <trkpt lat="44.83561" lon="5.04367">
        <ele>325.39</ele>
        <time>2020-07-21T09:00:30.000Z</time>
      </trkpt>
      <trkpt lat="44.83562" lon="5.04364">
        <ele>325.24</ele>
        <time>2020-07-21T09:00:40.000Z</time>
      </trkpt>
      <trkpt lat="44.83558" lon="5.04354">
        <ele>324.48</ele>
        <time>2020-07-21T09:00:50.000Z</time>
      </trkpt>
      <trkpt lat="44.83546" lon="5.04344">
        <ele>324.02</ele>
        <time>2020-07-21T09:01:00.000Z</time>
      </trkpt>
      <trkpt lat="44.83541" lon="5.04346">
        <ele>324.48</ele>
        <time>2020-07-21T09:01:10.000Z</time>
      </trkpt>
      <trkpt lat="44.83539" lon="5.04349">
        <ele>324.73</ele>
        <time>2020-07-21T09:01:20.000Z</time>
      </trkpt>
      <trkpt lat="44.83538" lon="5.04348">
        <ele>324.81</ele>
        <time>2020-07-21T09:01:30.000Z</time>
      </trkpt>
      <trkpt lat="44.83534" lon="5.04353">
        <ele>325.3</ele>
        <time>2020-07-21T09:01:40.000Z</time>
      </trkpt>
      <trkpt lat="44.83532" lon="5.04352">
        <ele>325.43</ele>
        <time>2020-07-21T09:01:50.000Z</time>
      </trkpt>
      <trkpt lat="44.83529" lon="5.04352">
        <ele>325.6</ele>
        <time>2020-07-21T09:02:00.000Z</time>
      </trkpt>
      <trkpt lat="44.83523" lon="5.04353">
        <ele>326.17</ele>
        <time>2020-07-21T09:02:10.000Z</time>
      </trkpt>
      <trkpt lat="44.83516" lon="5.04352">
        <ele>326.86</ele>
        <time>2020-07-21T09:02:20.000Z</time>
      </trkpt>
      <trkpt lat="44.83512" lon="5.04351">
        <ele>327.27</ele>
        <time>2020-07-21T09:02:30.000Z</time>
      </trkpt>
      <trkpt lat="44.83508" lon="5.0435">
        <ele>327.75</ele>
        <time>2020-07-21T09:02:40.000Z</time>
      </trkpt>
      <trkpt lat="44.83505" lon="5.04349">
        <ele>328.04</ele>
        <time>2020-07-21T09:02:53.000Z</time>
      </trkpt>
      <trkpt lat="44.83499" lon="5.04345">
        <ele>328.81</ele>
        <time>2020-07-21T09:03:03.000Z</time>
      </trkpt>
      <trkpt lat="44.83498" lon="5.04344">
        <ele>329.08</ele>
        <time>2020-07-21T09:03:13.000Z</time>
      </trkpt>
      <trkpt lat="44.83493" lon="5.04342">
        <ele>329.82</ele>
        <time>2020-07-21T09:03:23.000Z</time>
      </trkpt>
      <trkpt lat="44.83489" lon="5.04342">
        <ele>330.6</ele>
        <time>2020-07-21T09:03:33.000Z</time>
      </trkpt>
      <trkpt lat="44.83482" lon="5.04342">
        <ele>332</ele>
        <time>2020-07-21T09:03:43.000Z</time>
      </trkpt>
      <trkpt lat="44.83475" lon="5.04342">
        <ele>333.38</ele>
        <time>2020-07-21T09:03:53.000Z</time>
      </trkpt>
      <trkpt lat="44.8347" lon="5.04341">
        <ele>334.63</ele>
        <time>2020-07-21T09:04:03.000Z</time>
      </trkpt>
      <trkpt lat="44.83467" lon="5.04342">
        <ele>335.26</ele>
        <time>2020-07-21T09:04:13.000Z</time>
      </trkpt>
      <trkpt lat="44.8346" lon="5.04342">
        <ele>336.84</ele>
        <time>2020-07-21T09:04:23.000Z</time>
      </trkpt>
      <trkpt lat="44.83452" lon="5.04341">
        <ele>339.03</ele>
        <time>2020-07-21T09:04:33.000Z</time>
      </trkpt>
      <trkpt lat="44.83446" lon="5.04341">
        <ele>340.45</ele>
        <time>2020-07-21T09:04:43.000Z</time>
      </trkpt>
      <trkpt lat="44.83445" lon="5.04339">
        <ele>341.09</ele>
        <time>2020-07-21T09:04:53.000Z</time>
      </trkpt>
      <trkpt lat="44.83443" lon="5.04337">
        <ele>341.63</ele>
        <time>2020-07-21T09:05:03.000Z</time>
      </trkpt>
      <trkpt lat="44.83442" lon="5.04336">
        <ele>341.98</ele>
        <time>2020-07-21T09:05:13.000Z</time>
      </trkpt>
      <trkpt lat="44.83441" lon="5.04335">
        <ele>342.48</ele>
        <time>2020-07-21T09:05:24.000Z</time>
      </trkpt>
      <trkpt lat="44.83436" lon="5.04335">
        <ele>343.74</ele>
        <time>2020-07-21T09:05:34.000Z</time>
      </trkpt>
      <trkpt lat="44.83432" lon="5.04332">
        <ele>344.86</ele>
        <time>2020-07-21T09:05:44.000Z</time>
      </trkpt>
      <trkpt lat="44.83425" lon="5.04332">
        <ele>346.36</ele>
        <time>2020-07-21T09:05:54.000Z</time>
      </trkpt>
      <trkpt lat="44.8342" lon="5.04332">
        <ele>347.5</ele>
        <time>2020-07-21T09:06:04.000Z</time>
      </trkpt>
      <trkpt lat="44.83412" lon="5.04333">
        <ele>348.87</ele>
        <time>2020-07-21T09:06:14.000Z</time>
      </trkpt>
      <trkpt lat="44.83406" lon="5.04333">
        <ele>350.07</ele>
        <time>2020-07-21T09:06:24.000Z</time>
      </trkpt>
      <trkpt lat="44.83395" lon="5.04336">
        <ele>351.68</ele>
        <time>2020-07-21T09:06:34.000Z</time>
      </trkpt>
      <trkpt lat="44.83386" lon="5.04337">
        <ele>352.97</ele>
        <time>2020-07-21T09:06:44.000Z</time>
      </trkpt>
      <trkpt lat="44.83379" lon="5.04338">
        <ele>354.04</ele>
        <time>2020-07-21T09:06:54.000Z</time>
      </trkpt>
      <trkpt lat="44.8337" lon="5.04341">
        <ele>354.9</ele>
        <time>2020-07-21T09:07:04.000Z</time>
      </trkpt>
      <trkpt lat="44.83364" lon="5.0434">
        <ele>355.82</ele>
        <time>2020-07-21T09:07:14.000Z</time>
      </trkpt>
      <trkpt lat="44.83358" lon="5.04339">
        <ele>356.91</ele>
        <time>2020-07-21T09:07:24.000Z</time>
      </trkpt>
      <trkpt lat="44.83349" lon="5.04338">
        <ele>358.26</ele>
        <time>2020-07-21T09:07:34.000Z</time>
      </trkpt>
      <trkpt lat="44.83343" lon="5.04338">
        <ele>359.06</ele>
        <time>2020-07-21T09:07:44.000Z</time>
      </trkpt>
      <trkpt lat="44.83341" lon="5.04338">
        <ele>359.27</ele>
        <time>2020-07-21T09:08:29.000Z</time>
      </trkpt>
      <trkpt lat="44.83334" lon="5.04339">
        <ele>359.99</ele>
        <time>2020-07-21T09:08:39.000Z</time>
      </trkpt>
      <trkpt lat="44.83328" lon="5.0434">
        <ele>360.86</ele>
        <time>2020-07-21T09:08:49.000Z</time>
      </trkpt>
      <trkpt lat="44.83319" lon="5.0434">
        <ele>361.89</ele>
        <time>2020-07-21T09:08:59.000Z</time>
      </trkpt>
      <trkpt lat="44.83311" lon="5.0434">
        <ele>362.92</ele>
        <time>2020-07-21T09:09:09.000Z</time>
      </trkpt>
      <trkpt lat="44.83302" lon="5.04341">
        <ele>363.83</ele>
        <time>2020-07-21T09:09:19.000Z</time>
      </trkpt>
      <trkpt lat="44.83293" lon="5.04341">
        <ele>364.94</ele>
        <time>2020-07-21T09:09:29.000Z</time>
      </trkpt>
      <trkpt lat="44.83285" lon="5.0434">
        <ele>365.98</ele>
        <time>2020-07-21T09:09:39.000Z</time>
      </trkpt>
      <trkpt lat="44.83275" lon="5.04337">
        <ele>367.37</ele>
        <time>2020-07-21T09:09:49.000Z</time>
      </trkpt>
      <trkpt lat="44.83267" lon="5.04337">
        <ele>368.15</ele>
        <time>2020-07-21T09:09:59.000Z</time>
      </trkpt>
      <trkpt lat="44.83256" lon="5.04334">
        <ele>369.46</ele>
        <time>2020-07-21T09:10:09.000Z</time>
      </trkpt>
      <trkpt lat="44.83245" lon="5.04332">
        <ele>370.4</ele>
        <time>2020-07-21T09:10:19.000Z</time>
      </trkpt>
      <trkpt lat="44.83235" lon="5.04329">
        <ele>371.07</ele>
        <time>2020-07-21T09:10:29.000Z</time>
      </trkpt>
      <trkpt lat="44.83227" lon="5.04329">
        <ele>371.49</ele>
        <time>2020-07-21T09:10:39.000Z</time>
      </trkpt>
      <trkpt lat="44.83215" lon="5.04327">
        <ele>371.89</ele>
        <time>2020-07-21T09:10:49.000Z</time>
      </trkpt>
      <trkpt lat="44.83207" lon="5.04329">
        <ele>372.23</ele>
        <time>2020-07-21T09:10:59.000Z</time>
      </trkpt>
      <trkpt lat="44.83199" lon="5.04332">
        <ele>372.54</ele>
        <time>2020-07-21T09:11:09.000Z</time>
      </trkpt>
      <trkpt lat="44.83188" lon="5.04333">
        <ele>372.94</ele>
        <time>2020-07-21T09:11:19.000Z</time>
      </trkpt>
      <trkpt lat="44.83178" lon="5.04329">
        <ele>373.3</ele>
        <time>2020-07-21T09:11:29.000Z</time>
      </trkpt>
      <trkpt lat="44.8317" lon="5.04328">
        <ele>373.65</ele>
        <time>2020-07-21T09:11:39.000Z</time>
      </trkpt>
      <trkpt lat="44.83161" lon="5.04329">
        <ele>374.2</ele>
        <time>2020-07-21T09:11:49.000Z</time>
      </trkpt>
      <trkpt lat="44.8315" lon="5.04328">
        <ele>375</ele>
        <time>2020-07-21T09:11:59.000Z</time>
      </trkpt>
      <trkpt lat="44.83142" lon="5.04326">
        <ele>375.57</ele>
        <time>2020-07-21T09:12:09.000Z</time>
      </trkpt>
      <trkpt lat="44.83132" lon="5.04328">
        <ele>376.5</ele>
        <time>2020-07-21T09:12:19.000Z</time>
      </trkpt>
      <trkpt lat="44.83123" lon="5.04329">
        <ele>377.3</ele>
        <time>2020-07-21T09:12:29.000Z</time>
      </trkpt>
      <trkpt lat="44.83113" lon="5.0433">
        <ele>378.2</ele>
        <time>2020-07-21T09:12:39.000Z</time>
      </trkpt>
      <trkpt lat="44.83101" lon="5.0433">
        <ele>379.06</ele>
        <time>2020-07-21T09:12:49.000Z</time>
      </trkpt>
      <trkpt lat="44.83091" lon="5.04332">
        <ele>379.64</ele>
        <time>2020-07-21T09:12:59.000Z</time>
      </trkpt>
      <trkpt lat="44.83082" lon="5.04334">
        <ele>380.06</ele>
        <time>2020-07-21T09:13:09.000Z</time>
      </trkpt>
      <trkpt lat="44.8307" lon="5.04334">
        <ele>380.33</ele>
        <time>2020-07-21T09:13:19.000Z</time>
      </trkpt>
      <trkpt lat="44.8306" lon="5.04333">
        <ele>380.44</ele>
        <time>2020-07-21T09:13:29.000Z</time>
      </trkpt>
      <trkpt lat="44.83058" lon="5.04333">
        <ele>380.44</ele>
        <time>2020-07-21T09:13:55.000Z</time>
      </trkpt>
      <trkpt lat="44.83047" lon="5.04333">
        <ele>380.42</ele>
        <time>2020-07-21T09:14:05.000Z</time>
      </trkpt>
      <trkpt lat="44.83038" lon="5.04333">
        <ele>380.34</ele>
        <time>2020-07-21T09:14:15.000Z</time>
      </trkpt>
      <trkpt lat="44.83029" lon="5.04334">
        <ele>380.23</ele>
        <time>2020-07-21T09:14:25.000Z</time>
      </trkpt>
      <trkpt lat="44.83016" lon="5.04334">
        <ele>380.09</ele>
        <time>2020-07-21T09:14:35.000Z</time>
      </trkpt>
      <trkpt lat="44.83004" lon="5.04332">
        <ele>380.01</ele>
        <time>2020-07-21T09:14:45.000Z</time>
      </trkpt>
      <trkpt lat="44.82993" lon="5.04331">
        <ele>379.96</ele>
        <time>2020-07-21T09:14:55.000Z</time>
      </trkpt>
      <trkpt lat="44.82983" lon="5.04331">
        <ele>379.84</ele>
        <time>2020-07-21T09:15:05.000Z</time>
      </trkpt>
      <trkpt lat="44.8297" lon="5.04329">
        <ele>379.58</ele>
        <time>2020-07-21T09:15:15.000Z</time>
      </trkpt>
      <trkpt lat="44.8296" lon="5.04328">
        <ele>379.34</ele>
        <time>2020-07-21T09:15:25.000Z</time>
      </trkpt>
      <trkpt lat="44.8295" lon="5.0433">
        <ele>379.3</ele>
        <time>2020-07-21T09:15:35.000Z</time>
      </trkpt>
      <trkpt lat="44.82938" lon="5.04334">
        <ele>379.52</ele>
        <time>2020-07-21T09:15:45.000Z</time>
      </trkpt>
      <trkpt lat="44.82927" lon="5.04335">
        <ele>379.8</ele>
        <time>2020-07-21T09:15:55.000Z</time>
      </trkpt>
      <trkpt lat="44.82916" lon="5.04336">
        <ele>380.22</ele>
        <time>2020-07-21T09:16:05.000Z</time>
      </trkpt>
      <trkpt lat="44.82903" lon="5.04336">
        <ele>380.98</ele>
        <time>2020-07-21T09:16:15.000Z</time>
      </trkpt>
      <trkpt lat="44.82893" lon="5.04336">
        <ele>381.91</ele>
        <time>2020-07-21T09:16:25.000Z</time>
      </trkpt>
      <trkpt lat="44.82881" lon="5.04336">
        <ele>382.99</ele>
        <time>2020-07-21T09:16:35.000Z</time>
      </trkpt>
      <trkpt lat="44.8287" lon="5.04337">
        <ele>384.19</ele>
        <time>2020-07-21T09:16:45.000Z</time>
      </trkpt>
      <trkpt lat="44.8286" lon="5.04342">
        <ele>385.43</ele>
        <time>2020-07-21T09:16:55.000Z</time>
      </trkpt>
      <trkpt lat="44.8285" lon="5.04347">
        <ele>386.51</ele>
        <time>2020-07-21T09:17:05.000Z</time>
      </trkpt>
      <trkpt lat="44.8284" lon="5.04354">
        <ele>387.43</ele>
        <time>2020-07-21T09:17:15.000Z</time>
      </trkpt>
      <trkpt lat="44.82827" lon="5.04358">
        <ele>388.43</ele>
        <time>2020-07-21T09:17:25.000Z</time>
      </trkpt>
      <trkpt lat="44.82815" lon="5.04363">
        <ele>389.48</ele>
        <time>2020-07-21T09:17:35.000Z</time>
      </trkpt>
      <trkpt lat="44.82804" lon="5.04365">
        <ele>390.48</ele>
        <time>2020-07-21T09:17:45.000Z</time>
      </trkpt>
      <trkpt lat="44.82793" lon="5.04369">
        <ele>391.72</ele>
        <time>2020-07-21T09:17:55.000Z</time>
      </trkpt>
      <trkpt lat="44.82782" lon="5.04374">
        <ele>393.31</ele>
        <time>2020-07-21T09:18:05.000Z</time>
      </trkpt>
      <trkpt lat="44.8277" lon="5.04381">
        <ele>395.38</ele>
        <time>2020-07-21T09:18:15.000Z</time>
      </trkpt>
      <trkpt lat="44.82758" lon="5.04387">
        <ele>397.56</ele>
        <time>2020-07-21T09:18:25.000Z</time>
      </trkpt>
      <trkpt lat="44.82748" lon="5.04393">
        <ele>399.49</ele>
        <time>2020-07-21T09:18:35.000Z</time>
      </trkpt>
      <trkpt lat="44.82737" lon="5.04398">
        <ele>401.16</ele>
        <time>2020-07-21T09:18:45.000Z</time>
      </trkpt>
      <trkpt lat="44.82727" lon="5.04402">
        <ele>402.75</ele>
        <time>2020-07-21T09:18:55.000Z</time>
      </trkpt>
      <trkpt lat="44.82716" lon="5.04406">
        <ele>404.08</ele>
        <time>2020-07-21T09:19:05.000Z</time>
      </trkpt>
      <trkpt lat="44.82706" lon="5.04411">
        <ele>405.39</ele>
        <time>2020-07-21T09:19:15.000Z</time>
      </trkpt>
      <trkpt lat="44.82699" lon="5.04417">
        <ele>406.47</ele>
        <time>2020-07-21T09:19:25.000Z</time>
      </trkpt>
      <trkpt lat="44.8269" lon="5.04418">
        <ele>406.85</ele>
        <time>2020-07-21T09:19:35.000Z</time>
      </trkpt>
      <trkpt lat="44.82689" lon="5.04418">
        <ele>406.95</ele>
        <time>2020-07-21T09:20:03.000Z</time>
      </trkpt>
      <trkpt lat="44.82682" lon="5.04421">
        <ele>407.34</ele>
        <time>2020-07-21T09:20:13.000Z</time>
      </trkpt>
      <trkpt lat="44.8267" lon="5.04425">
        <ele>407.75</ele>
        <time>2020-07-21T09:20:23.000Z</time>
      </trkpt>
      <trkpt lat="44.82661" lon="5.04422">
        <ele>407.37</ele>
        <time>2020-07-21T09:20:33.000Z</time>
      </trkpt>
      <trkpt lat="44.82655" lon="5.04412">
        <ele>406.19</ele>
        <time>2020-07-21T09:20:43.000Z</time>
      </trkpt>
      <trkpt lat="44.82653" lon="5.04411">
        <ele>405.92</ele>
        <time>2020-07-21T09:20:53.000Z</time>
      </trkpt>
      <trkpt lat="44.82654" lon="5.04409">
        <ele>405.79</ele>
        <time>2020-07-21T09:21:59.000Z</time>
      </trkpt>
      <trkpt lat="44.82651" lon="5.04395">
        <ele>403.64</ele>
        <time>2020-07-21T09:22:09.000Z</time>
      </trkpt>
      <trkpt lat="44.82645" lon="5.04381">
        <ele>400.69</ele>
        <time>2020-07-21T09:22:19.000Z</time>
      </trkpt>
      <trkpt lat="44.82632" lon="5.04373">
        <ele>398.69</ele>
        <time>2020-07-21T09:22:29.000Z</time>
      </trkpt>
      <trkpt lat="44.8262" lon="5.04375">
        <ele>398.45</ele>
        <time>2020-07-21T09:22:39.000Z</time>
      </trkpt>
      <trkpt lat="44.82609" lon="5.04376">
        <ele>398</ele>
        <time>2020-07-21T09:22:49.000Z</time>
      </trkpt>
      <trkpt lat="44.82597" lon="5.04375">
        <ele>397.03</ele>
        <time>2020-07-21T09:22:59.000Z</time>
      </trkpt>
      <trkpt lat="44.82586" lon="5.04374">
        <ele>396.08</ele>
        <time>2020-07-21T09:23:09.000Z</time>
      </trkpt>
      <trkpt lat="44.82574" lon="5.04372">
        <ele>394.71</ele>
        <time>2020-07-21T09:23:19.000Z</time>
      </trkpt>
      <trkpt lat="44.8256" lon="5.0437">
        <ele>392.75</ele>
        <time>2020-07-21T09:23:29.000Z</time>
      </trkpt>
      <trkpt lat="44.82549" lon="5.04364">
        <ele>390.39</ele>
        <time>2020-07-21T09:23:39.000Z</time>
      </trkpt>
      <trkpt lat="44.82536" lon="5.04366">
        <ele>388.71</ele>
        <time>2020-07-21T09:23:49.000Z</time>
      </trkpt>
      <trkpt lat="44.82525" lon="5.04369">
        <ele>387.79</ele>
        <time>2020-07-21T09:23:59.000Z</time>
      </trkpt>
      <trkpt lat="44.82523" lon="5.0437">
        <ele>387.84</ele>
        <time>2020-07-21T09:24:09.000Z</time>
      </trkpt>
      <trkpt lat="44.8252" lon="5.04371">
        <ele>387.68</ele>
        <time>2020-07-21T09:24:19.000Z</time>
      </trkpt>
      <trkpt lat="44.82512" lon="5.04373">
        <ele>387.38</ele>
        <time>2020-07-21T09:24:29.000Z</time>
      </trkpt>
      <trkpt lat="44.82506" lon="5.04374">
        <ele>387.13</ele>
        <time>2020-07-21T09:24:39.000Z</time>
      </trkpt>
      <trkpt lat="44.82496" lon="5.04378">
        <ele>387.5</ele>
        <time>2020-07-21T09:24:49.000Z</time>
      </trkpt>
      <trkpt lat="44.82485" lon="5.04378">
        <ele>387.21</ele>
        <time>2020-07-21T09:24:59.000Z</time>
      </trkpt>
      <trkpt lat="44.82472" lon="5.04376">
        <ele>386.89</ele>
        <time>2020-07-21T09:25:09.000Z</time>
      </trkpt>
      <trkpt lat="44.82464" lon="5.04367">
        <ele>385.23</ele>
        <time>2020-07-21T09:25:19.000Z</time>
      </trkpt>
      <trkpt lat="44.82456" lon="5.04363">
        <ele>384.67</ele>
        <time>2020-07-21T09:25:29.000Z</time>
      </trkpt>
      <trkpt lat="44.82444" lon="5.04362">
        <ele>385.03</ele>
        <time>2020-07-21T09:25:39.000Z</time>
      </trkpt>
      <trkpt lat="44.82432" lon="5.04367">
        <ele>386.69</ele>
        <time>2020-07-21T09:25:49.000Z</time>
      </trkpt>
      <trkpt lat="44.82419" lon="5.0437">
        <ele>388.02</ele>
        <time>2020-07-21T09:25:59.000Z</time>
      </trkpt>
      <trkpt lat="44.82406" lon="5.04374">
        <ele>389.45</ele>
        <time>2020-07-21T09:26:09.000Z</time>
      </trkpt>
      <trkpt lat="44.82394" lon="5.04377">
        <ele>390.93</ele>
        <time>2020-07-21T09:26:19.000Z</time>
      </trkpt>
      <trkpt lat="44.82382" lon="5.0438">
        <ele>392.19</ele>
        <time>2020-07-21T09:26:29.000Z</time>
      </trkpt>
      <trkpt lat="44.82371" lon="5.04381">
        <ele>393.05</ele>
        <time>2020-07-21T09:26:39.000Z</time>
      </trkpt>
      <trkpt lat="44.82375" lon="5.0438">
        <ele>392.76</ele>
        <time>2020-07-21T09:26:49.000Z</time>
      </trkpt>
      <trkpt lat="44.82373" lon="5.0438">
        <ele>392.94</ele>
        <time>2020-07-21T09:26:59.000Z</time>
      </trkpt>
      <trkpt lat="44.82372" lon="5.0438">
        <ele>392.99</ele>
        <time>2020-07-21T09:27:17.000Z</time>
      </trkpt>
      <trkpt lat="44.82364" lon="5.04383">
        <ele>393.47</ele>
        <time>2020-07-21T09:27:27.000Z</time>
      </trkpt>
      <trkpt lat="44.82352" lon="5.04383">
        <ele>393.98</ele>
        <time>2020-07-21T09:27:37.000Z</time>
      </trkpt>
      <trkpt lat="44.82342" lon="5.04376">
        <ele>395.06</ele>
        <time>2020-07-21T09:27:47.000Z</time>
      </trkpt>
      <trkpt lat="44.82348" lon="5.04364">
        <ele>396.33</ele>
        <time>2020-07-21T09:27:57.000Z</time>
      </trkpt>
      <trkpt lat="44.82359" lon="5.04359">
        <ele>395.48</ele>
        <time>2020-07-21T09:28:07.000Z</time>
      </trkpt>
      <trkpt lat="44.82368" lon="5.04357">
        <ele>394.13</ele>
        <time>2020-07-21T09:28:17.000Z</time>
      </trkpt>
      <trkpt lat="44.82373" lon="5.04351">
        <ele>393</ele>
        <time>2020-07-21T09:28:27.000Z</time>
      </trkpt>
      <trkpt lat="44.82381" lon="5.04345">
        <ele>390.81</ele>
        <time>2020-07-21T09:28:37.000Z</time>
      </trkpt>
      <trkpt lat="44.82384" lon="5.04334">
        <ele>388.95</ele>
        <time>2020-07-21T09:28:47.000Z</time>
      </trkpt>
      <trkpt lat="44.82386" lon="5.04321">
        <ele>386.25</ele>
        <time>2020-07-21T09:28:57.000Z</time>
      </trkpt>
      <trkpt lat="44.82387" lon="5.04309">
        <ele>383.6</ele>
        <time>2020-07-21T09:29:07.000Z</time>
      </trkpt>
      <trkpt lat="44.82389" lon="5.04293">
        <ele>378.96</ele>
        <time>2020-07-21T09:29:17.000Z</time>
      </trkpt>
      <trkpt lat="44.82386" lon="5.04275">
        <ele>375.31</ele>
        <time>2020-07-21T09:29:27.000Z</time>
      </trkpt>
      <trkpt lat="44.82382" lon="5.04264">
        <ele>373.25</ele>
        <time>2020-07-21T09:29:37.000Z</time>
      </trkpt>
      <trkpt lat="44.8238" lon="5.04253">
        <ele>371.12</ele>
        <time>2020-07-21T09:29:47.000Z</time>
      </trkpt>
      <trkpt lat="44.82376" lon="5.0424">
        <ele>369.04</ele>
        <time>2020-07-21T09:29:57.000Z</time>
      </trkpt>
      <trkpt lat="44.82376" lon="5.04227">
        <ele>365.91</ele>
        <time>2020-07-21T09:30:07.000Z</time>
      </trkpt>
      <trkpt lat="44.82375" lon="5.04215">
        <ele>363.55</ele>
        <time>2020-07-21T09:30:17.000Z</time>
      </trkpt>
      <trkpt lat="44.82371" lon="5.04201">
        <ele>360.69</ele>
        <time>2020-07-21T09:30:27.000Z</time>
      </trkpt>
      <trkpt lat="44.82366" lon="5.04193">
        <ele>359.53</ele>
        <time>2020-07-21T09:30:37.000Z</time>
      </trkpt>
      <trkpt lat="44.82366" lon="5.04181">
        <ele>356.66</ele>
        <time>2020-07-21T09:30:47.000Z</time>
      </trkpt>
      <trkpt lat="44.82371" lon="5.04171">
        <ele>353.32</ele>
        <time>2020-07-21T09:30:57.000Z</time>
      </trkpt>
      <trkpt lat="44.82369" lon="5.04159">
        <ele>351.11</ele>
        <time>2020-07-21T09:31:07.000Z</time>
      </trkpt>
      <trkpt lat="44.82369" lon="5.04147">
        <ele>348.76</ele>
        <time>2020-07-21T09:31:17.000Z</time>
      </trkpt>
      <trkpt lat="44.82368" lon="5.04134">
        <ele>346.18</ele>
        <time>2020-07-21T09:31:27.000Z</time>
      </trkpt>
      <trkpt lat="44.82366" lon="5.0412">
        <ele>343.73</ele>
        <time>2020-07-21T09:31:37.000Z</time>
      </trkpt>
      <trkpt lat="44.82362" lon="5.04105">
        <ele>341.58</ele>
        <time>2020-07-21T09:31:47.000Z</time>
      </trkpt>
      <trkpt lat="44.82357" lon="5.04091">
        <ele>340.02</ele>
        <time>2020-07-21T09:31:57.000Z</time>
      </trkpt>
      <trkpt lat="44.82352" lon="5.0408">
        <ele>338.94</ele>
        <time>2020-07-21T09:32:07.000Z</time>
      </trkpt>
      <trkpt lat="44.82346" lon="5.0407">
        <ele>338.19</ele>
        <time>2020-07-21T09:32:17.000Z</time>
      </trkpt>
      <trkpt lat="44.82342" lon="5.04056">
        <ele>336.89</ele>
        <time>2020-07-21T09:32:27.000Z</time>
      </trkpt>
      <trkpt lat="44.82339" lon="5.04043">
        <ele>335.74</ele>
        <time>2020-07-21T09:32:37.000Z</time>
      </trkpt>
      <trkpt lat="44.82335" lon="5.04032">
        <ele>334.89</ele>
        <time>2020-07-21T09:32:47.000Z</time>
      </trkpt>
      <trkpt lat="44.82331" lon="5.04017">
        <ele>333.8</ele>
        <time>2020-07-21T09:32:57.000Z</time>
      </trkpt>
      <trkpt lat="44.82325" lon="5.04005">
        <ele>332.96</ele>
        <time>2020-07-21T09:33:07.000Z</time>
      </trkpt>
      <trkpt lat="44.82322" lon="5.03992">
        <ele>331.95</ele>
        <time>2020-07-21T09:33:17.000Z</time>
      </trkpt>
      <trkpt lat="44.82317" lon="5.03978">
        <ele>330.95</ele>
        <time>2020-07-21T09:33:27.000Z</time>
      </trkpt>
      <trkpt lat="44.82314" lon="5.03964">
        <ele>329.94</ele>
        <time>2020-07-21T09:33:37.000Z</time>
      </trkpt>
      <trkpt lat="44.82321" lon="5.03968">
        <ele>329.95</ele>
        <time>2020-07-21T09:33:47.000Z</time>
      </trkpt>
      <trkpt lat="44.82327" lon="5.03969">
        <ele>329.67</ele>
        <time>2020-07-21T09:33:57.000Z</time>
      </trkpt>
      <trkpt lat="44.82338" lon="5.0397">
        <ele>328.83</ele>
        <time>2020-07-21T09:34:07.000Z</time>
      </trkpt>
      <trkpt lat="44.82348" lon="5.03973">
        <ele>327.81</ele>
        <time>2020-07-21T09:34:17.000Z</time>
      </trkpt>
      <trkpt lat="44.82357" lon="5.03971">
        <ele>326.2</ele>
        <time>2020-07-21T09:34:27.000Z</time>
      </trkpt>
      <trkpt lat="44.82365" lon="5.03958">
        <ele>323.98</ele>
        <time>2020-07-21T09:34:37.000Z</time>
      </trkpt>
      <trkpt lat="44.8237" lon="5.03945">
        <ele>322.18</ele>
        <time>2020-07-21T09:34:47.000Z</time>
      </trkpt>
      <trkpt lat="44.82376" lon="5.03932">
        <ele>320.6</ele>
        <time>2020-07-21T09:34:57.000Z</time>
      </trkpt>
      <trkpt lat="44.82371" lon="5.03921">
        <ele>320.86</ele>
        <time>2020-07-21T09:35:07.000Z</time>
      </trkpt>
      <trkpt lat="44.82361" lon="5.03918">
        <ele>322.14</ele>
        <time>2020-07-21T09:35:17.000Z</time>
      </trkpt>
      <trkpt lat="44.8236" lon="5.0392">
        <ele>322.28</ele>
        <time>2020-07-21T09:35:40.000Z</time>
      </trkpt>
      <trkpt lat="44.82358" lon="5.0392">
        <ele>322.57</ele>
        <time>2020-07-21T09:35:50.000Z</time>
      </trkpt>
      <trkpt lat="44.8236" lon="5.03921">
        <ele>322.32</ele>
        <time>2020-07-21T09:36:00.000Z</time>
      </trkpt>
      <trkpt lat="44.8236" lon="5.0392">
        <ele>322.38</ele>
        <time>2020-07-21T09:36:10.000Z</time>
      </trkpt>
      <trkpt lat="44.8236" lon="5.0392">
        <ele>322.38</ele>
        <time>2020-07-21T09:36:14.000Z</time>
      </trkpt>
    </trkseg>
  </trk>
</gpx>